Aviation Digital Data Service (ADDS)

Output produced by METARs form (1748 UTC 25 February 2018)
found at http://aviationweather.gov/adds/metars/
 
K04W 251735Z AUTO 24013KT 10SM OVC022 M04/M08 A2963 RMK AO2
K05U 251735Z AUTO 19003KT 10SM CLR M04/M12 A3022 RMK A01
K06C 251735Z AUTO 26010G18KT 210V310 10SM SCT032 03/M04 A2991 RMK AO2 T00301044
K06D 251735Z AUTO 30012KT 10SM FEW042 OVC050 M04/M07 A2955 RMK AO2 TSNO
K0A9 251735Z AUTO VRB06KT 10SM CLR 16/12 A3008 RMK AO2
K0CO 251730Z AUTO 32039KT 1/4SM -SN BKN005 OVC010 M20/M26 A2966 RMK AO2
K0E0 251735Z AUTO 29021G27KT 10SM SCT041 SCT047 02/M09 A3008 RMK AO2 T00241089
K0F2 251735Z AUTO 15008KT 10SM CLR 14/05 A3006 RMK AO2 T01360054
K0J4 251713Z AUTO 01011G17KT 10SM -RA FEW009 BKN031 OVC040 18/15 A3018 RMK AO2 P0000 T01830150 $
K0R0 251735Z AUTO 10007KT 10SM OVC005 15/14 A3013 RMK AO2
K0R4 251735Z AUTO 06007KT 7SM -RA OVC008 13/12 A3007 RMK AO2 LTG DSNT SW P0002 T01270120
K0S9 251735Z AUTO 30009G18KT 7SM -RA BKN015 BKN019 04/02 A2982 RMK AO2
K0V4 251735Z AUTO 19009KT 10SM CLR 19/16 A2997 RMK AO1 T01920164
K0VG 251730Z AUTO 15003KT 10SM CLR 13/11 A3010 RMK AO2
K11R 251735Z AUTO 05005KT 10SM OVC009 14/13 A3003 RMK AO2 LTG DSNT E T01370130
K12N 251654Z AUTO VRB05KT 06/04 A2994 RMK AO1 SLP145 P0001 T00560039
K14Y 251735Z AUTO 23008G15KT 10SM OVC017 M05/M08 A2966 RMK AO2
K17J 251735Z AUTO 28006KT 10SM SCT033 BKN043 26/18 A3011 RMK AO2 T02620184
K18A 251735Z AUTO 24007KT 10SM SCT009 OVC090 19/17 A3014 RMK AO2 T01880169
K19S 251735Z AUTO 02007KT 10SM BKN110 05/M10 A3000 RMK AO2 T00461095
K1A5 251735Z AUTO 00000KT 10SM OVC100 16/11 A3011 RMK AO2 T01550110
K1A6 251735Z AUTO 00000KT 10SM SCT034 SCT041 SCT050 14/09 A3007 RMK AO2 T01370092
K1A9 251735Z AUTO 00000KT 10SM BKN008 OVC070 15/14 A3017 RMK AO2 T01450141
K1F0 251735Z AUTO 19008KT 10SM CLR 13/03 A3007 RMK AO2
K1H2 251735Z AUTO 20010KT 10SM CLR 07/00 A3011 RMK AO2 T00681002
K1K1 251730Z AUTO 16005KT 10SM CLR 07/M03 A3007 RMK AO2 T00701027
K1M4 251743Z AUTO 25004KT 10SM BKN006 OVC021 12/12 A3012 RMK AO2 CIG 005V010
K1M5 251735Z AUTO 32003KT 10SM BKN017 10/06 A3012 RMK A01
K1P1 251755Z AUTO 10007KT 3/4SM -SN OVC005 M01/M03 A3013 RMK AO2 P0003 60011 T10151027 11001 21024
K1S5 251735Z AUTO 22012KT 10SM SCT080 BKN100 08/M01 A2981 RMK AO2 T00781009
K1V4 251654Z AUTO M01/M02 A3003 RMK AO1 SLP180 P0004 T10111022
K1YT 251658Z AUTO 20004KT 10SM SCT042 06/M02 A2974 RMK AO2 SLPNO T00551022 $
K20U 251735Z AUTO 24014KT 10SM CLR M07/M12 A2968 RMK AO2
K20V 251730Z AUTO 25012KT 10SM SCT034 BKN042 OVC050 M01/M12 A2999 RMK AO2
K21D 251735Z AUTO 24010G19KT 10SM SCT035 M05/M10 A2974 RMK AO2
K22N 251735Z AUTO 00000KT 10SM OVC009 07/06 A2997 RMK AO2
K24A 251735Z AUTO 15006KT 10SM BKN085 OVC090 14/08 A3014 RMK AO2 T01400085
K24J 251735Z AUTO 20011KT 10SM FEW039 SCT045 OVC080 28/18 A3016 RMK A01
K27K 251755Z AUTO 25008KT 10SM SCT023 08/04 A3008 RMK AO1
K28J 251735Z AUTO 24007KT 10SM FEW046 BKN085 27/18 A3017 RMK AO2
K2C8 251735Z AUTO 30011KT M05/M08 A2956 RMK AO2 TSNO
K2D5 251735Z AUTO 27017KT 10SM M04/M07 A2969 RMK AO2 PWINO
K2DP 251656Z AUTO 23016G22KT 10SM CLR 25/18 A3006 RMK AO2 PK WND 21026/28 SLPNO T02530176 $
K2F5 251735Z AUTO 24019G22KT 10SM SCT080 BKN100 BKN120 17/M16 A3003 RMK AO2
K2G4 251735Z AUTO 25008G19KT 222V302 5SM OVC012 10/09 A2990 RMK AO1
K2G9 251735Z AUTO 28012G19KT 10SM -RA OVC015 11/09 A2990 RMK AO2
K2I0 251555Z AUTO 30008KT 10SM CLR 09/04 A3013 RMK AO2 T00850035
K2J3 251730Z AUTO 25011G20KT 10SM SCT027 BKN038 OVC046 24/17 A3014 RMK AO2 T02410174
K2J9 251735Z AUTO VRB03KT 10SM FEW019 SCT055 BKN090 22/21 A3015 RMK AO2
K2P2 251735Z AUTO 24022G31KT 7SM OVC021 M02/M05 A2957 RMK AO2 T10221054
K2V5 251735Z AUTO 30021G26KT 10SM CLR 06/M16 A2995 RMK AO2
K2W6 251737Z AUTO 22007KT 10SM OVC095 12/12 A2992 RMK AO1
K2WX 251656Z AUTO 24016KT M07/M11 A2964 RMK AO1 SLP089 T10671111
K33V 251735Z AUTO 24018G24KT 10SM SCT037 BKN045 M08/M17 A2990 RMK AO1
K3AU 251735Z AUTO 12004KT 10SM CLR 07/M01 A3007 RMK AO2
K3D2 251730Z AUTO 25015G24KT 10SM OVC023 M02/M06 A2959 RMK AO2 T10251063
K3F3 251735Z AUTO 11005KT 7SM -RA SCT070 OVC090 11/10 A3015 RMK AO2 LTG DSNT SE P0010 T01060095
K3I2 251735Z AUTO 23004KT 10SM SCT024 15/09 A3002 RMK AO2 T01450088
K3J7 251735Z AUTO 20003KT 10SM -DZ SCT045 SCT050 OVC060 18/16 A3013 RMK AO2
K3K3 251735Z AUTO 29005KT 10SM CLR 02/M13 A3002 RMK AO2
K3L4 251735Z AUTO 16013KT 10SM BKN020 BKN025 BKN035 25/20 A3002 RMK A01
K3LF 251735Z AUTO 23007KT 10SM CLR 06/M02 A3010 RMK AO2 T00561020
K3N8 251735Z AUTO 25014KT 10SM OVC014 M06/M08 A2960 RMK AO2 T10561083
K3R7 251735Z AUTO 09004KT 10SM OVC022 20/16 A3004 RMK AO2 T02000164
K3S8 251735Z AUTO 11003KT 10SM FEW024 BKN032 OVC037 06/02 A3026 RMK AO2
K3T5 251735Z AUTO 04006KT 10SM OVC010 14/13 A3000 RMK AO2 T01420126
K40B 251716Z AUTO 11007G14KT 070V140 M07/M15 A3014 RMK AO1 SLP247 T10741154 58046
K40J 251735Z AUTO 20013G17KT 10SM SCT026 OVC085 27/19 A3017 RMK AO2 T02650188
K42J 251735Z AUTO 24007KT 9SM FEW080 27/18 A3017 RMK AO1 TSNO
K46D 251735Z AUTO 31011KT 10SM BKN039 M04/M08 A2965 RMK AO2
K46U 251720Z AUTO 00000KT 6SM HZ FEW020 BKN030 BKN036 M08/M12 A3008 RMK A01
K49A 251735Z AUTO 18003KT 10SM -RA SCT009 SCT026 SCT045 14/12 A3017 RMK AO2 T01410117
K4A6 251735Z AUTO VRB04G14KT 10SM SCT014 14/14 A3011 RMK AO2
K4A9 251735Z AUTO 00000KT 10SM -RA OVC090 12/11 A3013 RMK AO2
K4BM 251736Z AUTO 26011G20KT 230V290 10SM BKN039 OVC047 M12/M23 A2979 RMK AO2
K4I3 251735Z AUTO 23013G18KT 10SM CLR 09/04 A2998 RMK AO2
K4MR 251658Z AUTO 29021G27KT 10SM CLR 08/M15 A3003 RMK AO2 SLP160 T00781147 $
K4O4 251735Z AUTO 09006KT 10SM CLR 10/06 A3010 RMK AO2
K4R5 251735Z AUTO 24013G21KT 10SM OVC027 M02/M07 A2950 RMK AO2 T10201071
K4S2 251735Z AUTO 23003KT 7SM RA SCT031 BKN037 OVC044 06/03 A2990 RMK AO2 P0001
K4V0 251735Z AUTO 26009G14KT 10SM CLR M03/M12 A3014 RMK AO2 T10291121
K54J 251735Z AUTO 34017G28KT 7SM SCT019 SCT026 BKN033 20/15 A3014 RMK AO2 T01980148
K57C 251735Z AUTO 24014G19KT 10SM CLR 01/M05 A2983 RMK AO2 T00071050
K5A6 251735Z AUTO 23003KT 10SM OVC010 12/11 A3014 RMK AO2 T01170110
K5C1 251735Z AUTO 01004KT 10SM OVC025 16/07 A3003 RMK AO1
K5H4 251735Z AUTO 28011KT 10SM BKN041 M04/M08 A2964 RMK AO2
K5M9 251735Z AUTO 00000KT 10SM CLR 08/M01 A3013 RMK AO2 T00811008
K5SM 251730Z AUTO 23006G18KT 180V290 7SM SCT007 SCT010 BKN017 M14/M16 A2996 RMK AO2
K5T9 251735Z AUTO VRB04KT 10SM CLR 23/07 A3001 RMK A01
K65S 251735Z AUTO 19006KT 10SM -SN OVC015 00/M03 A2962 RMK AO2
K66R 251735Z AUTO 34005KT 10SM BKN005 OVC012 14/13 A3001 RMK AO2 LTG DSNT NE T01400131
K6A1 251735Z AUTO 01011G14KT 10SM -RA 18/17 A3017 RMK AO2 T01760167
K6A2 251735Z AUTO 25003KT 10SM SCT004 SCT029 OVC065 18/17 A3017 RMK AO2
K6B0 251735Z AUTO 14008G17KT 110V180 10SM OVC038 03/M03 A2996 RMK AO2 T00261026
K6B9 251735Z AUTO 19009G19KT 9SM SCT019 OVC026 08/06 A2981 RMK AO2
K6I2 251730Z AUTO 20007KT 10SM SCT023 09/03 A3010 RMK AO2
K6L4 251735Z AUTO 00000G10KT 10SM OVC043 14/10 A3003 RMK AO2
K6P9 251735Z AUTO 14008KT 10SM CLR 16/06 A3005 RMK AO2 T01570063
K6R3 251735Z AUTO 00000KT 7SM -RA OVC004 13/12 A3003 RMK AO2 LTG DSNT E P0008 T01280124
K6R6 251653Z AUTO 23006KT 18/M15 A3005 RMK AO1 SLP155 T01781150
K6S0 251735Z AUTO 26043KT 1/2SM HZ VV005 M03/M09 A2967 RMK A01
K6S2 251735Z AUTO 21010G15KT 190V250 2SM -RA BKN008 OVC012 08/07 A3014 RMK AO2 P0002
K79J 251656Z AUTO 35012KT 10SM -RA FEW022 BKN036 OVC044 19/15 A3017 RMK AO2 WSHFT 1543 SLP215 P0000 T01940150
K7BM 251730Z AUTO 34005G16KT 10SM SCT035 BKN042 OVC050 M06/M18 A2985 RMK AO2
K7L2 251735Z AUTO 26009KT 10SM M04/M10 A2974 RMK AO2
K7N0 251739Z AUTO VRB06KT 10SM -RA OVC028 18/16 A3011 RMK AO2 RAB06 P0000
K7W4 251650Z AUTO 19009KT 10SM OVC004 11/10 A2996 RMK AO1 T01110104
K7W6 251735Z AUTO 23015G20KT 10SM CLR 25/18 A3005 RMK AO2 T02540180
K82C 251735Z AUTO 26008G16KT 5SM HZ CLR M01/M06 A2975 RMK AO2 T10081060
K82V 251735Z AUTO 10SM CLR M01/M12 A2988 RMK AO2
K8A0 251735Z AUTO 17003G16KT 10SM SCT085 OVC100 11/11 A3009 RMK AO2
K8A3 251735Z AUTO 34004KT 10SM OVC020 09/04 A3010 RMK A01
K8D3 251656Z AUTO 27020G28KT M03/M07 A2969 RMK AO1 PK WND 28029/1606 SLP081 T10331072
K8W2 251735Z AUTO 00000KT 10SM SCT120 12/11 A2991 RMK AO1 T01210111
K96D 251735Z AUTO 30010G16KT 10SM CLR M05/M08 A2956 RMK AO2
K9A5 251735Z AUTO 21006KT 10SM SCT045 OVC090 13/12 A3015 RMK AO2 T01300121
K9D7 251735Z AUTO 27019KT 10SM OVC050 M05/M06 A2959 RMK AO2
K9L2 251658Z AUTO 01003KT 9SM CLR 05/M12 A3031 RMK AO2 SLP268 T00501121
K9MN 251735Z AUTO 25013G23KT 210V280 10SM CLR M04/M09 A2977 RMK AO1 T10411094
K9V9 251735Z AUTO 23010KT 10SM CLR M02/M08 A2986 RMK AO2 T10181081
KA08 251735Z AUTO 14007KT 10SM BKN004 OVC090 13/13 A3012 RMK AO2 T01250125
KA39 251735Z AUTO 00000KT 10SM CLR 09/M06 A3028 RMK AO2
KAAA 251735Z AUTO 24007KT 10SM CLR 06/M03 A3006 RMK AO2 T00611032
KAAF 251740Z AUTO 30005G15KT 3/4SM +RA BR SCT014 BKN022 OVC037 21/19 A3015 RMK AO2 P0039 T02060194
KAAO 251654Z AUTO 12006KT 10SM FEW070 06/M04 A3005 RMK AO2 SLP187 T00611044
KAAT 251655Z AUTO 00000KT 10SM OVC050 M05/M08 A3021 RMK AO2 SLP265 T10501078
KABE 251651Z 11011KT 10SM -RA OVC008 08/05 A2993 RMK AO2 SLP137 P0000 T00780050
KABH 251656Z AUTO 28008KT A2991 RMK AO2 SLPNO $
KABI 251652Z 16008KT 10SM BKN120 16/M07 A3005 RMK AO2 SLP168 T01611067 $
KABQ 251652Z 30014KT 10SM BKN045 02/M09 A3012 RMK AO2 SLP209 SHSN DSNT N-NE MTNS OBSC NE T00221094
KABR 251653Z AUTO 27012KT 10SM CLR M04/M09 A2975 RMK AO2 SLP099 T10441089
KABY 251653Z 24009KT 10SM BKN024 24/19 A3016 RMK AO2 SLP212 T02440189
KACB 251735Z AUTO 22016G24KT 10SM OVC029 00/M04 A2964 RMK AO2 T00001042
KACJ 251735Z AUTO 25008KT 10SM SCT033 BKN100 OVC110 26/14 A3014 RMK AO2
KACK 251735Z 10021G29KT 4SM RA BR OVC007 06/06 A3005 RMK AO2 PK WND 10029/1726 PRESFR P0006 T00560056
KACP 251735Z AUTO 03003KT 10SM -VCTSRA OVC003 14/13 A3006 RMK AO2 LTG DSNT NW T01390130
KACQ 251735Z AUTO 24015KT 10SM CLR M05/M09 A2982 RMK AO2
KACT 251651Z 13010KT 10SM FEW019 15/10 A3006 RMK AO2 SLP175 T01500100
KACV 251653Z AUTO 14008KT 10SM OVC039 07/02 A3038 RMK AO2 SLP294 T00720022
KACY 251745Z 27007KT 10SM OVC004 11/11 A2994 RMK AO2 T01110106 $
KADC 251735Z AUTO 26015G20KT 10SM OVC018 M07/M09 A2962 RMK AO2
KADF 251656Z AUTO 03005KT 10SM CLR 11/07 A3014 RMK AO2 SLP209 T01110067
KADG 251740Z AUTO 26014G25KT 10SM BKN029 04/M02 A2992 RMK AO2 PK WND 27030/1700 T00391022 TSNO
KADH 251735Z AUTO 16006KT 10SM CLR 11/06 A3007 RMK AO2
KADM 251655Z 00000KT 10SM SKC 12/07 A3007
KADS 251647Z 14008KT 10SM SKC 14/07 A3009
KADU 251735Z AUTO 25010G15KT 10SM CLR 01/M04 A2996 RMK AO2
KADW 251733Z 11003KT 10SM -DZ OVC003 10/09 A3001 RMK AO2A RAE02DZB02E19DZB33 CIG 002 RWY19L SLPNO $
KAEG 251647Z 31015KTKT 10SM SCT040 BKN060 01/M07 A3012 RMK SHSN DSNT NW-NE
KAEJ 251735Z AUTO 24013G17KT 210V290 10SM SCT060 OVC070 M04/M22 A2992 RMK AO2 T10431225
KAEL 251735Z AUTO 26010G16KT CLR M05/M09 A2980 RMK AO2 PWINO
KAEX 251719Z 09006KT 2 1/2SM +RA BR FEW019 BKN036 OVC090 12/11 A3006 RMK AO2 P0014 T01170111
KAFF 251658Z AUTO 35003KT 10SM FEW080 FEW095 M02/M21 A2991 RMK AO2 SLP164 T10171207
KAFJ 251656Z AUTO 25013G19KT 10SM FEW046 13/02 A2993 RMK AO2 PK WND 27027/1601 SLP137 P0001 T01280022
KAFK 251735Z AUTO 23007KT 10SM CLR 03/M01 A3002 RMK AO2 T00251008
KAFN 251652Z AUTO VRB03KT 7SM -RA OVC008 01/01 A3009 RMK AO2 CIG 006V011 SLP206 P0005 T00110006
KAFO 251735Z AUTO 7SM OVC029 M07/M13 A3006 RMK AO2
KAFP 251735Z AUTO 30009KT 10SM OVC037 20/14 A3009 RMK AO2 T01960136
KAFW 251653Z 13012KT 10SM BKN140 BKN250 15/07 A3006 RMK AO2 PRESFR SLP179 VIRGA T01500067 $
KAGC 251653Z 26009KT 10SM SCT060 BKN070 13/06 A2989 RMK AO2 SLP127 T01330061
KAGS 251653Z 23012G16KT 10SM BKN026 OVC032 25/17 A3013 RMK AO2 SLP199 T02500172
KAHN 251651Z 23003KT 10SM FEW006 OVC085 18/18 A3015 RMK AO2 RAE18B36E50 SLP206 P0001 T01830178
KAHQ 251735Z AUTO 24007KT 10SM CLR 01/M07 A3000 RMK AO2 T00101067
KAIA 251653Z AUTO 27018KT 10SM CLR M02/M09 A2984 RMK AO2 PK WND 27027/1613 SLP151 T10221089 $
KAIB 251735Z AUTO 11003KT 10SM CLR M01/M09 A3018 RMK AO2
KAIG 251735Z AUTO 26018G31KT 2 1/2SM BR OVC012 M06/M08 A2959 RMK AO2 VIS 1 1/2V5 T10571078
KAIK 251735Z AUTO 24012G17KT 10SM BKN025 OVC030 21/16 A3016 RMK AO2
KAIO 251735Z AUTO 26010KT 10SM CLR 02/M03 A2998 RMK AO2
KAIT 251735Z AUTO 25012G22KT 7SM -SN BKN021 OVC044 M06/M10 A2958 RMK AO2 P0001
KAIZ 251656Z AUTO VRB03KT 10SM CLR 06/M03 A3014 RMK AO2 SLP211 T00561033
KAJG 251735Z AUTO 26010KT 10SM CLR 07/01 A3011 RMK AO2 T00730009
KAJO 251656Z AUTO 13010KT 10SM CLR 14/M05 A3023 RMK AO2 SLP250 T01391050
KAJR 251735Z AUTO 20003KT 10SM -DZ SCT027 SCT047 BKN055 17/14 A3013 RMK AO2 T01730139
KAJZ 251735Z AUTO 00000KT 10SM CLR 00/M06 A3015 RMK AO2 T00001064
KAKH 251654Z AUTO 00000KT 6SM -RA BR FEW060 OVC070 18/17 A3010 RMK AO2 SLP188 P0002 T01830167
KAKO 251653Z AUTO 26010KT 10SM CLR 01/M12 A2992 RMK AO2 SLP162 T00111122 $
KAKQ 251654Z AUTO 26014G21KT 10SM BKN080 22/14 A3002 RMK AO2 SLP165 T02220144 TSNO
KAKR 251654Z AUTO 25015G22KT 10SM CLR 11/02 A2989 RMK AO2 SLP123 T01060017
KALB 251651Z 17012G19KT 10SM FEW019 OVC024 04/01 A2999 RMK AO2 RAE34 SLP157 P0002 T00440011
KALI 251743Z AUTO 19006KT 8SM FEW011 BKN018 OVC055 24/21 A2993 RMK AO2 T02440211
KALK 251656Z AUTO VRB04KT 10SM CLR 08/M15 A3019 RMK AO2 SLP187 T00781150 $
KALM 251735Z AUTO 31007KT 10SM CLR 10/M15 A3012 RMK AO2
KALN 251648Z 23008KT 10SM SKC 06/M01 A3012
KALO 251654Z 27017KT 10SM CLR M01/M06 A2987 RMK AO2 SLP126 T10061056
KALS 251652Z AUTO 10SM CLR M03/M16 A2997 RMK AO2 SLP181 T10331156
KALW 251653Z 18015KT 10SM OVC050 07/M03 A2988 RMK AO2 SLP125 T00671028
KALX 251735Z AUTO 00000KT 10SM SCT004 SCT075 15/15 A3017 RMK AO2 T01460146
KAMA 251653Z 22017KT 10SM CLR 12/M16 A2997 RMK AO2 SLP143 T01221156
KAMG 251653Z AUTO 24012G18KT 10SM SCT024 26/18 A3016 RMK AO2 SLP210 T02560178 $
KAMN 251738Z AUTO 25020G30KT 10SM BKN037 04/M03 A2978 RMK AO2 T00381029
KAMW 251653Z AUTO 27014KT 10SM CLR 00/M05 A2992 RMK AO2 SLP138 T00001050
KANB 251653Z AUTO 00000KT 10SM -RA OVC100 13/12 A3018 RMK AO2 SLP216 P0001 T01280117
KAND 251656Z AUTO 21007KT 10SM FEW012 OVC100 19/16 A3012 RMK AO2 RAE27 SLP192 P0000 T01890161
KANE 251745Z 25012G19KT 10SMSM SCT040 M04/M10 A2973
KANJ 251702Z AUTO 23021G33KT 4SM -RA OVC016 01/M03 A2940 RMK AO2 PK WND 24032/1658 RAB1658SNE1658 P0000 T00061028
KANK 251735Z AUTO 25017G22KT 10SM SCT060 OVC080 M02/M20 A3002 RMK AO1 T10231197
KANW 251735Z AUTO 24004KT 10SM CLR M01/M08 A2987 RMK AO2 T10101076
KAOH 251653Z AUTO 26019KT 10SM SCT020 05/02 A2997 RMK AO2 SLP151 T00500022
KAOO 251653Z AUTO 19004KT 10SM OVC007 09/07 A2989 RMK AO2 SLP128 T00890072
KAPA 251653Z 30011KT 10SM FEW070 FEW120 FEW200 M01/M17 A2992 RMK AO2 SLP172 SHSN OMTNS DSNT W-NW T10111167
KAPC 251654Z 00000KT 10SM CLR 07/03 A3036 RMK AO2 SLP270 T00670028
KAPF 251653Z 17008G17KT 10SM FEW037 SCT048 29/20 A3017 RMK AO2 SLP214 T02940200
KAPG 251712Z AUTO 00000KT 10SM -RA BKN006 BKN090 BKN100 M A2997 RMK AO2 RAE08RAB12 CIG 006V055 BKN006 V FEW SLPNO $
KAPN 251654Z AUTO 25017G29KT 10SM OVC033 02/M03 A2955 RMK AO2 PK WND 25033/1618 SLP014 T00221033
KAPS 251735Z AUTO 08005KT 10SM BKN038 BKN050 OVC060 20/17 A3009 RMK AO2 T01990170
KAPY 251735Z AUTO 33008KT 7SM OVC007 20/17 A2997 RMK AO2 T02050178
KAQO 251730Z AUTO 12004KT 10SM FEW075 18/07 A3009 RMK AO2
KAQP 251733Z AUTO 27008KT 10SM CLR M03/M07 A2974 RMK AO2
KAQR 251735Z AUTO 13006KT 10SM CLR 13/02 A3008 RMK AO2
KAQV 251740Z AUTO VRB03KT 3SM RA BKN010 OVC024 A3009 RMK AO2 P0006 $
KAQW 251719Z AUTO 10018G28KT 10SM BKN023 OVC047 03/M01 A2999 RMK AO2 PK WND 10030/1703 RAE12 P0000 T00281011
KAQX 251735Z AUTO 6.80000007KT 10SM SCT025 SCT029 24/17 A3012 RMK AO2
KARA 251653Z 10013KT 10SM OVC100 20/16 A3004 RMK AO2 RAB08E22 PRESFR SLP171 P0000 T02000161
KARB 251653Z 23019G30KT 10SM BKN031 04/M02 A2985 RMK AO2 PK WND 21033/1638 SLP113 T00441022
KARG 251656Z AUTO 34003KT 10SM CLR 08/02 A3016 RMK AO2 SLP216 T00830017
KARM 251735Z AUTO 04007KT 10SM OVC007 15/14 A2999 RMK AO2 P0001 T01510141
KARR 251652Z 25018G25KT 10SM CLR 02/M03 A2992 RMK AO2 PK WND 25027/1553 SLP136 T00221033
KART 251707Z AUTO 17015G36KT 10SM -RA FEW026 FEW036 OVC070 07/06 A2975 RMK AO2 PK WND 15036/1701 P0000 T00720056
KARV 251735Z AUTO 24014G24KT 4SM -SN OVC010 M06/M07 A2953 RMK AO2 T10571075
KARW 251735Z AUTO 19010KT 7SM SCT038 SCT046 SCT075 27/18 A3012 RMK AO2
KASD 251727Z AUTO 08005KT 3SM -RA BR FEW030 BKN037 OVC048 17/16 A3010 RMK AO2 P0008 T01670156
KASE 251721Z 35010KT 6SM -SN FEW018 BKN023 OVC037 M08/M12 A3000 RMK AO2 SNB11 P0000 T10781122
KASG 251648Z 13005KT 10SM SKC 09/01 A3012
KASH 251656Z 10005KT 8SM -RA OVC008 02/02 A3016 RMK AO2 SLP226 P0007 T00220017
KASJ 251735Z AUTO 29005KT 10SM SCT046 SCT055 OVC100 22/11 A3005 RMK AO2 T02200113
KASL 251735Z AUTO 17006KT 10SM BKN012 BKN021 OVC120 13/10 A3014 RMK AO1 T01270098
KASN 251735Z AUTO 13004KT 10SM -RA OVC006 13/13 A3014 RMK AO2 T01270126
KAST 251655Z AUTO 26009KT 10SM -RA BKN031 BKN040 OVC050 06/04 A2995 RMK AO2 PK WND 25027/1556 RAE16B52 SLP142 P0000 T00610039
KASW 251735Z AUTO 09018G24KT 10SM OVC029 03/M02 A2997 RMK AO2
KASX 251653Z AUTO 24019G25KT 10SM OVC021 M04/M07 A2951 RMK AO2 PK WND 25028/1613 SLP006 T10391072
KATL 251741Z 29008KT 10SM BKN008 BKN020 OVC085 17/17 A3018 RMK AO2 RAB1659E25 P0000 T01720167
KATP 251735Z AUTO 16016G22KT 7SM CLR 26/21 A3005 RMK A01
KATS 251735Z AUTO 24019G25KT 10SM CLR 15/M15 A3002 RMK AO2
KATT 251651Z AUTO VRB03KT 10SM BKN044 OVC060 17/09 A3005 RMK AO2 RAB04E13 TSB1556E12 SLP172 P0000 T01670089
KATW 251745Z 24020G28KT 10SM BKN030 M01/M08 A2969
KATY 251653Z AUTO 27017KT 10SM CLR M07/M09 A2972 RMK AO2 SLP094 T10671089
KAUG 251732Z AUTO 09004KT 1/4SM SN FZFG FEW005 OVC009 M03/M03 A3023 RMK AO2 P0005 T10281033
KAUH 251735Z AUTO 27009KT 10SM CLR 04/M05 A2997 RMK AO2 T00371054
KAUM 251735Z AUTO 25013KT 10SM CLR M05/M09 A2980 RMK AO2
KAUN 251735Z AUTO 33005KT 10SM CLR 08/M03 A3030 RMK AO1
KAUO 251656Z AUTO 31009KT 10SM -RA FEW008 OVC049 17/15 A3020 RMK AO2 SLP245 P0003 T01670150
KAUS 251653Z 05011KT 10SM BKN042 OVC070 17/11 A3003 RMK AO2 LTG DSNT N AND NW SLP166 CB DSNT NW-NE MOV NE T01670106
KAUW 251712Z AUTO 24012G22KT 10SM OVC015 M06/M08 A2963 RMK AO2 T10561078
KAVC 251735Z AUTO 18008KT 10SM OVC080 19/14 A3007 RMK AO2 T01900140
KAVK 251735Z AUTO 19014KT 10SM CLR 09/02 A3000 RMK AO2
KAVL 251654Z 36005KT 10SM OVC090 17/09 A3011 RMK AO2 RAB30E47 SLP177 P0000 T01670089 $
KAVP 251740Z 13005KT 10SM OVC014 07/05 A2990 RMK AO2 PRESFR T00720050
KAVQ 251735Z AUTO 30003KT 10SM CLR 09/M07 A3022 RMK AO2 T00881068
KAVX 251651Z AUTO 10006KT 10SM CLR 11/05 A3021 RMK AO2 SLP230 T01110050
KAWG 251735Z AUTO 23011G19KT 10SM CLR 04/M02 A2998 RMK AO2
KAWM 251653Z AUTO 00000KT 10SM CLR 11/05 A3013 RMK AO2 SLP202 T01110050 $
KAWO 251703Z AUTO 00000KT 10SM -RA BKN021 OVC038 03/02 A2980 RMK AO2 P0000
KAXA 251735Z AUTO 26020KT 9SM CLR M03/ A2987 RMK AO2 PWINO
KAXH 251735Z AUTO 04009KT 5SM BR OVC005 16/15 A3000 RMK AO2 LTG DSNT NE T01560150
KAXN 251714Z AUTO 27016KT 10SM OVC014 M05/M08 A2966 RMK AO2 T10501078
KAXS 251741Z AUTO 17005KT 10SM CLR 12/02 A3005 RMK AO2
KAXV 251735Z AUTO 24016G21KT 10SM BKN022 06/03 A3001 RMK AO2
KAXX 251735Z AUTO 06006G16KT 10SM SCT024 BKN048 OVC050 M06/M11 A2996 RMK AO2 T10631113
KAYS 251735Z AUTO 26008KT 10SM SCT035 BKN041 BKN049 27/16 A3014 RMK AO2 T02740164
KAZC 251735Z AUTO 00000KT 10SM CLR 02/M10 A3023 RMK AO2
KAZE 251735Z AUTO 25007KT 220V290 10SM SCT021 BKN027 BKN036 26/16 A3013 RMK AO2 T02560162
KAZO 251653Z 25020G29KT 10SM BKN037 04/M04 A2988 RMK AO2 PK WND 25030/1612 SLP125 T00441039
KBAB 251658Z AUTO 34006KT 10SM CLR 05/00 A3033 RMK AO2 SLP275 T00540000 $
KBAD 251729Z AUTO 17010KT 10SM -RA BKN024 12/10 A3011 RMK AO2 RAB09 SLP199 CHINO RWY15 $
KBAF 251719Z 02006KT 8SM -RA BKN008 BKN015 OVC020 03/03 A3005 RMK AO2 P0000 T00280028
KBAK 251649Z 22011G15KT 10SM BKN200 07/ A3008
KBAN 251652Z AUTO 00000KT 10SM CLR M08/M14 A3019 RMK AO2 SLP269 T10831139 $
KBAX 251735Z AUTO 24025G32KT 10SM BKN030 OVC035 04/M02 A2972 RMK AO2 T00351022
KBAZ 251744Z 04013KT 10SM OVC029 16/10 A2999 RMK AO2 LTG DSNT S T01610100
KBBB 251735Z AUTO 29011KT 10SM M03/M08 A2974 RMK AO2
KBBF 251735Z AUTO 18020KT 5SM BR CLR 23/21 A2995 RMK A01
KBBG 251652Z 00000KT 10SM FEW250 08/M01 A3013
KBBP 251735Z AUTO 25010G19KT 224V294 10SM SCT046 BKN050 28/16 A3006 RMK AO2
KBBW 251653Z AUTO 23008KT 10SM CLR M01/M08 A2992 RMK AO2 SLP163 T10111078
KBCB 251735Z AUTO 24006KT 10SM OVC100 16/11 A3005 RMK AO2 T01610113
KBCE 251653Z AUTO 03009KT 10SM CLR M08/M14 A3011 RMK AO2 SLP224 T10831144
KBCK 251735Z AUTO 24009G14KT 10SM CLR M02/M08 A2976 RMK AO2 T10181077
KBCT 251647Z 12010KT 110V140 10SM SCT024 28/20 A3020
KBDE 251653Z AUTO 26009KT 10SM SCT032 SCT050 OVC070 M06/M08 A2945 RMK AO2 SNB12E33 SLP991 T10561083 PNO $
KBDG 251735Z AUTO 30011G16KT 10SM 01/M14 A3021 RMK AO1 T00061142
KBDH 251735Z AUTO 25013KT 10SM OVC018 M05/M07 A2976 RMK AO2
KBDL 251719Z 04007KT 7SM -RA SCT005 OVC017 04/03 A3004 RMK AO2 P0001 T00390033 $
KBDN 251735Z AUTO 22014G19KT 10SM FEW038 SCT045 04/M03 A2994 RMK AO2
KBDR 251729Z 08019KT 5SM -RA BR OVC010 05/03 A2999 RMK AO2 P0003 T00500033
KBDU 251735Z AUTO 10004KT 10SM CLR 01/M16 A2990 RMK AO2
KBEA 251735Z AUTO 01006KT 7SM SCT005 OVC009 18/17 A2995 RMK AO2 T01830174
KBEC 251735Z AUTO 13008KT 10SM CLR 08/M02 A3006 RMK AO2 T00751024
KBED 251656Z 11011G16KT 5SM RA BR OVC009 04/02 A3014 RMK AO2 SLP223 P0008 T00390022
KBEH 251653Z AUTO 23023G30KT 10SM CLR 04/M03 A2991 RMK AO2 PK WND 23035/1643 SLP131 T00391033 $
KBFD 251653Z AUTO 26009G22KT 230V290 10SM BKN050 BKN065 12/01 A2982 RMK AO2 WSHFT 1544 RAE06 SLP100 P0000 T01170011
KBFF 251653Z AUTO 28018G23KT 10SM CLR 01/M11 A2988 RMK AO2 PK WND 28026/1603 SLP146 T00061106
KBFI 251653Z 20009G23KT 10SM SCT021 OVC110 06/03 A2982 RMK AO2 SLP096 T00610028
KBFL 251654Z 18007KT 10SM CLR 08/M05 A3036 RMK AO2 SLP280 T00831050
KBFM 251729Z 04008KT 10SM FEW009 BKN047 OVC060 18/17 A3016 RMK AO2 T01830172
KBFW 251721Z AUTO 26010G21KT 230V290 7SM OVC024 M02/M06 A2941 RMK AO2
KBGD 251651Z AUTO 29008KT 10SM CLR 08/M13 A2999 RMK AO2 SLP159 T00781133
KBGE 251735Z AUTO 15006KT 10SM SCT017 BKN024 25/22 A3013 RMK AO2
KBGF 251735Z AUTO 30004KT 10SM FEW020 SCT026 BKN032 13/11 A3012 RMK
KBGM 251739Z 15011G18KT 10SM OVC009 05/03 A2985 RMK AO2 PK WND 15027/1658 T00500033
KBGR 251653Z 12008KT 10SM FEW029 OVC095 M01/M07 A3028 RMK AO2 PRESFR SLP258 T10111072 $
KBHB 251656Z AUTO 12010G18KT 10SM SCT032 SCT065 OVC085 01/M06 A3030 RMK AO2 SLP264 T00061061 FZRANO PNO $
KBHC 251735Z AUTO 23007KT 210V280 10SM BKN027 BKN032 OVC070 25/18 A3014 RMK AO2
KBHK 251651Z AUTO 24012KT 10SM CLR M07/M11 A2969 RMK AO2 SLP095 T10671106
KBHM 251653Z 14006KT 10SM OVC100 12/10 A3014 RMK AO2 RAE22 SLP201 P0001 T01220100 $
KBID 251740Z AUTO 08014G21KT 3SM -RA BR OVC004 04/04 A3001 RMK AO2 P0005
KBIE 251735Z AUTO 25011KT 10SM CLR 05/M02 A3002 RMK AO2 T00451021
KBIF 251658Z AUTO 02005KT 10SM CLR 09/M13 A3012 RMK AO2 SLP180 T00911128
KBIH 251656Z AUTO 20004KT 10SM CLR 02/M12 A3023 RMK AO2 SLP235 T00221122
KBIJ 251735Z AUTO 23008G15KT 10SM SCT035 28/18 A3012 RMK AO2
KBIL 251653Z 24016KT 10SM FEW090 SCT150 BKN220 M05/M13 A2971 RMK AO2 SLP101 ACSL SE-S T10501133
KBIS 251652Z 29013KT 10SM CLR M03/M09 A2970 RMK AO2 SLP089 T10331089
KBIV 251653Z AUTO 25027G34KT 10SM FEW024 SCT032 04/M02 A2985 RMK AO2 PK WND 24036/1617 SLP113 T00391022
KBIX 251709Z AUTO 05008KT 10SM -RA FEW026 OVC040 17/15 A3014 RMK AO2 RAB09 SLP209
KBJC 251745Z 26024G28KT 30SM FEW060 00/M16 A2990
KBJI 251735Z AUTO 25014KT 10SM SCT040 M07/M10 A2955 RMK AO2 T10681105
KBJJ 251656Z AUTO 26013KT 10SM CLR 08/03 A2991 RMK AO2 SLP132 T00830028
KBKB 251728Z AUTO VRB04KT 2 1/2SM +RA BR BKN006 BKN030 OVC060 12/12 A3004 RMK AO2 P0015 T01220117 $
KBKD 251735Z AUTO 15011KT 5SM HZ CLR 17/05 A3004 RMK AO2 T01680048
KBKE 251653Z AUTO 00000KT 10SM OVC055 M01/M07 A2999 RMK AO2 SLP187 T10061067
KBKF 251658Z 27008KT 10SM FEW070 00/M17 A2993 RMK AO2A PK WND 27032/13 SLP164 T10011173
KBKL 251653Z 24014G24KT 10SM CLR 09/02 A2987 RMK AO2 SLP118 T00940017
KBKN 251735Z AUTO 13008G18KT 10SM CLR 09/02 A3008 RMK AO2
KBKS 251735Z AUTO 21006KT 7SM SCT013 BKN022 OVC041 24/21 A2994 RMK AO1 T02400211
KBKT 251735Z AUTO 20011G18KT 10SM OVC095 19/16 A2999 RMK AO1 T01940156
KBKV 251653Z 21011KT 10SM FEW039 28/18 A3018 RMK AO2 SLP218 T02830178
KBKW 251651Z AUTO 27006KT 10SM BKN037 13/08 A3001 RMK AO2 PRESFR SLP147 T01280083 TSNO
KBKX 251703Z AUTO 26012KT 9SM -SN SCT013 M04/M07 A2979 RMK AO2 P0000 FZRANO
KBLF 251652Z AUTO 23017G30KT 10SM SCT027 BKN032 OVC100 13/07 A3004 RMK AO2 PK WND 26030/1646 SLP152 T01280072
KBLH 251652Z AUTO VRB04G14KT 10SM CLR 12/M11 A3029 RMK AO2 SLP256 T01171111
KBLI 251653Z 19007KT 10SM BKN070 OVC095 05/01 A2974 RMK AO2 SLP080 T00500011
KBLM 251735Z AUTO 03009KT 3SM BR OVC003 06/05 A2993 RMK AO2 RAE24 P0000
KBLU 251652Z AUTO VRB04KT 10SM CLR 03/M10 A3024 RMK AO2 SLP254 T00281100
KBLV 251656Z AUTO 23008KT 10SM CLR 07/M02 A3012 RMK AO2 SLP204 T00681019 $
KBMC 251735Z AUTO 20008KT 10SM SCT044 M02/M09 A3022 RMK AO1 T10251088
KBMG 251653Z 23014KT 10SM CLR 07/01 A3007 RMK AO2 SLP183 T00670011
KBMI 251656Z 25013KT 10SM FEW026 04/M02 A3003 RMK AO2 SLP193 T00391017 $
KBML 251732Z AUTO 16011G17KT 1SM -SN BR BKN015 OVC023 M03/M06 A3007 RMK AO2 P0003 T10331056
KBMQ 251653Z AUTO 10007KT 10SM FEW090 15/08 A3007 RMK AO2 LTG DSNT E AND SE SLP173 T01500078
KBMT 251735Z AUTO 02003KT 7SM -RA OVC005 16/15 A3005 RMK AO2 LTG DSNT NE T01620149
KBNA 251653Z 33005KT 10SM FEW035 OVC160 11/06 A3012 RMK AO2 SLP199 T01110061
KBNL 251735Z AUTO 23009KT 10SM 23/18 A3014 RMK AO2
KBNO 251653Z AUTO 15007KT 10SM FEW045 BKN055 BKN070 M02/M08 A3007 RMK AO2 SLP218 T10221078
KBNW 251735Z AUTO 26013G21KT 10SM CLR M00/M06 A2991 RMK AO2
KBOI 251745Z 14006KT 1SM R10R/6000VP6000FT -SN BR BKN025 OVC032 M02/M04 A3015 RMK AO2 P0001 T10221039
KBOK 251656Z AUTO 15008G15KT 10SM OVC019 07/03 A3032 RMK AO2 SLP283 T00670028
KBOS 251708Z 11012KT 6SM RA BR SCT007 SCT011 OVC037 04/03 A3017 RMK AO2 PRESRR P0001 T00390028
KBOW 251652Z 21011KT 10SM BKN035 27/18 A3018
KBPC 251735Z AUTO 26010G16KT 10SM CLR 09/M11 A2999 RMK AO2
KBPG 251735Z AUTO 22018G23KT 10SM CLR 17/M13 A3007 RMK AO2 T01691131
KBPI 251653Z AUTO 09006KT 10SM CLR M13/M16 A2995 RMK AO2 SLP221 T11281161
KBPK 251653Z AUTO VRB03KT 10SM CLR 07/01 A3014 RMK AO2 SLP207 T00720011
KBPT 251653Z 05009KT 5SM BR OVC005 17/16 A3001 RMK AO2 RAE29 SLP163 P0000 T01720161
KBQK 251735Z AUTO 22009KT 180V250 10SM SCT043 SCT050 29/16 A3015 RMK AO2
KBQP 251735Z AUTO 00000KT 10SM -RA SCT013 BKN070 OVC090 12/12 A3013 RMK AO2 LTG DSNT SW T01240119
KBQX 251735Z AUTO 17011KT 3SM BR SCT031 23/21 A2998 RMK A01
KBRD 251700Z AUTO 25015KT 6SM HZ OVC019 M07/M11 A2961 RMK AO2 T10671111
KBRL 251653Z AUTO 25011KT 10SM CLR 04/M04 A2999 RMK AO2 SLP161 T00391044 $
KBRO 251653Z 16017G22KT 10SM BKN016 BKN021 OVC026 27/23 A2994 RMK AO2 SLP137 T02720228
KBRY 251735Z AUTO 24005KT 10SM CLR 07/01 A3010 RMK AO1
KBTA 251735Z AUTO 25007KT 10SM CLR 00/M06 A2998 RMK AO2 T00011064
KBTL 251700Z 24024G29KT 10SM 04/M03 RMK AO2 PK WND 24029/1700 T00441033 $
KBTM 251653Z AUTO 20005KT 10SM BKN050 BKN060 OVC085 M05/M14 A2976 RMK AO2 SLP141 T10501144
KBTP 251656Z AUTO 23010KT 10SM FEW065 13/02 A2987 RMK AO2 PK WND 26026/1604 SLP124 T01280022
KBTR 251653Z 11010KT 10SM BKN005 BKN100 18/16 A3006 RMK AO2 SLP180 T01780161
KBTV 251654Z 19004KT 10SM -RA FEW021 OVC036 02/M01 A2994 RMK AO2 RAB41FZRAE41 SLP144 P0001 I1001 T00171011 $
KBUF 251654Z 23025G35KT 10SM FEW030 FEW085 BKN150 BKN200 06/02 A2977 RMK AO2 PK WND 21041/1556 SLP087 T00560022 $
KBUR 251653Z 00000KT 10SM CLR 11/01 A3022 RMK AO2 SLP227 T01110011
KBUU 251735Z AUTO 25015G21KT 10SM CLR 02/M05 A2985 RMK AO2 T00171046
KBUY 251654Z AUTO 18006KT 10SM OVC075 19/17 A3006 RMK AO2 RAB10E19 SLP174 P0000 T01940167
KBVE 251651Z AUTO 19010KT 5SM HZ SCT090 27/22 A3011 RMK AO2 SLP194 T02670217
KBVI 251647Z 27007KT 10SM CLR 11/03 A2988
KBVN 251735Z AUTO 27007KT 10SM CLR 02/M08 A2995 RMK AO2 T00151076
KBVO 251653Z AUTO 10SM CLR 07/01 A3012 RMK AO2 SLP200 T00720011
KBVS 251735Z AUTO 23008G19KT 210V270 10SM SCT016 SCT022 SCT047 05/02 A2978 RMK A01
KBVU 251735Z AUTO 02014KT 10SM CLR 08/M14 A3030 RMK AO2
KBVX 251656Z AUTO 09003KT 10SM CLR 08/01 A3016 RMK AO2 SLP215 T00830006
KBVY 251653Z 12013G24KT 3SM -RA BR BKN007 BKN016 OVC025 04/03 A3016 RMK AO2 CIG 005V010 SLP211 P0009 T00390028
KBWG 251653Z AUTO 27003KT 10SM CLR 09/04 A3013 RMK AO2 SLP201 T00940039
KBWI 251654Z VRB04KT 7SM -RA OVC006 08/08 A2993 RMK AO2 SLP136 P0001 T00780078
KBWP 251735Z AUTO 27017KT 10SM CLR M04/M07 A2969 RMK AO1
KBWW 251735Z AUTO 25016KT 10SM CLR M08/M11 A2958 RMK AO2
KBXA 251735Z AUTO 08005KT 10SM VCTS SCT004 BKN037 OVC060 18/16 A3009 RMK AO2 LTG DSNT SE AND NW T01750155
KBXK 251735Z AUTO 20003KT 10SM CLR 09/M07 A3025 RMK AO1
KBYG 251653Z AUTO 15006KT 10SM CLR M04/M16 A2971 RMK AO2 SLP096 T10391161
KBYI 251653Z AUTO 23012KT 10SM OVC049 M04/M09 A3012 RMK AO2 SLP229 T10391094
KBYL 251735Z AUTO 00000KT 10SM SCT020 BKN024 11/07 A3009 RMK AO1
KBYS 251655Z AUTO 34002KT 10SM CLR 08/M11 A3032 RMK AO2 SLP286 WND DATA ESTMD T00811112
KBYY 251735Z AUTO 17009G13KT 7SM BKN015 OVC024 25/21 A2997 RMK AO2 T02450216
KBZN 251656Z 23007KT 10SM FEW065 OVC080 M03/M13 A2980 RMK AO2 SLP135 T10281133
KC07 251730Z AUTO 27012G21KT 210V330 1 1/2SM -SN OVC001 A2980 RMK AO2
KC09 251735Z AUTO 24012G16KT 10SM CLR 05/M01 A2996 RMK AO2 T00501014
KC29 251735Z AUTO 24014G22KT 10SM CLR 01/M06 A2981 RMK AO1 T00131057
KC35 251735Z AUTO 26009G18KT 10SM CLR 00/M06 A2977 RMK AO2 T00041062
KC62 251755Z AUTO 24018G22KT 10SM OVC026 02/M01 A2995 RMK AO2 T00281013
KC65 251735Z AUTO 24013G20KT 10SM OVC030 04/M01 A2997 RMK A01
KC75 251735Z AUTO 24009G16KT 10SM CLR 05/M04 A3000 RMK AO2 T00481045
KC83 251735Z AUTO VRB06KT 10SM CLR 11/00 A3035 RMK AO2
KCAD 251735Z AUTO 24021G31KT 10SM SCT027 BKN033 BKN039 00/M05 A2965 RMK AO2 T00001050
KCAE 251656Z 24011G17KT 200V270 10SM BKN022 23/17 A3012 RMK AO2 SLP196 T02330172
KCAG 251653Z AUTO 29007KT 10SM CLR M08/M13 A3004 RMK AO2 SLP235 T10781133
KCAK 251651Z 25013G23KT 10SM OVC230 09/00 A2989 RMK AO2 SLP127 T00940000
KCAO 251655Z AUTO 34014G20KT 10SM OVC095 05/M14 A2993 RMK AO2 SLP134 T00501144
KCAR 251654Z AUTO 11006KT 10SM CLR M07/M14 A3027 RMK AO2 PRESFR SLP267 T10721144
KCAV 251735Z AUTO 26016KT 10SM CLR M03/M05 A2988 RMK AO2 PWINO
KCBE 251737Z AUTO 00000KT 10SM OVC007 10/10 A2995 RMK AO1
KCBF 251735Z AUTO 24009KT 10SM CLR 01/M04 A2999 RMK AO2
KCBG 251735Z AUTO 24012G19KT 10SM M05/M11 A2970 RMK AO2
KCBK 251735Z AUTO 23014G20KT 10SM CLR 05/M09 A3000 RMK AO2
KCBM 251656Z 21003KT 10SM SCT010 BKN014 OVC022 12/12 A3013 RMK AO2A CIG 009 RWY31C SLP205 T01240124 TSNO $
KCCA 251735Z AUTO 12004KT 7SM CLR 09/02 A3015 RMK AO2
KCCB 251735Z AUTO 27010KT 10SM CLR 11/M04 A3021 RMK AO2
KCCO 251735Z AUTO 28003KT 10SM -DZ SCT007 SCT050 OVC070 18/15 A3018 RMK AO2 T01760148
KCCR 251653Z 17006KT 10SM CLR 08/03 A3036 RMK AO2 SLP267 T00830033
KCCU 251734Z AUTO 29014KT SCT009 BKN014 OVC026 M15/M19 A2979 RMK AO2 PWINO
KCCY 251735Z AUTO 25016KT 10SM CLR M03/M06 A2985 RMK AO2
KCDA 251735Z AUTO 10006KT 4SM UP SCT014 BKN022 OVC029 M02/M03 A2999 RMK AO2 T10161031
KCDC 251653Z AUTO 04009KT 10SM CLR M03/M13 A3017 RMK AO2 SLP244 T10331128
KCDD 251732Z AUTO 25007G15KT 183V293 10SM OVC018 M05/M07 A2944 RMK AO2
KCDH 251735Z AUTO 14007KT 10SM CLR 14/07 A3012 RMK AO2
KCDI 251735Z AUTO 25009G16KT 230V290 10SM CLR 11/02 A2997 RMK AO2 T01110024
KCDJ 251652Z AUTO 26007KT 05/M04 A3007 RMK AO1 SLP195 T00501039
KCDN 251735Z AUTO 24011G21KT 10SM BKN035 24/16 A3009 RMK AO2
KCDR 251653Z AUTO 26011KT 10SM CLR M04/M12 A2987 RMK AO2 SLP169 T10441117
KCDS 251653Z AUTO 25009KT 10SM CLR 15/M11 A3001 RMK AO2 SLP156 T01501111
KCDW 251653Z 08008KT 9SM -RA OVC007 05/05 A2998 RMK AO2 SLP159 P0000 T00500050
KCEC 251656Z AUTO 16014KT 10SM BKN035 BKN044 OVC050 10/03 A3035 RMK AO2 SLP277 T01000028
KCEF 251656Z 05005KT 3SM -RA BR BKN018 OVC024 03/02 A3006 RMK AO2A SLP188 P0010 T00310024
KCEU 251654Z AUTO 21003KT 10SM OVC110 18/16 A3011 RMK AO2 SLP189 T01830156
KCEW 251740Z AUTO 35007G17KT 8SM -RA BKN034 BKN041 OVC049 17/15 A3018 RMK AO2 PK WND 34028/1657 WSHFT 1642 RAB04 P0008 T01720150 $
KCEZ 251653Z AUTO 30010G15KT 10SM CLR 00/M13 A3013 RMK AO2 SLP213 T00001133
KCFD 251735Z AUTO 06013G18KT 10SM BKN034 OVC050 15/10 A3004 RMK AO2 LTG DSNT E T01520096
KCFE 251735Z AUTO 24006KT 10SM OVC026 M05/M10 A2974 RMK AO2 T10551105
KCFJ 251735Z AUTO 24017G22KT 10SM BKN028 BKN034 04/00 RMK AO2 T00381005
KCFS 251735Z AUTO 23026G31KT 10SM SCT034 04/M02 A2974 RMK AO2 T00421024
KCFV 251652Z AUTO VRB03KT 10SM CLR 07/02 A3011 RMK AO2 SLP202 T00720022
KCGC 251735Z AUTO 26003KT 10SM SCT038 28/17 A3016 RMK AO2
KCGE 251735Z AUTO 12005G12KT 7SM FEW055 SCT075 OVC090 12/12 A2990 RMK A01
KCGF 251745Z 29010KT 10SM FEW060 BKN140 07/02 A2989
KCGI 251653Z 28006KT 10SM CLR 08/01 A3015 RMK AO2 SLP209 T00780011
KCGS 251738Z AUTO 00000KT 10SM OVC007 09/08 A2994 RMK AO1 T00910081
KCHA 251653Z 00000KT 10SM SCT021 SCT037 BKN110 14/11 A3015 RMK AO2 SLP205 T01390106
KCHD 251747Z 00000KT 10SM CLR 11/M07 A3023
KCHK 251735Z AUTO 19009KT 10SM CLR 13/04 A3002 RMK AO2 T01260041
KCHO 251653Z 20011KT 2SM BR OVC003 12/11 A2994 RMK AO2 RAB08E27 SLP136 P0000 T01170111
KCHS 251656Z 23011G19KT 10SM SCT035 SCT090 28/17 A3012 RMK AO2 SLP198 T02830172
KCIC 251647Z 00000KT 10SMSM SCT250 02/M03 A3035
KCID 251652Z 25012KT 10SM CLR 03/M01 A2989 RMK AO2 SLP129 T00331011
KCIN 251735Z AUTO 26016G21KT 10SM CLR M01/M06 A2991 RMK AO2
KCIR 251735Z AUTO 26006KT 10SM CLR 07/01 A3015 RMK AO2 T00740011
KCIU 251731Z AUTO 24019G28KT 10SM OVC015 M02/M04 A2946 RMK AO2 PK WND 25030/1714 FZRANO
KCJR 251735Z AUTO 26006KT 10SM OVC006 12/11 A2999 RMK AO2 T01200110
KCKB 251726Z 29016G27KT 10SM BKN026 BKN035 OVC041 13/07 A2995 RMK AO2 PK WND 29027/1724 WSHFT 1706 T01330067
KCKC 251735Z AUTO 26014G22KT 229V289 7SM OVC016 M06/M10 A2931 RMK AO2
KCKF 251735Z AUTO 26014G19KT 10SM SCT029 OVC035 29/18 A3014 RMK AO2 T02870177
KCKI 251735Z AUTO 22009G21KT 10SM SCT043 BKN050 27/15 A3009 RMK AO2
KCKM 251755Z AUTO 07004KT 10SM CLR 11/05 A3013 RMK A01
KCKN 251735Z AUTO 27009KT 10SM -SN SCT060 M06/M08 A2961 RMK AO2
KCKP 251735Z AUTO 25010KT 10SM CLR M02/M07 A2991 RMK AO2 T10171075
KCKV 251652Z AUTO 32004KT 10SM CLR 09/03 A3013 RMK AO2 SLP204 T00940028
KCKZ 251735Z AUTO 08004KT 10SM UP OVC004 05/05 A2995 RMK AO2 P0001
KCLE 251651Z 24015G26KT 10SM SCT025 BKN250 09/03 A2990 RMK AO2 PK WND 25028/1611 SLP128 T00940033
KCLI 251735Z AUTO 25018G22KT 10SM OVC018 M03/M07 A2969 RMK AO2 T10281070
KCLK 251735Z AUTO 18008G14KT 10SM CLR 10/00 A3003 RMK AO2 TSNO
KCLL 251701Z 05013KT 10SM OVC029 14/11 A3004 RMK AO2 T01440111
KCLM 251717Z AUTO 27016G24KT 10SM FEW014 BKN033 OVC047 03/01 A2982 RMK AO2 RAE11 P0000 T00330011
KCLS 251735Z AUTO 22007KT 5SM -RA SCT022 05/04 A2991 RMK AO2
KCLT 251652Z 25007KT 7SM -RA FEW028 SCT050 OVC065 18/18 A3011 RMK AO2 SLP190 P0002 T01830178
KCLW 251735Z AUTO 20008KT 170V240 10SM SCT039 SCT050 SCT060 26/18 A3016 RMK AO2
KCMA 251655Z 06018G26KT 10SM CLR 17/M09 A3023 RMK AO2 PK WND 06026/1651 SLP245 T01671094
KCMD 251735Z AUTO 16004KT 10SM OVC008 12/10 A3013 RMK AO2 T01150103
KCMH 251651Z 24011KT 10SM BKN250 09/03 A2998 RMK AO2 SLP155 T00890028 $
KCMI 251653Z 25017KT 10SM SCT025 BKN031 04/M01 A3005 RMK AO2 SLP178 T00391011
KCMR 251735Z AUTO 03008KT 10SM CLR M02/M14 A3015 RMK AO2
KCMX 251653Z AUTO 26029G41KT 1/2SM SN OVC017 M03/M07 A2932 RMK AO2 PK WND 26043/1624 UPE1559SNB1559 SLP942 P0003 T10331072
KCMY 251735Z AUTO 25011G17KT 10SM CLR M02/M07 A2978 RMK AO2 T10181071
KCNB 251736Z AUTO 21018G23KT 7SM CLR M02/M06 A2977 RMK AO2 T10251065
KCNC 251735Z AUTO 23012G18KT 10SM CLR 05/M03 A2998 RMK AO2
KCNI 251735Z AUTO 26004KT 10SM -RA SCT065 OVC085 16/15 A3018 RMK AO2
KCNK 251655Z AUTO 24009KT 10SM CLR 03/M04 A3004 RMK AO2 SLP185 T00331044
KCNM 251653Z AUTO 17006KT 10SM CLR 11/M13 A3004 RMK AO2 SLP152 T01061133
KCNO 251653Z 30005KT 10SM CLR 12/M01 A3023 RMK AO2 SLP238 T01221006
KCNU 251652Z AUTO 15005KT 10SM CLR 06/M02 A3010 RMK AO2 SLP200 T00611017
KCNW 251655Z 14009G15KT 10SM SCT023 15/09 A3006
KCNY 251653Z AUTO 26013KT 10SM CLR 00/M11 A3016 RMK AO2 SLP240 T00001111
KCOD 251656Z AUTO 25021G39KT 10SM CLR M03/M15 A2974 RMK AO2 PK WND 25040/1628 SLP113 T10281150 FZRANO
KCOE 251729Z AUTO 21017G27KT 10SM -RA OVC030 01/M03 A2970 RMK AO2 PK WND 22027/1726 RAB21 P0000 FZRANO
KCOF 251656Z AUTO 13009KT 10SM CLR 27/21 A3019 RMK AO2 SLP228 T02680211 $
KCOM 251735Z AUTO 16008KT 10SM CLR 17/04 A3005 RMK AO2 T01650042
KCON 251738Z AUTO 11006KT 2SM -RA BR SCT009 BKN029 OVC041 01/00 A3012 RMK AO2 P0004 T00110000
KCOQ 251735Z AUTO 24011G19KT 10SM SCT017 OVC032 M04/M09 A2952 RMK AO2
KCOS 251654Z 27014KT 10SM SCT100 SCT180 00/M22 A2993 RMK AO2 SLP175 T00001222 $
KCOT 251742Z AUTO 05007KT 10SM OVC014 19/12 A2998 RMK AO2 T01890117
KCOU 251654Z 20007KT 10SM CLR 06/M02 A3011 RMK AO2 SLP200 T00561022
KCPC 251735Z AUTO 21014G19KT 10SM SCT047 SCT050 BKN070 28/16 A3007 RMK AO2 T02750158
KCPK 251735Z AUTO 24022G29KT 10SM SCT042 BKN048 OVC090 25/15 A3000 RMK AO2 T02470153
KCPR 251653Z AUTO 21019G27KT 10SM CLR M08/M13 A2981 RMK AO2 PK WND 21027/1643 SLP144 T10781128
KCPS 251653Z 25006KT 10SM CLR 06/M03 A3012 RMK AO2 SLP202 T00611028
KCPT 251735Z AUTO 14009KT 10SM FEW110 15/08 A3007 RMK AO2
KCPU 251730Z AUTO 18003KT 10SM CLR 06/M03 A3032 RMK AO2 T00641030
KCPW 251726Z AUTO 24007KT M16/M17 A2994 RMK AO2 PWINO
KCQB 251735Z AUTO 13013G17KT 10SM CLR 11/M02 A3006 RMK AO2 T01121022
KCQC 251653Z AUTO 29025G36KT 10SM SCT041 M01/M12 A3000 RMK AO2 PK WND 29039/1640 SLP181 T10111117
KCQF 251735Z AUTO 02009KT 10SM SCT011 BKN050 OVC110 17/17 A3015 RMK AO2
KCQM 251735Z AUTO 28015G19KT 7SM M04/M07 A2945 RMK AO2
KCQT 251647Z AUTO 00000KT 10SM CLR 13/01 A3023 RMK AO2 SLP236 T01330011
KCQW 251755Z AUTO 25010KT 10SM OVC001 26/15 A3006 RMK AO2
KCQX 251736Z AUTO 10013G19KT 4SM RA BR SCT008 BKN012 OVC022 05/04 A3011 RMK AO2 PRESFR P0007 T00500039
KCRE 251653Z 21013KT 10SM CLR 22/18 A3011 RMK AO1 SLP197 T02220178
KCRG 251653Z 21010G17KT 10SM FEW032 BKN090 27/19 A3017 RMK AO2 SLP217 T02720194 $
KCRP 251733Z 17010KT 9SM FEW008 BKN012 OVC050 23/22 A2994 RMK AO2 T02330222 $
KCRQ 251653Z VRB03KT 10SM CLR 12/01 A3021 RMK AO2 SLP228 T01220011
KCRS 251653Z AUTO 12008KT 10SM CLR 14/11 A3007 RMK AO2 SLP180 T01440106
KCRW 251654Z 26008G19KT 10SM BKN025 BKN031 15/11 A2999 RMK AO2 SLP151 T01500106
KCRX 251735Z AUTO 00000KT 10SM CLR 11/06 A3012 RMK AO2
KCSG 251737Z 34013G17KT 3SM -RA SCT012 BKN019 OVC046 18/15 A3019 RMK AO2 RAE17B37 P0006 T01780150
KCSM 251653Z AUTO 20010KT 10SM CLR 07/02 A3003 RMK AO2 SLP172 T00720017
KCSQ 251735Z AUTO 24015KT 10SM CLR 03/M02 A2999 RMK AO2
KCSV 251726Z AUTO VRB06KT 10SM FEW012 SCT030 BKN120 11/08 A3008 RMK AO2 PRESFR T01060083
KCTB 251656Z AUTO 25033G39KT 10SM CLR M04/M08 A2948 RMK AO2 PK WND 25040/1621 SLP023 T10441078
KCTJ 251735Z AUTO 00000KT 10SM -DZ BKN009 BKN055 OVC090 14/13 A3020 RMK AO2 T01420131
KCTY 251735Z AUTO 22008KT 10SM SCT034 28/18 A3021 RMK AO2 T02750185
KCTZ 251735Z AUTO 24011G18KT 10SM SCT045 SCT060 27/17 A3007 RMK AO2 T02680166
KCUB 251653Z AUTO 26014G19KT 10SM SCT028 BKN034 23/16 A3013 RMK AO2 SLP201 T02280156
KCUH 251735Z AUTO 13009G14KT 10SM CLR 10/M01 A3007 RMK AO2 T00951008
KCUL 251735Z AUTO 23007KT 10SM CLR 08/02 A3012 RMK AO2 T00800016
KCUT 251653Z AUTO 28014G20KT 10SM CLR M04/M15 A2970 RMK AO2 SLP110 T10441150 $
KCVB 251735Z AUTO 07007KT 7SM BKN028 BKN060 21/07 A3001 RMK AO2 T02060074
KCVC 251735Z AUTO 00000KT 7SM SCT006 SCT060 OVC075 19/17 A3014 RMK AO2
KCVG 251652Z 25009KT 10SM SCT024 BKN130 OVC200 08/03 A3005 RMK AO2 SLP173 T00780028 $
KCVH 251735Z AUTO 00000KT 10SM CLR 08/04 A3037 RMK A01
KCVN 251656Z AUTO 27024G30KT 10SM CLR 09/M14 A3003 RMK AO2 PK WND 26030/1654 SLP175 T00941144
KCVO 251741Z AUTO 17014KT 10SM -RA FEW022 SCT029 OVC039 05/04 A3007 RMK AO2 P0005
KCVS 251658Z AUTO 28019G26KT 10SM CLR 08/M15 A3003 RMK AO2 PK WND 28033/31 SLP171 T00821147 $
KCVW 251740Z AUTO 11011KT 10SM BKN012 BKN020 OVC029 22/21 A3003 RMK A01
KCVX 251735Z AUTO 23021G29KT 10SM OVC028 00/M05 A2962 RMK AO2 T00001048
KCWA 251747Z 25016G23KT 10SM BKN014 M04/M06 A2967
KCWC 251735Z AUTO 20006KT 10SM CLR 13/06 A3008 RMK AO2 T01330058
KCWF 251750Z 08007KT 10SM SCT008 BKN016 OVC021 18/16 A3003
KCWI 251656Z AUTO 23014KT 10SM CLR 02/M04 A2993 RMK AO2 SLP164 T00221039 FZRANO
KCWN 251725Z AUTO 24015G23KT 10SM BKN085 M03/M23 A2986 RMK AO2 WSHFT 24 PRESRR SLP062 $
KCWV 251735Z AUTO 17006KT 5SM HZ BKN028 BKN045 BKN055 27/20 A3014 RMK AO2 T02700196
KCXE 251735Z AUTO 17003KT 10SM OVC100 19/17 A3000 RMK AO1 T01890167
KCXO 251702Z VRB04KT 2SM -RA BR FEW007 BKN028 OVC055 12/12 A3004 RMK AO2 LTG DSNT N AND NE P0003 T01220122
KCXP 251735Z AUTO 31003KT 10SM FEW010 M02/M10 A3029 RMK AO2
KCXU 251735Z AUTO 25006KT 10SM SCT021 SCT032 OVC095 26/21 A3014 RMK AO1 T02550205
KCXY 251656Z 00000KT 10SM OVC010 08/07 A2997 RMK AO2 RAE1559 SLP151 P0000 T00830067
KCYS 251653Z 28022G33KT 10SM FEW055 M03/M14 A2985 RMK AO2 PK WND 28034/1639 SLP157 T10331144 $
KCZT 251735Z AUTO 06005KT 10SM BKN026 20/11 A2999 RMK AO2
KCZZ 251652Z AUTO 05020G29KT 11/M12 A3015 RMK AO1 PK WND 05033/1642 SLP207 T01061117
KD07 251656Z AUTO 28011KT M06/M09 A2975 RMK AO1 SLP119 T10561094
KD25 251735Z AUTO 25016G23KT 4SM -SN OVC012 M06/M07 A2951 RMK AO2 T10611071
KD39 251735Z AUTO 25012G17KT 10SM OVC019 M05/M08 A2968 RMK AO2 T10541081
KD50 251735Z AUTO 23013KT 10SM CLR M08/M12 A2961 RMK AO2
KD60 251735Z AUTO 25012KT 10SM CLR M08/M10 A2962 RMK AO2
KD73 251735Z AUTO 00000KT 10SM OVC075 18/16 A3015 RMK AO2 T01750156
KD95 251735Z AUTO 27019G31KT 10SM SCT032 05/M03 A2978 RMK AO2 T00541031
KDAA 251742Z AUTO 29003KT 10SM OVC005 10/09 A2996 RMK AO2 RAB1656E16RAB24E42 SLP149 $
KDAB 251653Z 21009KT 10SM SCT040 SCT085 27/18 A3018 RMK AO2 SLP219 T02720178
KDAG 251650Z AUTO 00000KT 10SM CLR 07/M09 A3032 RMK AO2 SLP265 T00671089
KDAL 251653Z 14007KT 10SM BKN130 BKN250 13/08 A3008 RMK AO2 SLP184 T01330083 $
KDAN 251653Z AUTO 22007KT 10SM OVC095 18/16 A3004 RMK AO2 SLP162 T01830161 $
KDAW 251737Z AUTO 11005KT 2SM -SN BR OVC003 01/01 A3016 RMK AO2 RAB01E14SNE01B14 P0004 T00060006
KDAY 251656Z 24018KT 10SM FEW023 BKN240 06/02 A3002 RMK AO2 SLP169 T00610022
KDBN 251735Z AUTO 27011G18KT 10SM SCT029 BKN042 OVC048 25/17 A3015 RMK AO2
KDBQ 251653Z 24017KT 10SM CLR M02/M06 A2986 RMK AO2 SLP122 T10221061 $
KDCA 251707Z 00000KT 10SM -RA BKN007 BKN011 OVC100 11/09 A2993 RMK AO2 P0000 T01060094
KDCM 251735Z AUTO 26005G19KT 7SM -RA SCT016 BKN033 OVC039 17/12 A3013 RMK AO2
KDCU 251653Z AUTO 17007KT 10SM FEW010 SCT014 BKN033 13/12 A3011 RMK AO2 PRESFR SLP192 T01330117
KDCY 251735Z AUTO 23007KT 10SM CLR 08/01 A3010 RMK AO2 T00780008
KDDC 251652Z AUTO 10007KT 10SM CLR 06/M12 A2999 RMK AO2 SLP171 T00611117
KDDH 251743Z AUTO 11008KT 10SM BKN026 OVC031 04/M01 A2997 RMK AO2 RAE03 P0000 T00391011
KDEC 251654Z 24010KT 10SM CLR 05/M04 A3007 RMK AO2 SLP185 T00501039
KDED 251735Z AUTO 19009KT 170V230 10SM SCT047 SCT055 SCT085 28/17 A3016 RMK AO2
KDEH 251735Z AUTO 27011G16KT 240V300 10SM CLR M02/M07 A2981 RMK AO2
KDEN 251653Z 27018G31KT 10SM FEW080 FEW120 01/M17 A2990 RMK AO2 PK WND 25037/1631 SLP140 T00111167 $
KDEQ 251653Z AUTO 08008KT 10SM CLR 11/07 A3011 RMK AO2 SLP193 T01060072 $
KDET 251653Z 25022G30KT 10SM BKN034 06/M03 A2982 RMK AO2 PK WND 25030/1618 SLP104 T00561028
KDEW 251653Z AUTO 20011KT 10SM OVC019 01/M03 A2971 RMK AO2 SNB22E42 SLP083 P0000 T00061028
KDFI 251653Z AUTO 25017G25KT 10SM OVC033 04/M02 A2995 RMK AO2 PK WND 24029/1632 SLP148 T00391017
KDFW 251653Z 15008KT 10SM BKN130 BKN200 BKN250 15/08 A3007 RMK AO2 SLP179 T01500078 $
KDGW 251653Z AUTO 26018KT 10SM CLR M04/M12 A2980 RMK AO2 SLP135 T10391122 $
KDHN 251741Z 32019G28KT 1 3/4SM +RA BR FEW012 BKN027 OVC100 18/16 A3018 RMK AO2 PK WND 32030/1728 WSHFT 1720 RAB25 P0006 T01830161
KDHT 251653Z AUTO 28006KT 10SM CLR 07/M14 A2997 RMK AO2 SLP146 T00671144
KDIJ 251656Z AUTO 17016G20KT 9SM -SN OVC026 M09/M13 A3001 RMK AO2 SLP232 P0000 T10891128
KDIK 251656Z AUTO 26013KT 10SM CLR M06/M12 A2963 RMK AO2 SLP073 T10611122
KDKB 251735Z AUTO 24016G19KT 10SM CLR 02/M04 A2992 RMK AO2 T00221041
KDKK 251653Z AUTO 24019G27KT 10SM -RA CLR 06/02 A2982 RMK AO2 PK WND 24039/1606 SLP101 P0000 T00610017
KDKR 251735Z AUTO 06010G14KT 10SM -RA FEW029 OVC048 12/09 A3009 RMK AO2
KDKX 251735Z AUTO 25005G11KT 10SM CLR 14/11 A3012 RMK A01
KDLF 251655Z VRB03KT 10SM FEW250 21/03 A3003 RMK AO2A SLP163 T02060029
KDLH 251655Z 28015G29KT 10SM OVC021 M04/M08 A2947 RMK AO2 PK WND 28030/1603 SLP000 T10391078
KDLL 251735Z AUTO 26014G22KT 10SM CLR 00/M07 A2976 RMK AO2 T10021068
KDLN 251653Z AUTO 20016KT 10SM BKN060 M08/M14 A2983 RMK AO2 SLP172 T10781144
KDLO 251735Z AUTO 23003KT 10SM CLR 08/01 A3037 RMK AO2 T00830006
KDLP 251735Z AUTO 07007KT 7SM CLR 23/22 A3008 RMK A01
KDLS 251653Z AUTO 32012G20KT 10SM SCT033 SCT044 BKN060 08/04 A2989 RMK AO2 RAB39E51 SLP122 P0000 T00780039
KDLZ 251735Z AUTO 24010G14KT 10SM SCT025 08/02 A2999 RMK AO2
KDMA 251658Z AUTO 00000KT 10SM CLR 09/01 A3019 RMK AO2 SLP218 T00850007
KDMH 251654Z AUTO 09/08 A2992 RMK AO1 SLP133 T00940083
KDMN 251653Z AUTO 29008KT 10SM CLR 09/M12 A3014 RMK AO2 SLP188 T00891122
KDMO 251653Z AUTO 21007KT 10SM CLR 05/M02 A3012 RMK AO2 SLP203 T00501017
KDMW 251735Z AUTO 00000KT 10SM OVC004 09/09 A2995 RMK AO2
KDNA 251735Z AUTO 31011G18KT 10SM CLR 11/M15 A3015 RMK AO2 PWINO
KDNL 251720Z AUTO VRB05G14KT 10SM BKN030 OVC038 23/17 A3014 RMK AO2 T02330167
KDNN 251735Z AUTO 00000KT 10SM OVC095 13/12 A3018 RMK AO2
KDNS 251735Z AUTO 26011G19KT 10SM CLR M00/M07 A2995 RMK AO2
KDNV 251735Z AUTO 24017G20KT 10SM BKN028 05/00 A3003 RMK AO2 T00471003
KDOV 251724Z VRB05KT 10SM -RA BKN008 OVC017 11/10 A2996 RMK RAB12 CIG 008 RWY19 SLP149 $
KDPA 251652Z 25014G26KT 10SM CLR 03/M03 A2990 RMK AO2 PK WND 27029/1613 SLP131 T00281033 $
KDPL 251735Z AUTO 25012G17KT 10SM BKN046 BKN055 OVC080 27/16 A3006 RMK AO2
KDQH 251735Z AUTO 25014KT 10SM -RA BKN030 BKN042 OVC070 25/18 A3017 RMK AO2
KDRA 251655Z AUTO 02014KT 10SM CLR 04/M12 A3028 RMK AO2 SLP258 T00391122
KDRI 251735Z AUTO 05004KT 1 3/4SM +TSRA OVC005 12/11 A3007 RMK AO2 VIS 1/2V3 LTG DSNT W P0045 T01200113
KDRM 251735Z AUTO 24014G26KT 10SM BKN022 OVC027 M01/M04 A2949 RMK AO2 T10101041
KDRO 251653Z AUTO 30019G23KT 10SM CLR M02/M16 A3005 RMK AO2 SLP210 T10171156
KDRT 251653Z AUTO 29006KT 10SM CLR 20/00 A3003 RMK AO2 SLP158 T02000000
KDSM 251654Z 26017G22KT 10SM FEW250 03/M05 A2994 RMK AO2 SLP147 T00281050
KDSV 251730Z AUTO 00000KT 10SM FEW020 SCT025 13/09 A2977 RMK AO2 T01280089
KDTA 251735Z AUTO 18004KT 10SM CLR M05/M11 A3025 RMK AO1
KDTL 251735Z AUTO 24006KT 10SM OVC014 M05/M07 A2963 RMK AO2
KDTN 251729Z AUTO 14008KT 9SM -RA FEW013 OVC100 13/11 A3010 RMK AO2 RAB05 P0002 T01280111
KDTO 251653Z 17010KT 10SM CLR 14/07 A3008 RMK AO2 SLP185 T01440067
KDTS 251653Z VRB04KT 10SM CLR 26/22 A3013 RMK AO2 SLP201 T02610217
KDTW 251653Z 25026G35KT 10SM BKN032 06/M02 A2986 RMK AO2 PK WND 23040/1622 SLP115 T00611022 $
KDUA 251735Z AUTO 16009KT 10SM CLR 14/07 A3009 RMK AO2
KDUC 251735Z AUTO 17012KT 10SM 12/05 A3007 RMK AO2 T01190054
KDUG 251656Z AUTO 35012KT 10SM CLR 09/M12 A3017 RMK AO2 SLP201 T00891117
KDUH 251735Z AUTO 26013G22KT 10SM BKN032 BKN037 04/M01 A2992 RMK AO2 T00431015
KDUJ 251653Z AUTO 26014G24KT 10SM OVC047 11/03 A2984 RMK AO2 PK WND 25033/1609 RAE13 SLP109 P0001 T01110028
KDUX 251735Z AUTO 30010KT 10SM CLR 08/M13 A2998 RMK AO2 T00831135
KDVK 251735Z AUTO 25006KT 10SM CLR 09/04 A3011 RMK AO2
KDVL 251656Z AUTO 28016KT 10SM OVC050 M07/M09 A2958 RMK AO2 SNE12 SLP058 P0000 T10671089 FZRANO
KDVN 251652Z AUTO 25016KT 10SM CLR 03/M04 A2996 RMK AO2 SLP147 T00281044
KDVO 251735Z AUTO 33011KT 10SM CLR 11/M00 A3036 RMK AO2
KDVP 251738Z AUTO 27013G19KT 10SM OVC008 M05/M07 A2980 RMK AO2 T10471066
KDVT 251653Z 00000KT 10SM CLR 10/M10 A3022 RMK AO2 SLP228 T01001100 $
KDWH 251731Z 05004KT 3SM -RA BR OVC020 14/13 A3001 RMK AO2 P0009 T01390133
KDWU 251656Z AUTO 27009KT 10SM CLR 13/06 A3003 RMK AO2 SLP168 T01280061
KDWX 251735Z AUTO 23013G20KT 10SM CLR M06/M14 A3004 RMK AO2 T10601143
KDXR 251653Z 10008G17KT 6SM -RA BR OVC010 06/04 A3000 RMK AO2 PRESFR SLP162 P0007 T00560044
KDXX 251735Z AUTO 27017KT 7SM CLR M02/M06 A2975 RMK AO2
KDYA 251735Z AUTO 13006KT 10SM 13/11 A3013 RMK AO2 T01260106
KDYB 251735Z AUTO 25011G18KT 10SM SCT047 BKN055 BKN070 27/16 A3011 RMK AO1
KDYL 251740Z AUTO VRB03KT 10SM -RA OVC004 06/06 A2995 RMK AO2 RAE18B37 PRESRR P0000 T00610056
KDYR 251656Z AUTO 06003KT 10SM CLR 09/02 A3016 RMK AO2 SLP229 T00940022 PNO $
KDYS 251656Z AUTO 18009KT 10SM BKN110 15/M06 A3004 RMK AO2 SLP162 T01491061
KDYT 251735Z AUTO 24018G24KT 7SM BKN032 OVC038 M02/M06 A2954 RMK AO2
KDZB 251735Z AUTO 08003KT 10SM SCT080 BKN090 BKN110 14/09 A3005 RMK AO2 T01440086
KDZJ 251735Z AUTO 27004KT 10SM SCT060 SCT075 OVC090 15/11 A3018 RMK AO2 T01470114
KE11 251735Z AUTO 27012G17KT 10SM CLR 16/M14 A3005 RMK AO2 T01641145
KE16 251735Z AUTO 00000KT 10SM CLR 08/04 A3038 RMK AO2
KE38 251735Z AUTO 25016G20KT 10SM CLR 17/M16 A3016 RMK AO2 T01741156
KE80 251735Z AUTO 30016G22KT 10SM CLR 05/M13 A3014 RMK AO2 T00451128
KEAN 251735Z AUTO 24017G25KT 10SM CLR M01/M11 A2985 RMK AO2 T10121108
KEAR 251656Z AUTO 24012KT 10SM CLR 03/M09 A2997 RMK AO2 SLP163 T00331089
KEAT 251655Z AUTO 06007KT 10SM FEW050 FEW080 SCT100 04/M02 A2968 RMK AO2 SLP059 T00391022
KEAU 251656Z 23013G22KT 9SM CLR M05/M09 A2970 RMK AO2 PK WND 24026/1603 SLP068 T10501094
KEBA 251735Z AUTO 22004KT 10SM SCT006 OVC080 19/18 A3014 RMK AO2 T01900175
KEBG 251735Z AUTO 22007KT 10SM BKN033 OVC047 25/21 A2994 RMK AO2 T02530211
KEBS 251735Z AUTO 26016KT 10SM CLR M02/M07 A2988 RMK AO2
KECG 251654Z 21018G25KT 10SM SCT080 BKN110 26/17 A3002 RMK AO2 SLP166 T02560167
KECP 251653Z 19011KT 10SM BKN028 BKN037 27/19 A3012 RMK AO2 SLP211 T02720194
KECS 251735Z AUTO 14007KT 112V172 10SM CLR M06/M13 A2982 RMK AO2
KECU 251735Z AUTO VRB04KT 10SM CLR 19/01 A3008 RMK AO2
KEDE 251735Z AUTO 25012G17KT 10SM OVC055 27/16 A3003 RMK AO2 T02700158
KEDJ 251735Z AUTO 23015KT 10SM CLR 05/02 A2999 RMK AO1
KEDN 251735Z AUTO 34010G21KT 10SM SCT034 BKN042 OVC050 17/15 A3017 RMK AO2 T01710154
KEDU 251740Z AUTO 36005KT 10SM CLR 10/00 A3036 RMK AO1
KEDW 251658Z 01007KT 90SM FEW250 04/M11 A3029 RMK AO2A SLP265 T00421114
KEED 251656Z AUTO 01012KT 10SM CLR 13/M11 A3031 RMK AO2 SLP253 T01281111
KEEN 251656Z AUTO 00000KT 9SM -RA OVC016 02/01 A3011 RMK AO2 UPB08E34RAB34SNE08 SLP215 P0009 T00170006 FZRANO
KEEO 251653Z AUTO 00000KT 10SM CLR M06/M13 A3006 RMK AO2 SLP217 T10561128
KEET 251653Z AUTO 11006KT 10SM FEW004 OVC095 13/12 A3014 RMK AO2 RAE51 SLP202 P0001 T01280122
KEFD 251550Z 02006KT 2SM -RA OVC004 15/14 A3002
KEFK 251735Z AUTO 17011G16KT 10SM UP SCT018 BKN024 OVC050 M01/M04 A2995 RMK AO2 T10151036
KEFT 251735Z AUTO 25022G29KT 10SM CLR 01/M06 A2984 RMK AO2
KEGE 251708Z 22014KT 10SM SCT042 M04/M11 A3005 RMK AO2 WSHFT 1643
KEGI 251745Z AUTO 32008KT 10SM CLR 17/16 A3016 RMK AO2 DZB10E12RAB12E41DZB41 SLP214 $
KEGV 251735Z AUTO 25024G28KT 2 1/2SM HZ OVC012 M06/M09 A2950 RMK AO2 VIS 1 1/2V5 T10651092
KEHA 251735Z AUTO 32005KT 10SM CLR 04/M06 A2999 RMK AO2 T00401060
KEHC 251730Z AUTO 17012KT 7SM CLR A3001 RMK A01
KEHO 251740Z AUTO 21004KT 10SM OVC085 18/16 A3010 RMK AO2 T01800155
KEHR 251656Z AUTO 28009KT 10SM CLR 07/01 A3013 RMK AO2 SLP215 T00720006
KEHY 251735Z AUTO 25031G40KT 1 3/4SM HZ OVC022 M08/M12 A2980 RMK AO2
KEIK 251736Z AUTO 17003KT 10SM CLR 01/M17 A2997 RMK AO2 T00081175
KEIR 251735Z AUTO 21012KT 6SM BR CLR 24/22 A3004 RMK A01
KEKM 251652Z 24019G24KT 10SM OVC031 04/M03 A2993 RMK AO2
KEKN 251651Z AUTO 25012G20KT 10SM BKN037 OVC045 14/08 A2997 RMK AO2 SLP149 T01440083 TSNO
KEKO 251656Z AUTO 24004KT 10SM CLR M08/M12 A3022 RMK AO2 SLP281 T10831122
KEKQ 251656Z AUTO 29007KT 10SM CLR 10/06 A3013 RMK AO2 SLP224 T01000061 PNO $
KEKS 251735Z AUTO 18015G20KT 10SM FEW095 M05/M14 A2986 RMK AO2
KEKY 251721Z AUTO 12009KT 10SM -RA FEW003 SCT035 OVC090 12/11 A3010 RMK AO2 P0000
KELA 251735Z AUTO 08008KT 5SM -RA OVC013 15/15 A2999 RMK AO2 P0003 T01500147
KELD 251727Z AUTO 10007KT 10SM BKN018 13/11 A3012 RMK AO2 T01280106
KELK 251735Z AUTO 20009KT 10SM CLR 11/M03 A2999 RMK AO2 T01121032
KELM 251653Z 21008KT 10SM OVC018 09/06 A2983 RMK AO2 SLP107 T00890056
KELN 251705Z AUTO 06005KT 5SM -SN BKN034 BKN042 OVC050 02/M01 A2973 RMK AO2 P0000 T00221006
KELO 251735Z AUTO 26013G24KT 5SM BR OVC013 M06/M08 A2940 RMK AO2
KELP 251651Z VRB06KT 10SM CLR 10/M14 A3012 RMK AO2 SLP174 T01001144
KELY 251653Z AUTO 08003KT CLR M08/M14 A3019 RMK AO2 SLP269 T10831144 $
KELZ 251656Z AUTO 24011G21KT 10SM BKN047 OVC060 12/09 A2979 RMK AO2 RAE38 SLP096 P0001 T01170089
KEMK 251735Z AUTO 14020KT 3SM HZ CLR 24/22 A2999 RMK A01
KEMP 251653Z AUTO 18013KT 10SM FEW085 06/M04 A3007 RMK AO2 SLP193 T00611044
KEMT 251645Z 00000KT 10SM CLR 10/M02 A3024
KEMV 251735Z AUTO 21007KT BKN080 OVC090 20/11 A3004 RMK AO2 PWINO
KEND 251656Z AUTO 16013KT 10SM CLR 08/02 A3003 RMK AO2 SLP179 T00830023 $
KENL 251735Z AUTO 24008KT 10SM CLR 07/00 A3011 RMK AO2 T00730001
KENV 251656Z AUTO 00000KT 10SM CLR M03/M12 A3022 RMK AO2 SLP266 T10331122 FZRANO
KENW 251653Z 26021G28KT 10SM CLR 03/M04 A2983 RMK AO2 PK WND 25034/1615 SLP107 T00331044
KEOE 251735Z AUTO 32014KT 7SM -TSRA SCT011 BKN016 OVC040 18/16 A3016 RMK AO2
KEOK 251735Z AUTO 21012KT 10SM CLR 05/M03 A3003 RMK AO2
KEPH 251653Z AUTO 21015G19KT 10SM CLR 05/M03 A2971 RMK AO2 SLP067 T00501028
KEQA 251735Z AUTO 17006KT 10SM SCT070 09/M05 A3006 RMK AO2
KEQY 251739Z AUTO 30004KT 9SM -RA FEW021 SCT026 OVC047 18/17 A3009 RMK AO2 RAB15 P0001 T01830167
KERI 251651Z 27016G21KT 10SM CLR 06/02 A2984 RMK AO2 SLP111 T00610017
KERV 251735Z AUTO 09008KT 10SM SCT050 BKN070 16/07 A3005 RMK AO2 T01620065
KERY 251735Z AUTO 23018G25KT 2 1/2SM BR OVC013 M02/M03 A2944 RMK AO2 VIS 1 1/2V4 T10251029
KESC 251656Z AUTO 24018G29KT 5SM HZ OVC022 M02/M05 A2951 RMK AO2 PK WND 23029/1648 SLP016 T10221050 FZRANO
KESF 251735Z AUTO 00000KT 1 1/4SM +RA BR FEW005 OVC015 12/12 A3009 RMK AO2 P0036 T01170117
KESN 251650Z 00000KT 10SM SCT005 BKN085 10/09 A2999
KEST 251652Z AUTO 28021G26KT 8SM CLR M06/M09 A2982 RMK AO2 PK WND 28026/1651 SLP117 T10561094
KETB 251735Z AUTO 25018G29KT 10SM CLR 01/M06 A2975 RMK AO2
KETH 251733Z AUTO 26013G19KT 10SM CLR M03/M07 A2973 RMK AO2
KETN 251735Z AUTO 17009KT 10SM SCT120 16/06 A3005 RMK AO2 T01570065
KEUF 251658Z AUTO 32015G25KT 10SM FEW024 BKN034 OVC050 21/16 A3015 RMK AO2 PRESRR SLP208 T02110156
KEUG 251654Z 19018KT 8SM -RA FEW011 BKN024 OVC031 04/04 A3010 RMK AO2 SLP197 P0002 T00440039 $
KEUL 251656Z AUTO 12007KT 9SM -SN BKN030 OVC035 M03/M07 A3016 RMK AO2 SNB31 SLP241 P0000 T10281067 FZRANO
KEVB 251747Z 22010KT 10SM SCT046 28/17 A3017
KEVM 251741Z AUTO 28015G23KT 10SM BKN020 BKN026 M04/M08 A2947 RMK AO2
KEVU 251735Z AUTO 22012KT 10SM CLR 06/M06 A3003 RMK AO2
KEVV 251654Z 26009KT 10SM CLR 07/02 A3013 RMK AO2 SLP202 T00720022 $
KEVW 251734Z AUTO 24015KT 4SM -SN BR BKN013 OVC022 M09/M11 A3005 RMK AO2 P0000 T10891111 $
KEWB 251653Z 10011KT 7SM -RA OVC009 04/04 A3010 RMK AO2 CIG 007V014 SLP192 P0008 T00440039
KEWK 251656Z AUTO 18009KT 10SM SCT070 04/M02 A3007 RMK AO2 SLP192 T00441022
KEWN 251654Z 23013G23KT 10SM SCT047 SCT060 27/17 A3007 RMK AO2 PK WND 26027/1634 SLP183 T02720172
KEWR 251651Z 04013KT 6SM -RA BR BKN006 OVC010 05/04 A2997 RMK AO2 PRESFR SLP148 P0003 T00500044 $
KEXX 251735Z AUTO 20003KT 10SM OVC090 17/17 A3005 RMK AO2 T01700167
KEYE 251714Z AUTO 23008G18KT 10SM SCT026 07/M01 A3004 RMK AO2 T00671006
KEYW 251653Z 13011KT 10SM CLR 27/21 A3016 RMK AO2 SLP213 T02720211
KEZF 251735Z AUTO 20005KT 10SM CLR 12/12 A2993 RMK AO2 T01190119
KEZM 251735Z AUTO 23007KT 200V290 10SM SCT032 BKN045 27/12 A3016 RMK AO2 T02720124
KEZS 251735Z AUTO 25017G23KT 10SM OVC017 M02/M06 A2966 RMK AO2 T10231060
KF00 251735Z AUTO 14010KT 10SM CLR 13/08 A3009 RMK AO2 T01270082
KF05 251735Z AUTO 20005KT 10SM CLR 13/00 A3005 RMK AO1 T01301004
KF17 251735Z AUTO 04005KT 7SM RA SCT047 BKN050 OVC065 10/08 A3012 RMK AO2 P0007 T00950083
KF44 251735Z AUTO 14012KT 10SM CLR 12/07 A3004 RMK AO2 LTG DSNT E
KF46 251735Z AUTO 15007KT 10SM CLR 15/09 A3007 RMK AO2 T01460085
KF70 251735Z AUTO 36007KT 10SM CLR 12/M03 A3021 RMK AO1
KFAF 251656Z AUTO 28015G22KT 10SM BKN040 BKN050 23/15 A2998 RMK AO2 SLP155 T02270153 $
KFAM 251656Z AUTO 33003KT 10SM CLR 07/M02 A3013 RMK AO2 SLP204 T00721022
KFAR 251707Z 28015KT 10SM SCT015 OVC055 M03/M06 A2964 RMK AO2 T10331061
KFAT 251653Z 14003KT 10SM FEW200 07/M02 A3036 RMK AO2 SLP280 T00671022
KFAY 251653Z 26017KT 10SM FEW043 SCT049 27/16 A3007 RMK AO2 SLP175 T02670156
KFBG 251736Z AUTO 24012KT 10SM SCT055 SCT220 26/14 A3004 RMK AO2 SLP174 $
KFBL 251735Z AUTO 24011G19KT 10SM CLR M05/M10 A2979 RMK AO2
KFBR 251315Z AUTO 25012KT 10SM SCT065 M11/M12 A2998 RMK AO2 T11111121
KFCH 251735Z AUTO 00000KT 08/03 A3037 RMK A01
KFCI 251656Z AUTO 23006KT 10SM OVC100 18/13 A2999 RMK AO2 SLP173 T01780133 $
KFCM 251653Z 25012KT 10SM SCT033 M07/M12 A2974 RMK AO2 SLP082 T10671122
KFCS 251723Z 28013G26KT 10SM SCT100 02/M22 A2992 RMK AO2A WSHFT 21 SLPNO $
KFDK 251647Z COR 00000KT 7SM BKN009 OVC018 10/10 A2997
KFDR 251653Z AUTO 19005KT 10SM CLR 11/06 A3003 RMK AO2 SLP166 T01060061
KFDW 251755Z AUTO 26007G15KT 10SM SCT026 BKN048 OVC055 20/15 A3010 RMK AO1
KFDY 251712Z AUTO 24019G26KT 10SM BKN024 06/01 A2995 RMK AO2 PK WND 26026/1655 T00610006
KFEP 251735Z AUTO 24010G19KT 10SM CLR 01/M04 A2991 RMK AO2 T00121044
KFET 251735Z AUTO 26007KT 10SM CLR 00/M07 A2999 RMK AO2 T00001075
KFEW 251658Z AUTO 29025G33KT 10SM FEW050 M04/M16 A2988 RMK AO2 PK WND 27038/14 SLP174 T10371157 $
KFFA 251735Z AUTO 23009G16KT 10SM SCT040 SCT080 26/16 A3001 RMK AO2 T02550160
KFFC 251653Z AUTO VRB03KT 8SM -RA FEW035 FEW055 OVC070 17/16 A3017 RMK AO2 SLP214 P0002 T01720161
KFFL 251735Z AUTO 23013G19KT 10SM CLR 05/M04 A2998 RMK AO2 PWINO
KFFM 251735Z AUTO 27018KT 10SM OVC016 M06/M08 A2968 RMK AO2
KFFO 251656Z 23012G19KT 10SM FEW026 08/02 A3002 RMK AO2A SLP171 T00830019
KFFT 251653Z AUTO 27007KT 10SM FEW024 09/03 A3008 RMK AO2 SLP184 T00940028
KFFX 251737Z AUTO 24021G27KT 10SM BKN028 03/M07 A2978 RMK AO2 T00291067
KFFZ 251647Z 01008KT 40SM SKC 10/M09 A3023
KFGN 251735Z AUTO 31008KT 10SM BKN015 BKN085 M04/M08 A2945 RMK AO2
KFGX 251735Z AUTO 23009KT 10SM SCT022 09/05 A3007 RMK AO2 T00900047
KFHB 251737Z AUTO 19008KT 10SM SCT033 SCT040 BKN090 28/18 A3014 RMK AO1
KFHR 251653Z AUTO 22009KT 10SM FEW015 SCT034 OVC090 04/01 A2977 RMK AO2 SLP082 T00390011
KFHU 251658Z AUTO 33006KT 10SM CLR 08/M14 A3018 RMK AO2 SLP205 T00791144
KFIG 251726Z AUTO 18004KT 6SM -RA BR FEW007 BKN031 OVC047 09/08 A2986 RMK AO2 P0002 T00890083
KFIN 251650Z 23007KT 7SM SCT035 BKN044 26/17 A3018
KFIT 251734Z AUTO 09004KT 4SM -RA BR OVC007 04/03 A3009 RMK AO2 P0004 T00390033 TSNO
KFKA 251735Z AUTO 25014G18KT 10SM CLR M04/M08 A2979 RMK AO2 T10431081
KFKL 251656Z AUTO 27011G19KT 10SM CLR 11/M01 A2986 RMK AO2 PK WND 23026/1600 SLP116 T01111006
KFKN 251735Z AUTO 25007KT 10SM SCT042 BKN070 OVC095 23/14 A3001 RMK AO2 T02300141
KFKR 251735Z AUTO 26022G26KT 10SM BKN029 OVC034 06/01 A3006 RMK AO2 T00610010
KFKS 251735Z AUTO 22012G20KT 190V250 10SM BKN026 OVC032 01/M04 A2969 RMK AO2 T00061044
KFLD 251653Z AUTO 25019G29KT 10SM CLR 00/M07 A2974 RMK AO2 PK WND 27029/1652 SLP079 T00001072 TSNO
KFLG 251657Z 06007KT 10SM CLR M03/M17 A3014 RMK AO2 SLP220 T10281167
KFLL 251653Z 14013KT 10SM SCT025 27/21 A3018 RMK AO2 SLP219 T02670211
KFLO 251653Z 25013G20KT 10SM SCT043 BKN050 27/16 A3009 RMK AO2 SLP185 T02670161
KFLP 251656Z AUTO VRB03KT 10SM CLR 08/01 A3016 RMK AO2 SLP213 T00830006
KFLY 251735Z AUTO 29009KT 10SM SCT075 SCT090 M01/M25 A2992 RMK AO2 T10101250
KFME 251736Z AUTO 28003KT 10SM BKN006 OVC010 09/08 A2997 RMK AO1
KFMH 251735Z AUTO 10019G26KT 4SM -DZ BKN008 OVC017 04/03 A3008 RMK AO2
KFMM 251735Z AUTO 28022G30KT 10SM CLR 03/M18 A2994 RMK AO2 T00321177
KFMN 251653Z 28016KT 10SM CLR 00/M09 A3013 RMK AO2 SLP222 T00001089
KFMY 251653Z 19008KT 10SM SCT035 SCT043 28/19 A3016 RMK AO2 SLP216 T02830189
KFNB 251653Z AUTO 23013KT 10SM CLR 04/M02 A3003 RMK AO2 SLP177 T00441022
KFNL 251656Z AUTO 15004KT 10SM SCT080 M01/M12 A2992 RMK AO2 SLP149 T10061117 FZRANO
KFNT 251653Z 23020G31KT 10SM BKN033 04/M02 A2980 RMK AO2 PK WND 22032/1628 SLP098 T00391022
KFOA 251735Z AUTO 27009KT 10SM CLR 08/01 A3012 RMK AO2 T00840005
KFOD 251656Z AUTO 26011KT 10SM CLR M02/M07 A2989 RMK AO2 SLP163 T10171072 FZRANO
KFOE 251653Z 21011KT 10SM FEW095 07/M03 A3006 RMK AO2 SLP187 T00671033
KFOK 251653Z 10013G25KT 2SM -RA BR OVC006 06/05 A2997 RMK AO2 PK WND 09028/1635 CIG 004V009 PRESFR SLP147 P0009 T00560050
KFOT 251430Z AUTO 14007KT 10SM OVC031 00/00 A3041 RMK AO1
KFOZ 251545Z AUTO 26006KT 10SM -SN OVC011 M04/M07 A2943 RMK AO2
KFPK 251735Z AUTO 24015G26KT 10SM SCT038 05/M03 A2982 RMK AO2 T00531034
KFPR 251653Z 11013KT 10SM FEW075 28/19 A3019 RMK AO2 SLP221 T02780194
KFQD 251735Z AUTO 18004KT 10SM OVC090 18/17 A3009 RMK AO2 T01800168
KFRG 251653Z 05007KT 10SM -RA OVC007 07/06 A2999 RMK AO2 SLP155 P0009 T00670056
KFRH 251735Z AUTO 23008KT 10SM CLR 06/00 A3010 RMK AO1
KFRI 251656Z AUTO 26007KT 10SM OVC100 05/M03 A3006 RMK AO2 SLP186 T00531033
KFRM 251743Z AUTO 28014KT 2 1/2SM HZ CLR M04/M08 A2984 RMK AO2 FZRANO
KFRR 251735Z AUTO 05003KT 10SM SCT120 10/10 A2992 RMK AO1
KFSD 251656Z 28012KT 10SM SCT013 SCT250 M05/M10 A2986 RMK AO2 SLP136 T10501100 $
KFSE 251735Z AUTO 24012KT 7SM SCT031 SCT039 BKN049 M06/M11 A2959 RMK AO2
KFSI 251656Z AUTO 18009KT 10SM CLR 11/07 A3005 RMK AO2 SLP178 T01100069 $
KFSM 251653Z 07009KT 10SM CLR 09/05 A3011 RMK AO2 RAE1558 SLP197 P0000 T00940050
KFSO 251735Z AUTO 17011G19KT 10SM SCT042 SCT048 OVC060 01/M01 A2987 RMK AO2 T00101012
KFST 251653Z AUTO 28008KT 10SM CLR 18/M13 A3007 RMK AO2 SLP156 T01831133
KFSW 251735Z AUTO 22009G16KT 10SM CLR 05/M03 A3002 RMK AO2
KFTG 251547Z 25018KT 10SM FEW220 00/M14 A2991
KFTK 251702Z AUTO 26004KT 10SM FEW200 07/01 A3010 RMK AO2 PRESFR SLP196
KFTN 251735Z AUTO 01008KT 10SM CLR 21/12 A2999 RMK A01
KFTW 251653Z 13010KT 10SM CLR 15/08 A3007 RMK AO2 SLP179 T01500083
KFTY 251746Z 33005KT 10SM -RA FEW009 SCT012 OVC085 17/16 A3017 RMK AO2 PRESFR P0001 T01670156
KFUL 251653Z 34004KT 10SM CLR 12/00 A3022 RMK AO2 SLP234 T01220000
KFVE 251653Z AUTO 15014G20KT 10SM CLR M10/M15 A3023 RMK AO2 SLP256 T11001150
KFVX 251735Z AUTO 20009KT 10SM OVC120 A2996 RMK AO2
KFWA 251740Z 24019G30KT 10SM OVC032 04/M01 A2999 RMK AO2 PK WND 25030/1733 T00441011 $
KFWB 251735Z AUTO 19004KT 10SM 08/M02 A3011 RMK AO2
KFWC 251735Z 10SM CLR 07/01 A3011 RMK AO1 T00740013
KFWN 251715Z AUTO 07004KT 10SM -RA OVC014 06/04 A2994 RMK AO2 RAB04 P0000 T00610044
KFWS 251655Z 11006KT 10SM BKN120 14/08 A3009
KFWZ 251735Z AUTO 10SM CLR M11/M17 RMK AO2 TSNO
KFXE 251653Z 13008KT 10SM SCT027 SCT049 28/20 A3019 RMK AO2 SLP224 T02780200
KFXY 251735Z AUTO 27009KT 10SM CLR M03/M07 A2984 RMK AO2
KFYE 251735Z AUTO 00000KT 10SM CLR 11/05 A3012 RMK A01
KFYG 251735Z AUTO 00000KT 10SM CLR 07/M03 A3012 RMK AO2
KFYJ 251735Z AUTO 25003KT 10SM BKN095 BKN120 17/14 A2998 RMK AO2 T01710140
KFYM 251735Z AUTO VRB05G13KT 10SM SCT011 SCT019 13/12 A3007 RMK A01
KFYV 251653Z 00000KT 10SM CLR 09/02 A3010 RMK AO2 SLP195 T00940022 $
KFZG 251735Z AUTO 25007KT 10SM BKN022 BKN033 OVC090 25/20 A3016 RMK AO2 T02530201
KFZY 251740Z AUTO 11004KT 2SM -RA BR SCT007 BKN012 OVC028 06/06 A2982 RMK AO2 PRESFR P0003 T00610056
KGAD 251656Z AUTO 17003KT 10SM -RA FEW090 BKN100 12/12 A3016 RMK AO2 SLP215 P0000 T01220117
KGAG 251653Z AUTO 30008KT 10SM CLR 06/M06 A2998 RMK AO2 SLP163 T00611056
KGAI 251656Z AUTO 00000KT 10SM -RA OVC003 09/08 A2995 RMK AO2 RAB1557 SLP174 P0001 T00890083
KGAO 251735Z AUTO 01010KT BKN022 BKN027 OVC050 22/17 A3008 RMK AO2 T02150171 PWINO
KGBD 251656Z AUTO 14006KT 10SM OVC065 05/M06 A3002 RMK AO2 SLP181 T00501061
KGBG 251735Z AUTO 21013KT 10SM CLR 05/M02 A3000 RMK AO2 T00461019
KGBK 251735Z AUTO 12015KT 7SM SCT024 34/32 A3004 RMK A01
KGCC 251653Z AUTO 23016KT 10SM CLR M06/M14 A2974 RMK AO2 SLP122 T10561144
KGCD 251735Z AUTO 19017G24KT 10SM OVC049 01/M05 A2998 RMK AO2 T00061053
KGCK 251654Z 29004KT 10SM SCT110 02/M14 A3000 RMK AO2 SLP180 T00221139
KGCM 251735Z AUTO 13006KT 10SM CLR 08/03 A3011 RMK AO2
KGCN 251654Z VRB03KT 10SM CLR M03/M14 A3016 RMK AO2 SLP228 T10331144 $
KGDB 251735Z AUTO 23010KT 10SM CLR M03/M07 A2980 RMK AO2 T10301067
KGDJ 251735Z AUTO 12005KT 10SM CLR 16/07 A3007 RMK AO2 T01600073
KGDP 251651Z AUTO 24025G37KT 10SM CLR 09/M15 A3007 RMK AO2 PK WND 24037/1646 SLP163 T00891150
KGDV 251656Z AUTO 20007KT 10SM CLR M11/M14 A2967 RMK AO2 SLP088 T11061144 FZRANO
KGED 251738Z AUTO 22007KT 10SM FEW005 BKN080 OVC095 13/12 A2994 RMK AO2 T01330117
KGEG 251745Z 21022G33KT 10SM FEW015 SCT023 BKN055 OVC180 02/M02 A2967 RMK AO2 PK WND 20037/1728 T00171022 $
KGEU 251747Z 00000KT 10SM SKC 12/M08 A3025
KGEV 251735Z AUTO 26003KT 10SM SCT070 SCT085 OVC100 15/04 A3007 RMK AO2 T01450038
KGEY 251653Z AUTO 00000KT 10SM CLR M13/M16 A2983 RMK AO2 SLP169 T11281161
KGEZ 251653Z AUTO 23016G20KT 10SM CLR 06/01 A3004 RMK AO2 SLP174 T00610006
KGFA 251722Z 23035G40KT 3SM BR CLR M03/M07 A2962 RMK SLP082 $
KGFK 251653Z 29010KT 10SM OVC060 M04/M07 A2957 RMK AO2 SLP029 T10391072
KGFL 251744Z AUTO 00000KT 4SM -RA BR SCT007 OVC032 01/01 A2999 RMK AO2 RAB44 P0000 T00060006
KGGE 251735Z AUTO 23014G21KT 10SM SCT050 BKN075 27/15 A3011 RMK AO2
KGGG 251700Z 13005KT 10SM BKN011 BKN070 14/13 A3010 RMK AO2 T01390128
KGGI 251755Z AUTO 24015KT 10SM CLR 03/M03 A2995 RMK AO2 T00301028 10030 21045
KGGP 251735Z AUTO 24019G27KT 10SM BKN029 OVC034 03/M01 A3003 RMK AO2
KGGW 251653Z AUTO 11005KT 10SM BKN085 M12/M16 A2961 RMK AO2 SLP068 T11221156
KGHB 251735Z AUTO 15012G19KT 7SM CLR 25/22 A3004 RMK A01
KGHG 251735Z AUTO 11010G21KT 090V150 2 1/2SM -UP SCT007 BKN019 OVC025 04/04 A3011 RMK AO2
KGHW 251735Z AUTO 25015KT 10SM CLR M04/M07 A2968 RMK AO2
KGIC 251735Z AUTO 20027G36KT 4SM SCT041 OVC049 M01/M06 A2984 RMK AO1
KGIF 251653Z AUTO 20009KT 10SM FEW034 28/18 A3019 RMK AO2 SLP221 T02780183
KGJT 251653Z VRB04KT 10SM CLR M01/M06 A3013 RMK AO2 SLP221 T10111056
KGKJ 251653Z AUTO 25013KT 10SM CLR 09/01 A2984 RMK AO2 SLP110 T00940006
KGKT 251735Z AUTO 20005G13KT 10SM CLR 14/10 A3009 RMK A01
KGKY 251653Z 14005KT 10SM CLR 13/09 A3008 RMK AO2 SLP183 T01280089 $
KGLD 251653Z AUTO 23014G22KT 10SM CLR 04/M12 A2996 RMK AO2 SLP169 T00441122
KGLE 251735Z AUTO 22011KT 10SM CLR 14/05 A3009 RMK AO2 T01440050
KGLH 251653Z 05006KT 10SM CLR 13/09 A3012 RMK AO2 SLP208 T01280089 $
KGLR 251653Z AUTO 23023G36KT 10SM BKN023 OVC028 M02/M04 A2955 RMK AO2 PK WND 25040/1628 SLP023 T10171039
KGLS 251652Z 14008KT 4SM BR FEW018 OVC034 24/22 A3000 RMK AO2 SLP157 T02390217
KGLW 251730Z AUTO 28005KT 10SM CLR 09/04 A3012 RMK AO2 T00900036
KGLY 251735Z AUTO 25003KT 10SM CLR 07/M01 A3012 RMK AO2
KGMJ 251735Z AUTO 12003KT 10SM CLR 10/03 A3012 RMK AO2
KGMU 251653Z 24007KT 10SM BKN085 OVC100 19/17 A3011 RMK AO2 RAE12 SLP190 P0001 T01890167
KGNA 251656Z AUTO 28015G30KT M01/M07 A2932 RMK AO1 PK WND 29032/1637 SLP940 T10111067 $
KGNB 251735Z AUTO 26012G21KT 10SM SCT034 BKN041 OVC048 M09/M15 A2995 RMK AO2 T10901155
KGNC 251735Z AUTO 25017G21KT 10SM CLR 17/M14 A3004 RMK AO2 T01671142
KGNR 251656Z AUTO 14011G21KT M07/M13 A3014 RMK AO1 SLP231 T10721133
KGNT 251735Z AUTO 34019G24KT 10SM CLR 01/M13 A3015 RMK AO2 T00081135
KGNV 251653Z 20010G16KT 10SM CLR 27/18 A3020 RMK AO2 SLP224 T02670178
KGOK 251653Z AUTO 15013G19KT 10SM CLR 10/M02 A3005 RMK AO2 SLP183 T01001017 $
KGON 251741Z 08020G28KT 3SM -RA BR BKN010 OVC015 06/03 A2999 RMK AO2 PK WND 10030/1714 P0007 T00560033
KGOO 251740Z AUTO 00000KT 10SM CLR 07/M09 A3026 RMK AO1
KGOP 251735Z AUTO 15004KT 10SM FEW020 FEW065 FEW095 15/08 A3008 RMK AO2
KGOV 251658Z AUTO 25015G25KT 9SM OVC026 00/M05 A2961 RMK AO2 PK WND 23028/25 SLP045 T10051054
KGPC 251735Z AUTO 23008KT 201V271 10SM CLR 06/00 A3007 RMK AO2
KGPH 251735Z AUTO 24008KT 10SM CLR 06/M06 A3009 RMK AO2
KGPI 251655Z 16016KT 10SM OVC041 M02/M05 A2969 RMK AO2 SLP083 T10221050
KGPM 251650Z 00000KT 10SM SKC 13/07 A3010
KGPT 251653Z 02008KT 4SM -RA BR FEW037 OVC048 17/16 A3014 RMK AO2 SLP206 P0001 T01670161
KGPZ 251713Z AUTO 26011KT 240V300 4SM -SN OVC016 M04/M08 A2953 RMK AO2 P0000 FZRANO
KGRB 251653Z 24016G29KT 10SM OVC021 M02/M07 A2968 RMK AO2 PK WND 23030/1616 SLP058 T10221072
KGRD 251656Z AUTO VRB04KT 9SM -RA FEW020 BKN055 OVC080 18/17 A3014 RMK AO2 SLP203 P0001 T01780172
KGRF 251745Z AUTO 20009KT 10SM -RA BKN011 BKN024 04/04 A2986 RMK AO2 RAE10RAB25 CIG 011V024 SLP117 $
KGRI 251653Z COR 26013KT 10SM CLR 04/M06 A2996
KGRK 251658Z AUTO 12009KT 10SM OVC095 13/09 A3005 RMK AO2 LTG DSNT S SLP174 T01310092
KGRN 251735Z AUTO 26012G18KT 10SM CLR M02/M10 A2983 RMK AO2 T10171104
KGRR 251653Z 25028G33KT 10SM BKN032 03/M03 A2981 RMK AO2 PK WND 25037/1628 SLP102 T00281028 $
KGRY 251730Z AUTO 19011G21KT 6SM HZ CLR 25/21 A3006 RMK A01
KGSB 251656Z AUTO 25017G23KT 10SM FEW044 26/16 A3005 RMK AO2 SLP178 T02630156 $
KGSH 251653Z AUTO 24019G25KT 10SM BKN025 OVC031 03/M03 A2993 RMK AO2 PK WND 25026/1643 SLP143 T00331028
KGSO 251654Z 21011KT 10SM OVC090 17/16 A3006 RMK AO2 RAE05 SLP173 P0000 T01720156
KGSP 251653Z 28007KT 10SM OVC095 20/16 A3011 RMK AO2 RAE1555 SLP188 P0000 T02000156
KGTB 251717Z AUTO 15014G29KT 10SM SCT020 BKN031 OVC070 05/03 A2975 RMK AO2 RAE04RAB07E17 SLP081
KGTF 251653Z 23027KT 10SM CLR M03/M09 A2959 RMK AO2 PK WND 23034/1643 SLP076 T10331089
KGTR 251745Z VRB04KT 10SM -RA 12/10 A3013 RMK AO2 RAB38 P0000 $
KGTU 251745Z 03009KT 10SM FEW021 BKN026 OVC049 12/11 A3006 RMK AO2 LTG DSNT NE AND SE AND W TSE34B36E45RAE37 P0028
KGUC 251726Z AUTO 24014G20KT 10SM FEW023 SCT042 BKN055 M06/M12 A3001 RMK AO2 WSHFT 1701 FZRANO
KGUL 251735Z AUTO 16012KT 3SM BR CLR 24/22 A3002 RMK A01
KGUP 251653Z AUTO 30010KT 10SM CLR M01/M10 A3014 RMK AO2 SLP245 T10111100 $
KGUS 251656Z AUTO 25017G27KT 10SM BKN024 OVC030 03/00 A2999 RMK AO2 PK WND 26027/19 SLP163 T00341001 RVRNO $
KGUY 251653Z AUTO 36006KT 10SM CLR 04/M05 A2997 RMK AO2 SLP156 T00391050
KGVE 251735Z AUTO 25006KT 10SM OVC003 11/11 A2995 RMK AO1 T01120112
KGVL 251653Z AUTO 18004KT 10SM -RA FEW065 OVC095 16/15 A3015 RMK AO2 RAE1554B10 SLP199 P0000 T01610150 $
KGVT 251730Z AUTO 14009KT 10SM CLR 16/10 A3007 RMK AO2
KGWB 251735Z AUTO 24013G20KT 10SM BKN027 OVC032 03/M02 A2997 RMK AO2
KGWO 251709Z AUTO 21005KT 10SM FEW009 OVC018 13/12 A3013 RMK AO2 T01280117
KGWR 251735Z AUTO 26014KT 10SM M03/M07 A2969 RMK A01
KGWW 251735Z AUTO 24013G17KT 10SM SCT047 SCT055 26/16 A3006 RMK AO2 T02610160
KGXA 251655Z AUTO 06006KT 10SM CLR 07/M11 A3026 RMK AO2 PK WND 05043/1604 SLP250 WND DATA ESTMD T00691112
KGXF 251658Z AUTO 03006KT 10SM CLR 09/M09 A3024 RMK AO2 SLP240 T00921088
KGXY 251656Z AUTO 26005KT 10SM CLR 00/M11 A2994 RMK AO2 SLP180 T00001111 FZRANO
KGYB 251735Z AUTO 06010KT 10SM SCT024 OVC029 14/10 A3003 RMK AO2 T01410101
KGYH 251747Z 22006KT 10SM OVC090 18/16 A3011
KGYI 251735Z AUTO 15010KT 10SM CLR 15/05 A3007 RMK AO2 T01510051
KGYL 251735Z AUTO 24008KT 10SM OVC026 M05/M09 A2976 RMK AO2 T10521089
KGYR 251747Z 00000KT 10SM SKC 12/M08 A3025
KGYY 251745Z 25020G30KT 15SM FEW032 06/M05 A2996
KGZH 251653Z AUTO 34005KT 10SM -RA OVC044 16/14 A3020 RMK AO2 RAE29B49 SLP224 P0000 T01610139
KGZL 251735Z AUTO 11007KT 10SM CLR 12/00 A3010 RMK AO2
KGZN 251720Z AUTO 14012KT 10SM CLR 15/06 A3005 RMK AO2
KGZS 251735Z AUTO 33004KT 10SM CLR 12/09 A3011 RMK A01
KH78 251453Z 20015KT 12SM SCT040 25/24 A3012 RMK SEAS 5-7
KHAE 251715Z AUTO 23007KT 10SM CLR 07/M04 A3008 RMK AO2
KHAF 251735Z AUTO 31008KT 9SM CLR 11/03 A3033 RMK AO2
KHAI 251735Z AUTO 24016G24KT 10SM OVC033 05/M02 A2992 RMK AO2 T00451023
KHAO 251653Z AUTO 26011G17KT 10SM CLR 08/00 A3006 RMK AO2 SLP180 T00830000
KHBG 251653Z AUTO 11007KT 10SM OVC005 14/14 A3016 RMK AO2 SLP210 T01440144
KHBI 251735Z AUTO 18005KT 10SM -RA OVC070 17/16 A3010 RMK AO2 P0001 T01670158
KHBR 251653Z AUTO 19011KT 10SM CLR 10/04 A3004 RMK AO2 SLP175 T01000044
KHBV 251735Z AUTO 33008KT 10SM BKN014 BKN020 OVC033 23/20 A2996 RMK AO2 T02290197
KHCD 251735Z AUTO 25014KT 10SM OVC025 M05/M08 A2975 RMK AO2 T10481081
KHCO 251735Z AUTO 28007KT 10SM BKN046 OVC055 M07/M09 A2956 RMK AO2
KHCR 251735Z AUTO 33003KT 10SM CLR M06/M10 A3014 RMK AO2
KHDC 251735Z AUTO 10006KT 10SM SCT039 BKN050 OVC095 19/16 A3008 RMK AO2
KHDE 251735Z AUTO 26014G19KT 10SM CLR 06/M09 A2997 RMK AO2 T00601092
KHDN 251656Z AUTO 33004KT 10SM CLR M08/M13 A3003 RMK AO2 SNB04E27 SLP230 P0000 T10781128 FZRANO
KHDO 251651Z AUTO 05009KT 10SM SCT036 BKN070 20/10 A3001 RMK AO2 SLP150 T02000100
KHEF 251656Z 32007KT 10SM -RA OVC004 10/10 A2996 RMK AO2 PRESRR SLP158 T01000100 PNO $
KHEI 251653Z AUTO 27011KT 10SM CLR M07/M12 A2970 RMK AO2 SLP105 T10721117
KHEQ 251730Z AUTO 29024G34KT 10SM CLR 05/M13 A2993 RMK AO2
KHEY 251747Z AUTO 36012G19KT 1SM -DZ BR BKN034 OVC044 18/16 A3015 RMK AO2 RAB11E46DZB46 SLP210 RVRNO
KHEZ 251656Z AUTO 07008KT 9SM RA BKN006 OVC016 12/11 A3008 RMK AO2 SLP189 P0004 T01170111
KHFD 251653Z 36006KT 4SM -RA BR OVC015 05/04 A3008 RMK AO2 SLP184 P0008 T00500039
KHFF 251723Z AUTO 27011KT 10SM BKN042 26/15 A3007 RMK AO2 WSHFT 13 SLP196 $
KHFJ 251735Z AUTO 23003KT 10SM CLR 08/M01 A3011 RMK AO2
KHFY 251735Z AUTO 26012G18KT 10SM CLR 06/M43 A3006 RMK AO2 T00631430
KHGR 251713Z 18004KT 10SM OVC005 09/08 A2994 RMK AO2 T00940083
KHHF 251735Z AUTO 29011G15KT 10SM CLR 10/M10 A2999 RMK AO2 T01031103
KHHG 251735Z AUTO 25017G23KT 10SM OVC028 04/M02 A3000 RMK AO2 T00391022 TSNO
KHHR 251653Z 00000KT 10SM CLR 13/04 A3024 RMK AO2 SLP241 T01330039 $
KHHV 251740Z AUTO 15015KT 10SM CLR 25/22 A2998 RMK A01
KHHW 251735Z AUTO 11007KT 10SM CLR 12/06 A3009 RMK AO2 T01230058
KHIB 251653Z AUTO 27009G18KT 220V300 10SM BKN017 BKN022 OVC031 M04/M08 A2946 RMK AO2 UPB34E35 SLP997 P0000 T10441083
KHIE 251725Z AUTO 18015G26KT 3SM -SN OVC055 M01/M04 A3001 RMK AO2 PK WND 17026/1707 P0001 T10061044
KHIF 251658Z AUTO 24008KT 10SM CLR M05/M11 A3020 RMK AO2 SLP259 T10481110 FZRANO $
KHII 251730Z AUTO 34008KT 10SM CLR 12/M12 A3030 RMK AO2
KHIO 251653Z 20006KT 8SM -RA BKN010 BKN029 BKN038 07/05 A2997 RMK AO2 RAB1556 SLP149 P0000 T00670050
KHJH 251735Z AUTO 23010G14KT 10SM CLR 06/M03 A3002 RMK AO2 T00621027
KHJO 251653Z AUTO 00000KT 10SM CLR 07/03 A3037 RMK AO2 SLP287 T00720033
KHKA 251653Z AUTO 36007KT 10SM CLR 10/02 A3016 RMK AO2 SLP213 T01000022 $
KHKS 251653Z 08004KT 10SM -RA OVC110 12/10 A3013 RMK AO2 SLP197 P0000 T01220100
KHKY 251653Z 18004KT 10SM FEW004 OVC100 17/16 A3007 RMK AO2 RAE05 SLP163 P0000 T01720161 $
KHLC 251653Z AUTO 25006KT 10SM CLR 04/M08 A3002 RMK AO2 SLP185 T00441083
KHLG 251653Z 27006KT 10SM CLR 12/03 A2991 RMK AO2 SLP133 T01220033
KHLN 251653Z 14008KT 10SM OVC060 M02/M12 A2976 RMK AO2 SLP130 T10171117 $
KHLX 251735Z AUTO 21010KT 10SM OVC110 15/09 A3004 RMK AO2 T01500093
KHMN 251658Z AUTO 25008KT 10SM CLR 12/M14 A3014 RMK AO2 SLP183 T01211138 $
KHMP 251735Z AUTO 23003KT 10SM SCT004 SCT060 OVC070 18/16 A3018 RMK AO2 T01750163
KHMZ 251735Z AUTO 21004KT 10SM SCT032 BKN038 OVC048 09/08 A2990 RMK AO2 T00900075
KHNB 251656Z AUTO 25010KT 10SM CLR 07/01 A3011 RMK AO2 SLP198 T00720011
KHND 251656Z 08006KT 10SM CLR 06/M13 A3031 RMK AO2 SLP273 T00611133 PNO $
KHNZ 251735Z AUTO 20008KT 10SM CLR 20/12 A3003 RMK AO2 T01950115
KHOB 251650Z 23010G15KT 10SM SKC 14/M19 A3004
KHOE 251735Z AUTO 22008KT 10SM SCT036 OVC080 26/17 A3015 RMK AO2
KHON 251655Z AUTO 28011KT 10SM CLR M03/M07 A2981 RMK AO2 SLP115 T10331072 $
KHOP 251656Z AUTO 28004KT 10SM SCT200 09/03 A3013 RMK AO2 SLP205 T00910033
KHOT 251653Z AUTO 07005KT 10SM CLR 11/02 A3012 RMK AO2 SLP199 T01110022
KHOU 251653Z 04012KT 8SM -RA BKN005 OVC015 15/15 A3001 RMK AO2 SLP166 P0001 T01500150 $
KHPN 251656Z 09011G20KT 5SM -RA BR BKN005 04/03 A2998 RMK AO2 SLP157 P0006 T00440033
KHQG 251735Z AUTO 03003KT 10SM CLR 05/M11 A3000 RMK AO2 T00471113
KHQI 251735Z AUTO 15014G20KT 6SM HZ CLR A2999 RMK A01
KHQM 251653Z AUTO 27014KT 8SM SCT025 BKN039 OVC070 05/03 A2990 RMK AO2 PK WND 26035/1634 RAB08E46 SLP128 P0005 T00500028 $
KHQU 251735Z AUTO 32003KT 7SM -RA BR SCT035 SCT048 OVC055 17/16 A3022 RMK AO2 P0010 T01680160
KHQZ 251650Z 00000KT 10SM SCT100 13/09 A3010
KHRI 251653Z AUTO 22024G33KT 10SM CLR 08/M03 A2987 RMK AO2 PK WND 22033/1652 SLP116 T00831028
KHRJ 251735Z AUTO 26007KT 190V290 10SM SCT047 BKN055 OVC070 25/14 A3006 RMK AO2 T02520136
KHRL 251652Z 19015KT 10SM FEW018 BKN048 27/22 A2992 RMK AO2 SLP132 T02720222
KHRO 251653Z AUTO 15005KT 10SM CLR 08/00 A3012 RMK AO2 SLP204 T00780000 PNO $
KHRT 251730Z 33018G31KT 10SM BKN019 22/17 A3014 RMK AO2A CIG 019V024 BKN V SCT PRESRR SLP208 $
KHRX 251735Z AUTO 26016G23KT 10SM CLR 13/M15 A3000 RMK AO2 T01301146
KHSA 251649Z 04006KT 7SM -RA FEW015 OVC040 17/16 A3014
KHSB 251735Z AUTO 25005KT 10SM CLR 08/01 A3013 RMK AO2 T00830011
KHSD 251735Z AUTO 16010G15KT 10SM CLR 11/03 A3002 RMK A01
KHSE 251651Z AUTO 23012G19KT 9SM CLR 22/18 A3010 RMK AO2 SLP194 T02170183
KHSG 251730Z AUTO 04003KT 10SM CLR M01/M16 A2978 RMK AO2 T10101156
KHSI 251653Z AUTO 28014KT 10SM CLR 04/M08 A2997 RMK AO2 SLP167 T00391078
KHSP 251735Z AUTO 27017G22KT 10SM BKN013 BKN032 OVC100 11/09 A3001 RMK AO2 T01080085
KHST 251656Z AUTO 11008KT 10SM FEW027 27/20 A3018 RMK AO2 SLP223 T02740202
KHSV 251719Z 24007KT 10SM FEW008 SCT016 OVC033 14/13 A3014 RMK AO2 T01390133
KHTL 251711Z AUTO 24021G33KT 10SM BKN030 01/M06 A2965 RMK AO2 PK WND 25033/1705 T00061056
KHTO 251735Z AUTO 09015G23KT 7SM -RA OVC006 05/04 A2996 RMK AO2 P0002 T00450040
KHTS 251651Z 27006KT 10SM CLR 14/08 A3001 RMK AO2 SLP158 T01390078
KHUA 251743Z AUTO 23006KT 10SM FEW008 SCT013 SCT028 OVC120 13/12 A3008 RMK AO2 PRESFR SLP184
KHUF 251653Z 22014KT 10SM CLR 06/00 A3009 RMK AO2 SLP188 T00610000
KHUL 251653Z AUTO 16005KT 10SM CLR M06/M13 A3029 RMK AO2 SLP268 T10561128
KHUM 251655Z 36008KT 7SM SCT008 BKN020 18/18 A3010
KHUT 251652Z 15005KT 10SM BKN070 04/M04 A3006 RMK AO2 SLP183 T00441039 $
KHVE 251740Z AUTO 30011G20KT 10SM CLR 02/M16 A3021 RMK AO2
KHVN 251715Z 07010KT 3SM RA BR OVC011 06/04 A3002 RMK AO2 WSHFT 1655 P0004 T00610044
KHVR 251653Z AUTO 22025KT 9SM CLR M05/M08 A2955 RMK AO2 PK WND 22029/1627 SLP045 T10501083
KHVS 251735Z AUTO 24010G15KT 10SM SCT040 BKN047 BKN055 25/15 A3008 RMK AO2
KHWD 251654Z 00000KT 10SM CLR 08/02 A3036 RMK AO2 SLP292 T00830022
KHWO 251653Z 12012G18KT 10SM SCT034 SCT043 BKN050 28/20 A3020 RMK AO2 SLP226 T02830200
KHWV 251656Z AUTO 10008G16KT 9SM -RA OVC006 06/06 A2997 RMK AO2 SLP147 P0007 T00610061 $
KHWY 251735Z AUTO 00000KT 10SM OVC005 12/10 A2996 RMK AO2 T01170100
KHXD 251650Z 19010KT 10SM SKC 25/19 A3016
KHYA 251706Z A3010 RMK AO2 RAE00 PNO $
KHYI 251656Z 03014KT 6SM -RA OVC032 15/12 A3004 RMK AO2 TSB38E46RAB46 SLP168 P0002 T01500117 $
KHYR 251718Z AUTO 24008G19KT 10SM OVC015 M05/M08 A2958 RMK AO2 T10501078
KHYS 251656Z AUTO 22006KT 10SM CLR 04/M11 A3003 RMK AO2 SLP189 T00441106
KHYW 251735Z AUTO 23010G17KT 7SM BKN047 BKN050 BKN070 27/16 A3008 RMK AO2
KHYX 251735Z AUTO 24026G34KT 10SM SCT036 SCT042 04/M02 A2975 RMK AO2
KHZL 251735Z AUTO 11007KT 080V140 3/4SM BR OVC003 05/05 A2992 RMK AO2
KHZR 251735Z AUTO 11009KT 7SM SCT007 OVC034 19/18 A3005 RMK AO2 LTG DSNT W T01900175
KHZX 251735Z AUTO 26008G21KT 5SM OVC021 M03/M08 A2957 RMK AO2
KHZY 251653Z AUTO 26018G23KT 10SM CLR 10/01 A2985 RMK AO2 SLP111 T01000011 $
KI19 251735Z AUTO 26010G18KT 10SM CLR 08/03 A3003 RMK AO2 T00810026
KI23 251735Z AUTO 26014KT 10SM CLR 08/03 A3001 RMK AO1
KI35 251735Z AUTO 22006KT 10SM SCT026 SCT110 13/08 A3008 RMK AO1
KI63 251735Z AUTO 21007KT 210V270 10SM CLR 05/M04 A3006 RMK AO2 T00481041
KI67 251735Z AUTO 26009G15KT 10SM CLR 07/M01 A3005 RMK AO1
KI68 251735Z AUTO 26011G19KT 10SM CLR 07/01 A3004 RMK AO2
KI69 251735Z AUTO 23010KT 10SM CLR 09/03 A3006 RMK AO2 T00880033
KI75 251735Z AUTO 22016KT 7SM CLR 05/M02 A2998 RMK AO2 T00501016
KIAB 251656Z AUTO 12005KT 10SM CLR 07/M04 A3006 RMK AO2 SLP190 T00691042
KIAD 251652Z 29008KT 2SM -RA OVC005 09/09 A2996 RMK AO2 SFC VIS 8 PRESRR SLP146 P0001 T00940094
KIAG 251653Z 23023G34KT 10SM CLR 08/02 A2974 RMK AO2 PK WND 23034/1647 SLP081 T00830022
KIAH 251653Z 04007KT 10SM SCT007 OVC020 14/13 A3002 RMK AO2 LTG DSNT N RAE49 SLP166 P0005 T01440133 $
KIBM 251735Z AUTO 28019G23KT 10SM CLR M01/M10 A2988 RMK AO2 T10061098
KICL 251735Z AUTO 26010KT 10SM CLR 05/01 A3004 RMK AO2
KICR 251653Z AUTO 21011KT 10SM CLR M03/M11 A2987 RMK AO2 SLP141 T10331106
KICT 251653Z 13006KT 10SM FEW150 FEW220 07/M05 A3006 RMK AO2 SLP186 T00721050 $
KIDA 251653Z 21022G32KT 10SM SCT019 BKN023 M07/M11 A3006 RMK AO2 PK WND 20032/1650 SLP224 T10671106
KIDI 251735Z AUTO 26009G14KT 10SM BKN050 OVC055 14/10 A2990 RMK A01
KIDP 251735Z AUTO 17006KT 10SM CLR 08/01 A3010 RMK AO2 T00840009
KIEN 251652Z AUTO CLR A2985 RMK AO2 SLPNO PWINO FZRANO $
KIER 251735Z AUTO 36004KT 10SM DZ SCT060 SCT075 OVC110 12/09 A3012 RMK AO2 LTG DSNT W P0001 T01150091
KIFA 251735Z AUTO 24022G25KT 10SM CLR 00/M06 A2990 RMK AO2 T10051056
KIFP 251735Z 35014KT 10SM CLR 12/M14 A3031 RMK AO2
KIGM 251651Z AUTO 01005KT 10SM CLR 04/M12 A3026 RMK AO2 SLP231 T00441117
KIGQ 251735Z AUTO 26020G27KT 10SM CLR 04/M03 A2996 RMK AO2 T00441031
KIGX 251656Z AUTO VRB03KT 9SM -RA OVC065 19/16 A3009 RMK AO2 RAB21 SLP185 P0000 T01940156
KIIB 251735Z AUTO 27014KT 10SM CLR 00/M04 A2988 RMK AO2 T00011043
KIIY 251735Z AUTO 00000KT 10SM CLR 17/16 A3015 RMK AO2 TSNO
KIJD 251652Z AUTO 08005KT 4SM -RA BR OVC011 05/03 A3007 RMK AO2 PRESFR SLP182 P0008 T00500033 TSNO
KIJX 251735Z AUTO 23011KT 10SM CLR 05/M03 A3008 RMK AO2 T00521030
KIKG 251735Z AUTO 00000KT 4SM DZ BKN010 OVC014 24/24 A2995 RMK AO2 T02380236
KIKK 251735Z AUTO 26015KT 10SM BKN028 05/M01 A3001 RMK AO2 T00461014
KIKV 251735Z AUTO 26012G18KT 10SM CLR 02/M04 A2997 RMK AO2
KIKW 251735Z AUTO 24023G30KT 10SM OVC035 05/M03 A2972 RMK AO2 T00471027
KILE 251656Z AUTO 11004KT 10SM SCT016 OVC095 13/09 A3007 RMK AO2 LTG DSNT SE AND S SLP200 T01330094
KILG 251651Z 08008KT 10SM -RA OVC006 09/08 A2995 RMK AO2 RAE08B33 CIG 005V010 SLP142 P0000 T00890078 $
KILM 251653Z 23015G22KT 10SM CLR 27/17 A3009 RMK AO2 SLP190 T02670172
KILN 251654Z AUTO 24015KT 10SM CLR 08/04 A3001 RMK AO2 SLP169 T00830039
KIML 251653Z AUTO 27009KT 10SM CLR 03/M09 A2994 RMK AO2 SLP161 T00331094
KIMM 251735Z AUTO 14010KT 10SM FEW048 FEW060 SCT080 30/18 A3016 RMK AO2
KIMS 251735Z AUTO 24006KT 10SM CLR 07/01 A3010 RMK AO1
KIMT 251654Z AUTO 26017G24KT 7SM BKN024 M03/M08 A2948 RMK AO2 PK WND 24031/1644 UPE00B20E51 SLP000 P0000 T10331083
KIND 251654Z 25017G23KT 10SM FEW025 BKN250 06/00 A3005 RMK AO2 SLP179 T00610000
KINF 251735Z AUTO 21004KT 10SM SCT049 BKN055 BKN070 27/17 A3016 RMK AO2
KINJ 251735Z AUTO 14013KT 10SM CLR 16/10 A3004 RMK AO2 T01590103
KINK 251653Z AUTO 25020KT 10SM CLR 18/M14 A3004 RMK AO2 PK WND 23029/1635 WSHFT 1627 SLP157 T01781144
KINL 251655Z AUTO 28012G20KT 4SM BR OVC013 M05/M07 A2941 RMK AO2 SNB23E51 SLP981 P0000 T10501072
KINS 251658Z AUTO 00000KT 10SM CLR 03/M12 A3029 RMK AO2 SLP259 T00281123 $
KINT 251654Z 19005KT 10SM OVC095 17/14 A3007 RMK AO2 SLP173 T01720144
KINW 251656Z AUTO 02004KT 10SM CLR 02/M12 A3022 RMK AO2 SLP239 T00221122 $
KIOB 251735Z AUTO 29009KT 10SM CLR 10/03 A3008 RMK AO2
KIOW 251652Z AUTO 23011G19KT 10SM CLR 04/M05 A2995 RMK AO2 SLP147 T00391050
KIPJ 251745Z AUTO 23007KT 10SM SCT007 SCT085 18/17 A3008 RMK AO2 P0001 T01800166
KIPL 251653Z AUTO 00000KT 10SM CLR 13/M05 A3028 RMK AO2 SLP254 T01281050
KIPT 251654Z 12006KT 10SM OVC014 08/05 A2990 RMK AO2 SLP127 T00780050
KIRK 251655Z AUTO 25006KT 10SM CLR 04/M03 A3004 RMK AO2 SLP182 T00441033
KIRS 251735Z AUTO 24018G24KT 10SM OVC027 04/M01 A2992 RMK AO2 T00411015
KISM 251656Z 22005KT 10SM BKN034 BKN043 27/19 A3019 RMK AO2 SLP225 T02720189
KISN 251652Z AUTO 21009KT 10SM CLR M09/M13 A2965 RMK AO2 SLP075 T10891133
KISO 251656Z 25011G16KT 10SM SCT045 27/14 A3007 RMK AO2
KISP 251656Z 08013G21KT 8SM -RA OVC007 06/06 A2997 RMK AO2 PK WND 10027/1557 SLP148 P0007 T00610056
KISQ 251735Z AUTO 22011G21KT 10SM OVC017 M03/M04 A2951 RMK AO2 T10281038
KISW 251654Z AUTO 10SM BKN017 OVC022 M04/M08 A2971 RMK AO2 SLP075 T10391078 $
KITH 251656Z 14015G22KT 10SM OVC012 07/04 A2983 RMK AO2 SLP110 T00670044
KITR 251653Z AUTO 22013KT 10SM CLR 03/M09 A2997 RMK AO2 SLP171 T00281094
KIWA 251550Z 11005KT 45SM SKC 06/M05 A3024
KIWD 251745Z AUTO 25020G27KT 4SM -SN OVC017 M04/M08 A2950 RMK AO2 PK WND 25031/1730 SNE01B21 P0000 FZRANO
KIWI 251653Z AUTO 10006KT 1/4SM SN FG VV007 00/M01 A3026 RMK AO2 SNB1555 SLP248 P0005 T00001006
KIXA 251740Z AUTO 00000KT 10SM SCT047 OVC060 19/14 A3004 RMK AO2
KIXD 251653Z 20010KT 10SM CLR 06/M02 A3009 RMK AO2 SLP195 T00561022
KIYA 251735Z AUTO 12009G16KT 080V150 10SM BKN021 25/20 A3003 RMK AO2 LTG DSNT NW T02460195
KIZA 251735Z AUTO 00000KT 10SM CLR 08/00 A3025 RMK AO2
KIZG 251737Z AUTO 02004KT 1/4SM SN FZFG VV009 M03/M03 A3019 RMK AO2 P0004 T10281033
KJAC 251738Z 20013G21KT 9SM BR BKN026 OVC032 M08/M13 A2997 RMK AO2 SNB1659E35 P0000
KJAN 251654Z 32003KT 10SM FEW080 SCT095 OVC110 12/10 A3014 RMK AO2 RAB1558E12B38E53 SLP204 P0000 T01220100
KJAQ 251735Z AUTO 33006KT 10SM CLR 09/M04 A3030 RMK AO1 T00871039
KJAS 251735Z AUTO 01003KT 2 1/2SM +RA BKN007 BKN026 OVC036 13/13 A3011 RMK AO2 VIS 2V4 P0035 T01320128
KJAU 251735Z AUTO 00000KT 10SM FEW034 FEW040 14/12 A3013 RMK A01
KJAX 251656Z 22011KT 10SM SCT035 SCT045 BKN100 29/18 A3016 RMK AO2 SLP212 T02890183
KJBR 251653Z AUTO 06006KT 10SM CLR 09/01 A3015 RMK AO2 SLP210 T00940011
KJCA 251735Z AUTO 21003KT 10SM SCT070 OVC090 18/16 A3013 RMK AO2
KJCT 251651Z AUTO 10006KT 10SM FEW075 17/04 A3004 RMK AO2 SLP151 T01670039 TSNO
KJDD 251735Z AUTO 12005KT 10SM CLR 14/10 A3007 RMK AO2 LTG DSNT SE
KJDN 251648Z AUTO 27008KT M07/M12 A2964 RMK AO1 SLP085 T10671122
KJEF 251653Z 25004KT 10SM CLR 06/M04 A3013 RMK AO2 SLP194 T00561039 $
KJER 251653Z AUTO 17005KT 10SM CLR M05/M10 A3013 RMK AO2 SLP243 T10501100 TSNO
KJES 251740Z AUTO 24009G16KT 10SM SCT043 SCT049 SCT065 29/16 A3014 RMK AO2
KJFK 251651Z 04010KT 4SM -RA BR OVC008 07/06 A3000 RMK AO2 SLP160 P0017 T00670061
KJFX 251735Z AUTO 10SM FEW007 12/12 A3011 RMK AO2 PWINO
KJFZ 251735Z AUTO 26012G18KT 10SM BKN016 BKN060 OVC110 12/09 A3007 RMK AO2 T01200091
KJGG 251735Z AUTO 28008G14KT 10SM SCT100 24/16 A2998 RMK AO1
KJHN 251735Z AUTO 31004KT 10SM OVC110 02/M12 A3001 RMK AO2 T00211117
KJHW 251656Z AUTO 10SM RMK AO2 SLPNO FZRANO $
KJKA 251735Z AUTO 36010G21KT 310V030 10SM -DZ SCT017 OVC035 17/16 A3016 RMK AO2 T01710161
KJKJ 251735Z AUTO 28013KT 10SM SCT017 BKN055 M03/M07 A2966 RMK AO2
KJKL 251653Z AUTO 25004KT 10SM FEW048 12/07 A3007 RMK AO2 SLP176 T01170072 $
KJLN 251653Z 17006KT 10SM CLR 07/00 A3013 RMK AO2 SLP207 T00720000
KJMS 251656Z AUTO 28015G25KT 10SM CLR M04/M08 A2963 RMK AO2 SLP058 T10441083
KJNX 251740Z AUTO 26006G14KT 10SM BKN055 BKN065 26/13 A3005 RMK AO2
KJOT 251735Z AUTO 24014G20KT 10SM CLR 05/M03 A2997 RMK AO2 T00501034
KJQF 251658Z 00000KT 2SM BR SCT009 BKN022 18/16 A3014
KJRB 251735Z 03011KT 9SM 05/04 RMK AO2 P0999 PWINO FZRANO RVRNO
KJSO 251735Z AUTO 10012G18KT 10SM SCT009 SCT038 BKN110 11/10 A3005 RMK AO2 LTG DSNT E T01110106
KJST 251732Z AUTO 27015G24KT 10SM SCT009 SCT017 OVC027 11/08 A2988 RMK AO2 PK WND 26027/1702 RAB02E22 P0000 T01110083
KJSV 251735Z AUTO 13010G15KT 10SM CLR 12/10 A3011 RMK AO2
KJVL 251645Z 25015G22KT 10SM SKC 01/M05 A2985
KJVW 251735Z AUTO 12005KT 9SM CLR 13/10 A3010 RMK AO2
KJWG 251735Z AUTO 19014KT 10SM CLR 11/05 A3002 RMK AO2 T01050047
KJWN 251735Z AUTO 30003KT 10SM CLR 11/06 A3011 RMK A01
KJXI 251735Z AUTO 11009KT 10SM OVC003 14/11 A3008 RMK AO2 LTG DSNT SE T01370112
KJXN 251726Z 24020G29KT 10SM SCT028 04/M03 A2985 RMK AO2 PK WND 25029/1722 T00391028
KJYG 251735Z AUTO 25016G22KT 10SM CLR M05/M09 A2982 RMK AO2
KJYL 251735Z AUTO 25007KT 10SM BKN021 BKN027 BKN032 24/20 A3014 RMK AO2 T02430197
KJYM 251735Z AUTO 23014G21KT 10SM OVC026 03/M02 A2989 RMK AO2
KJYO 251735Z AUTO 00000KT 10SM OVC006 08/08 A2998 RMK AO2
KJYR 251735Z AUTO 26007KT 10SM CLR 02/M03 A2998 RMK AO2
KJZI 251735Z AUTO 20014KT 10SM FEW039 FEW060 SCT075 25/18 A3013 RMK AO2
KJZP 251735Z AUTO 00000KT 10SM -DZ SCT011 SCT046 OVC085 14/13 A3018 RMK AO2 T01400130 PNO
KK88 251735Z AUTO 00000KT 10SM 07/M03 A3011 RMK AO1 T00651028
KKLS 251656Z AUTO 30013G18KT 8SM RA FEW010 SCT017 OVC026 05/04 A2998 RMK AO2 SLP157 P0005 T00500039
KKY8 251735Z AUTO 24006KT 10SM CLR 08/01 A3013 RMK AO1
KL18 251735Z AUTO 03006KT 10SM CLR 13/M04 A3021 RMK AO2
KL35 251735Z AUTO 08005KT 10SM 01/M15 A3021 RMK AO2
KLAA 251653Z AUTO 23008KT 10SM CLR 02/M13 A2999 RMK AO2 SLP176 T00171128
KLAF 251654Z 25010G20KT 10SM BKN028 OVC033 04/M02 A3003 RMK AO2 SLP170 T00391017
KLAL 251650Z 19007G16KT 10SM SCT032 26/18 A3019
KLAM 251735Z AUTO 32012G20KT 10SM CLR M01/M15 A3004 RMK AO2 T10131146
KLAN 251653Z 24020G30KT 10SM FEW034 04/M03 A2982 RMK AO2 PK WND 24035/1555 SLP103 T00391033
KLAR 251653Z AUTO 26022KT 10SM BKN033 M08/M14 A2980 RMK AO2 PK WND 25028/1640 UPB03E25SNB02E03 SLP142 P0000 T10831139
KLAS 251656Z 08004KT 10SM CLR 07/M12 A3029 RMK AO2 SLP260 T00721122
KLAW 251653Z 17009KT 10SM CLR 11/06 A3006 RMK AO2 SLP183 T01060056 $
KLAX 251653Z 00000KT 10SM FEW021 FEW300 13/04 A3024 RMK AO2 SLP238 T01330044
KLBB 251653Z 23014KT 10SM CLR 12/M14 A3000 RMK AO2 SLP147 T01221144
KLBE 251650Z 27010G20KT 8SM BKN035 11/07 A2991
KLBF 251653Z AUTO 27009KT 10SM CLR 00/M09 A2994 RMK AO2 SLP172 T00001089
KLBL 251656Z AUTO VRB04KT 10SM CLR 04/M07 A2999 RMK AO2 SLP174 T00391072
KLBO 251755Z AUTO 00000KT 10SM CLR 08/M05 A3011 RMK AO2
KLBT 251654Z AUTO 23017G21KT 10SM SCT045 BKN060 26/16 A3007 RMK AO2 SLP182 T02610156
KLBX 251653Z AUTO 18012KT 10SM SCT017 OVC025 24/21 A2998 RMK AO2 SLP152 T02440211
KLCG 251735Z AUTO 27010G15KT 10SM CLR 00/M09 A2994 RMK AO2 T10021091
KLCH 251653Z 06010KT 10SM BKN006 OVC019 17/16 A3004 RMK AO2 SLP179 T01720161
KLCI 251734Z AUTO 06008KT 1/2SM -SN FZFG BKN007 OVC013 M01/M03 A3014 RMK AO2 CIG 004V010 P0002 FZRANO
KLCK 251735Z AUTO 24015G21KT 10SM CLR 09/03 A3001 RMK AO2 T00880029
KLCQ 251735Z AUTO 23007G15KT 10SM OVC041 26/16 A3016 RMK AO2
KLDJ 251755Z AUTO 00000KT 4SM -DZ OVC006 06/04 A2996 RMK AO2 P0001 60029 T00560043 10067 20055
KLDM 251735Z AUTO 24017G29KT 10SM BKN028 BKN034 01/M04 A2975 RMK AO2 T00111036
KLEB 251653Z 16004KT 3SM -RA BKN018 OVC024 01/M02 A3010 RMK AO2 UPE27RAB44SNB27E44 SLP201 P0005 T00111017
KLEE 251653Z 20007KT 10SM CLR 28/18 A3018 RMK AO2 SLP220 T02780183
KLEW 251743Z AUTO 08003KT 1/2SM SN FZFG SCT006 OVC011 M01/M03 A3020 RMK AO2 P0001 FZRANO
KLEX 251654Z 25008KT 10SM FEW021 09/04 A3009 RMK AO2 SLP187 T00940044
KLFI 251656Z AUTO 26021G29KT 9SM FEW042 SCT050 25/16 A2999 RMK AO2 PK WND 25032/39 SLP162 T02470164
KLFK 251653Z AUTO 27010G21KT 6SM RA BR FEW041 SCT080 OVC100 11/10 A3008 RMK AO2 LTG DSNT SE AND SW SLP183 P0017 T01110100
KLFT 251715Z VRB04KT 10SM FEW025 22/17 A3003 RMK AO2 T02170172
KLGA 251729Z 06016KT 3SM -RA BR FEW002 BKN004 OVC012 04/03 A2993 RMK AO2 PK WND 07026/1708 PRESFR P0001 T00440033
KLGB 251653Z 00000KT 10SM CLR 13/01 A3024 RMK AO2 SLP239 T01280011 $
KLGC 251735Z AUTO 00000KT 10SM BKN065 OVC075 18/15 A3017 RMK AO2 T01800154
KLGD 251656Z AUTO 17015G22KT 10SM OVC049 M01/M05 A2997 RMK AO2 UPB13E18SNE13 SLP287 P0000 T10061050 FZRANO
KLGU 251651Z AUTO 09003KT 10SM FEW041 M03/M09 A3018 RMK AO2 SLP247 T10281094
KLHB 251735Z AUTO 08006KT 10SM OVC060 15/09 A3006 RMK AO2 LTG DSNT NW T01460091
KLHM 251735Z AUTO 35003KT 10SM CLR 07/00 A3032 RMK AO1
KLHQ 251653Z AUTO 26010KT 10SM CLR 09/04 A3000 RMK AO2 SLP158 T00890039 $
KLHW 251656Z AUTO 23011KT 10SM FEW090 27/17 A3013 RMK AO2 SLP206 T02700169 $
KLHX 251653Z AUTO 29008KT 10SM CLR 01/M13 A3000 RMK AO2 SLP176 T00061128
KLHZ 251735Z AUTO 27007KT 10SM BKN055 BKN080 OVC085 21/12 A3009 RMK AO2
KLIC 251655Z AUTO 31012KT 10SM CLR 01/M16 A2993 RMK AO2 SLP166 T00111161
KLIT 251653Z 09007KT 10SM FEW100 BKN130 BKN250 10/01 A3016 RMK AO2 SLP215 T01000006 $
KLJF 251735Z AUTO 26008G15KT 10SM OVC023 M04/M08 A2974 RMK AO2
KLKR 251735Z AUTO 25009KT 10SM FEW026 BKN032 OVC043 22/16 A3010 RMK AO2
KLKU 251735Z AUTO 19007KT 160V220 10SM BKN004 BKN120 12/12 A2995 RMK AO2 T01210115
KLKV 251656Z AUTO 18011KT 9SM -SN OVC037 M03/M07 A3016 RMK AO2 SLP261 T10331067 FZRANO PNO $
KLLJ 251655Z AUTO 16012KT 10SM FEW047 BKN100 BKN110 M02/M14 A2991 RMK AO2 SLP158 T10171139
KLLQ 251653Z AUTO 08008KT 10SM CLR 13/08 A3011 RMK AO2 SLP197 T01280078
KLMO 251735Z AUTO 31004G19KT 10SM CLR 04/M15 A2991 RMK AO2 T00371152
KLMT 251653Z 18005KT 10SM OVC036 M02/M06 A3018 RMK AO2 SLP244 T10221056
KLNA 251735Z AUTO 14007KT 10SM SCT028 SCT035 27/19 A3018 RMK AO2 T02670194
KLNC 251735Z AUTO 11007KT 10SM CLR 14/09 A3007 RMK AO2 T01420089
KLND 251653Z AUTO 00000KT 10SM CLR M08/M15 A2980 RMK AO2 SLP139 T10781150
KLNK 251654Z 24009KT 10SM CLR 02/M04 A3001 RMK AO2 SLP174 T00171039
KLNL 251735Z AUTO 25010G19KT 5SM BR OVC013 M05/M08 A2949 RMK AO2 T10551079
KLNN 251735Z AUTO 28018G26KT 10SM CLR 05/01 A2989 RMK AO1 T00450011
KLNP 251735Z AUTO 23005KT 10SM OVC110 11/08 A3008 RMK AO2
KLNR 251656Z AUTO 25012G24KT 10SM CLR M01/M07 A2981 RMK AO2 SLP098 T10061067
KLNS 251653Z 32003KT 10SM OVC009 08/06 A2998 RMK AO2 RAE51 PRESRR SLP152 P0001 T00780061
KLOL 251653Z AUTO 11003KT 10SM CLR M04/M08 A3029 RMK AO2 SLP290 T10391078
KLOM 251735Z AUTO 00000KT 10SM OVC006 06/06 A2996 RMK AO1
KLOR 251745Z AUTO 36012G19KT 1 1/4SM -RA BR FEW007 BKN036 OVC045 18/16 A3016 RMK AO2 RAB05 SLP195
KLOT 251735Z AUTO 26017G22KT 10SM CLR 04/M02 A2995 RMK AO2 T00421020
KLOU 251653Z 26008KT 10SM CLR 08/02 A3011 RMK AO2 SLP197 T00780017
KLOZ 251653Z AUTO 27006KT 10SM SCT030 SCT044 12/07 A3008 RMK AO2 SLP181 T01170072
KLPC 251656Z AUTO 00000KT 10SM CLR 09/01 A3028 RMK AO2 SLP259 T00890011
KLPR 251653Z AUTO 28018G24KT 10SM CLR 07/01 A2990 RMK AO2 PK WND 26031/1607 SLP129 T00720006
KLQK 251735Z AUTO 22006KT 10SM SCT009 OVC095 18/18 RMK AO2 T01810181
KLRD 251735Z 35006KT 10SM OVC010 20/17 A2998 RMK AO2
KLRF 251712Z AUTO 03005KT 10SM FEW190 11/02 A3013 RMK AO2 RAB11E12 SLP206
KLRJ 251735Z AUTO 24007KT 10SM CLR M01/M08 A2992 RMK AO2
KLRO 251735Z AUTO 20011KT 10SM CLR 27/18 A3012 RMK AO2
KLRU 251735Z AUTO 25004G15KT 10SM CLR 11/M15 A3014 RMK AO2 T01061147
KLRY 251735Z AUTO 23007KT 10SM CLR 07/M01 A3013 RMK AO2
KLSE 251653Z 25008KT 210V280 10SM CLR M02/M08 A2978 RMK AO2 SLP097 T10221078 $
KLSF 251731Z AUTO 33010G17KT 8SM -RA SCT002 SCT017 OVC035 17/17 A3018 RMK AO2 SLP224
KLSV 251658Z AUTO 04011KT 10SM CLR 08/M12 A3030 RMK AO2 SLP262 T00761122 $
KLTS 251656Z AUTO 17008KT 10SM CLR M A3005 RMK AO2 SLPNO ALSTG ESTMD $
KLUA 251735Z AUTO 29004KT 10SM BKN110 14/13 A2993 RMK AO2
KLUD 251735Z AUTO 14011G18KT 10SM CLR 15/05 A3005 RMK AO2 T01450051
KLUF 251658Z AUTO 03003KT 10SM CLR 10/M08 A3023 RMK AO2 SLP238 T00991078 $
KLUK 251653Z 25011KT 10SM CLR 09/03 A3006 RMK AO2 SLP181 T00940033
KLUL 251755Z AUTO 13006KT 13/13 A3013 RMK AO2 T01330133
KLUM 251735Z AUTO 23015KT 10SM CLR M04/M10 A2972 RMK AO2 T10411097
KLUX 251735Z AUTO 21004KT 10SM SCT048 OVC065 16/15 A3011 RMK AO2
KLVJ 251721Z AUTO 04009KT 5SM BR OVC005 16/16 A3001 RMK AO2 RAE13 P0000 T01610161
KLVK 251653Z 00000KT 10SM CLR 05/03 A3036 RMK AO2 SLP281 T00500028
KLVL 251735Z AUTO 21006KT 10SM OVC085 19/13 A3002 RMK AO1 T01930129
KLVM 251653Z AUTO 22036G51KT 10SM SCT120 M03/M11 A2971 RMK AO2 PK WND 22052/1625 SLP100 T10281111 TSNO $
KLVN 251735Z AUTO 26012G19KT 10SM BKN027 M06/M10 A2976 RMK AO2
KLVS 251653Z AUTO 30019G27KT 10SM FEW070 M01/M15 A2996 RMK AO2 PK WND 29027/1639 SLP145 T10061150
KLWA 251735Z AUTO 23017G27KT 10SM CLR 04/M02 A2990 RMK AO2 T00411023
KLWB 251735Z AUTO 25010G15KT 10SM BKN041 BKN120 14/08 A3002 RMK AO2 T01370083
KLWC 251652Z AUTO 21005KT 10SM CLR 06/M03 A3009 RMK AO2 SLP194 T00561028 $
KLWD 251653Z AUTO 23012KT 10SM CLR 04/M03 A2999 RMK AO2 SLP167 T00391033
KLWM 251654Z 11009KT 5SM -RA BKN014 OVC032 04/02 A3018 RMK AO2 SLP222 P0004 T00440017
KLWS 251656Z 19023G30KT 10SM OVC060 04/M03 A2986 RMK AO2 PK WND 19030/1656 SLP124 T00391028
KLWT 251654Z AUTO 24021KT 10SM SCT075 M04/M09 A2958 RMK AO2 PK WND 24028/1600 SLP065 T10441094
KLWV 251653Z AUTO 24012KT 10SM CLR 07/00 A3011 RMK AO2 SLP196 T00720000
KLXL 251735Z AUTO 27010G18KT 3SM HZ OVC024 M06/M12 A2967 RMK AO2
KLXN 251735Z AUTO 24010KT 10SM CLR 04/M07 A2996 RMK AO2 T00421066
KLXT 251653Z AUTO 20010KT 10SM CLR 06/M02 A3008 RMK AO2 SLP194 T00561022 $
KLXV 251741Z AUTO 31013G25KT 6SM UP SCT029 OVC038 M13/M19 A2988 RMK AO2 UPE1659B41SNB1659E36 P0000 T11281194
KLXY 251735Z AUTO 11010G18KT 10SM BKN100 OVC120 13/08 A3005 RMK AO2 T01270083
KLYH 251654Z 20008KT 10SM CLR 16/13 A2999 RMK AO2 RAB1558E16 SLP153 P0000 T01610133
KLYV 251735Z AUTO 29022KT 7SM CLR M04/M07 A2985 RMK AO2
KLZU 251656Z 21004KT 10SM OVC080 17/16 A3015 RMK AO2 RAE41 SLP215 P0001 T01670156
KLZZ 251735Z AUTO 11004KT 10SM CLR 16/09 A3005 RMK AO2 T01580088
KM04 251735Z AUTO 00000KT 10SM CLR 10/03 A3015 RMK A01
KM08 251735Z AUTO 08004KT 10SM CLR 11/04 A3012 RMK A01
KM19 251656Z AUTO 05004KT 10SM 09/01 A3017 RMK AO2 SLP223 T00890011 $
KM21 251735Z AUTO 21003KT 10SM CLR 09/01 A3013 RMK AO2 T00850005
KM25 251755Z AUTO 00000KT 10SM CLR 08/00 A3014 RMK AO2 PWINO
KM30 251735Z AUTO 25006KT 10SM CLR 09/01 A3014 RMK AO2 T00910011
KM33 251735Z AUTO 26004KT 10SM CLR 11/07 A3015 RMK A01
KM40 251735Z AUTO 23005KT 10SM FEW010 OVC017 13/14 A3013 RMK AO2
KM75 251735Z AUTO 26006KT 10SM CLR M09/M13 A2957 RMK A01
KM91 251735Z AUTO 00000KT 5SM HZ CLR 09/04 A3011 RMK A01
KMAE 251653Z AUTO 33004KT 10SM CLR 07/03 A3036 RMK AO2 SLP282 T00670028
KMAF 251653Z 26013KT 10SM CLR 17/M16 A3006 RMK AO2 SLP159 T01671156
KMAI 251653Z AUTO 24011G16KT 10SM SCT032 28/18 A3012 RMK AO2 SLP198 T02780183
KMAN 251735Z AUTO 13008KT 2SM BR CLR M02/M02 A3016 RMK A01
KMAO 251735Z AUTO 25011KT A3008 RMK AO2 PWINO
KMAW 251815Z AUTO 30004KT 10SM CLR 08/01 A3015 RMK AO2
KMBG 251652Z AUTO 25006KT 10SM CLR M04/M10 A2973 RMK AO2 SLP095 T10391100 $
KMBL 251656Z AUTO 24012G27KT 10SM BKN024 BKN032 02/M05 A2971 RMK AO2 PK WND 23031/1625 SLP083 T00171050 FZRANO
KMBO 251735Z AUTO 00000KT 10SM CLR 12/10 A3012 RMK AO2 PWINO
KMBS 251653Z 24027G37KT 10SM BKN033 BKN039 04/M03 A2973 RMK AO2 PK WND 24038/1600 SLP074 T00391033
KMBY 251755Z AUTO 21012KT 10SM CLR 06/M04 A3009 RMK AO2
KMCB 251653Z AUTO 13005KT 10SM OVC004 13/12 A3010 RMK AO2 RAE32 SLP189 P0002 T01330122 $
KMCC 251735Z AUTO 34005KT 10SM CLR 08/00 A3036 RMK AO2
KMCD 251736Z AUTO 23026G42KT 190V260 10SM OVC020 M01/M05 A2951 RMK AO2
KMCE 251653Z AUTO 02006KT 10SM CLR 07/01 A3036 RMK AO2 SLP279 T00670011
KMCF 251656Z AUTO 19006KT 10SM FEW200 26/21 A3017 RMK AO2 SLP220 T02610208 FZRANO $
KMCI 251653Z 25009KT 10SM FEW120 SCT200 05/M03 A3008 RMK AO2 SLP191 T00501028
KMCJ 251715Z AUTO 03012KT 6SM BR OVC005 14/13 A3000 RMK A01
KMCK 251653Z AUTO 23013KT 10SM FEW110 03/M07 A2998 RMK AO2 SLP173 T00331072
KMCN 251719Z 31014G24KT 10SM -RA FEW028 BKN038 OVC048 20/15 A3016 RMK AO2 PK WND 33027/1708 WSHFT 1704 RAB19 P0000 T02000150
KMCO 251653Z 20008KT 10SM SCT033 27/18 A3018 RMK AO2 SLP219 T02720183
KMCW 251653Z AUTO 27020G26KT 10SM CLR M04/M09 A2983 RMK AO2 PK WND 27026/1601 SLP115 T10441089
KMCX 251755Z AUTO 24013G20KT 10SM OVC026 03/M02 A3002 RMK AO2 6//// T00321018
KMDD 251735Z AUTO 25018G23KT 10SM 18/M13 A3006 RMK AO2 T01801130
KMDH 251652Z 27005KT 10SM CLR 07/00 A3014 RMK AO2 SLP206 T00670000
KMDQ 251735Z AUTO 12008KT 10SM SCT009 SCT014 OVC032 13/11 A3006 RMK AO2 T01330112
KMDS 251735Z AUTO 26013G18KT 10SM CLR M06/M08 A2982 RMK AO2
KMDT 251656Z 00000KT 10SM OVC009 08/06 A2997 RMK AO2 RAE05 SLP149 P0000 T00830061
KMDW 251653Z 24018G27KT 10SM FEW029 FEW034 04/M03 A2992 RMK AO2 PK WND 27028/1603 SLP137 T00391033
KMDZ 251735Z AUTO 25016G21KT 7SM OVC013 M06/M09 A2963 RMK AO2 T10581089
KMEB 251652Z AUTO 24017G22KT 10SM BKN043 BKN055 27/16 A3008 RMK AO2 SLP185 T02670156
KMEH 251656Z AUTO 00000KT 10SM BKN037 BKN047 OVC060 M01/M06 A2988 RMK AO2 SLP145 T10061056
KMEI 251658Z 14005KT 10SM FEW075 OVC100 13/11 A3012 RMK AO2 SLP198 T01280106
KMEM 251654Z 00000KT 10SM BKN150 11/03 A3013 RMK AO2 SLP202 T01110033 $
KMER 251645Z 00000KT 8SM SKC 07/04 A3036
KMEV 251735Z AUTO 00000KT 10SM CLR M02/M10 A3030 RMK AO2
KMEZ 251735Z AUTO 00000KT 10SM CLR 11/06 A3010 RMK AO2
KMFD 251652Z 25013G20KT 10SM CLR 07/01 A2993 RMK AO2 PK WND 25029/1628 SLP140 T00670006
KMFE 251721Z 23006KT 9SM BKN017 BKN026 OVC044 26/22 A2994 RMK AO2 T02560217
KMFI 251719Z AUTO 25018G26KT 8SM SCT015 M04/M08 A2965 RMK AO2 PK WND 26026/1711 T10441078 TSNO
KMFR 251653Z 36003KT 10SM SCT046 OVC075 03/01 A3026 RMK AO2 SLP254 T00280006 $
KMFV 251735Z AUTO 33011G20KT 10SM -DZ SCT007 BKN036 OVC043 14/12 A3001 RMK AO2 T01390123
KMGC 251735Z AUTO 23014G25KT 10SM BKN031 05/M01 A2995 RMK AO2
KMGE 251715Z 27011KT 10SM -RA FEW007 BKN022 OVC085 16/14 A3018 RMK AO2A $
KMGG 251735Z AUTO 26010KT 10SM OVC024 M04/M09 A2973 RMK AO2 T10421088
KMGJ 251654Z AUTO 12005KT 10SM -RA SCT006 OVC012 05/04 A2992 RMK AO2 SLP134 P0002 T00500039
KMGM 251653Z 00000KT 6SM BR SCT006 OVC065 15/14 A3020 RMK AO2 RAB1556E50 SLP223 P0002 T01500139
KMGN 251735Z AUTO 23021G30KT 10SM OVC025 00/M05 A2958 RMK AO2 T10071051
KMGR 251735Z AUTO 19008G17KT 5SM -DZ SCT011 SCT016 BKN080 21/19 A3016 RMK AO2
KMGW 251728Z 26009G16KT 240V300 10SM SCT023 OVC032 14/07 A2993 RMK AO2 RAE12 P0000 T01390072
KMGY 251653Z AUTO 24014KT 10SM SCT022 08/02 A3002 RMK AO2 SLP165 T00830022
KMHE 251653Z AUTO 23009KT 10SM CLR M05/M10 A2987 RMK AO2 SLP138 T10501100
KMHK 251652Z 23009KT 10SM OVC100 05/M04 A3007 RMK AO2 SLP192 T00501044
KMHL 251735Z AUTO 20009KT 10SM CLR 07/00 A3012 RMK AO2
KMHR 251745Z 00000KTKT 10SMSM SKC 08/00 A3034
KMHS 251656Z AUTO 00000KT 10SM OVC055 00/M06 A3022 RMK AO2 SLP274 T00001061
KMHT 251709Z 09005KT 6SM -RA BR SCT011 BKN018 OVC029 02/01 A3013 RMK AO2 P0001 T00170006
KMHV 251720Z AUTO 07007KT 10SM CLR 08/M12 A3030 RMK A01
KMIA 251653Z 14010KT 120V180 10SM BKN029 28/21 A3018 RMK AO2 SLP221 T02780206
KMIB 251656Z AUTO 28016KT 10SM BKN040 M04/M08 M RMK AO2 SLPNO T10441085 $
KMIC 251653Z 25012KT 10SM SCT037 M07/M12 A2972 RMK AO2 SLP075 T10671122
KMIE 251733Z 26016KT 10SM SCT025 07/01 A3002 RMK AO2 T00670011 $
KMIS 251735Z AUTO 00000KT 8SM CLR 26/20 A3011 RMK A01
KMIV 251654Z AUTO 00000KT 10SM OVC004 09/09 A2994 RMK AO2 RAE04 PRESFR SLP136 P0000 T00940089
KMIW 251653Z AUTO 27013G23KT 10SM CLR 00/M05 A2990 RMK AO2 SLP134 T00001050
KMJQ 251735Z AUTO 26018G27KT 7SM CLR M06/M09 A2982 RMK AO2
KMJX 251656Z AUTO 36007KT 10SM OVC004 07/07 A2994 RMK AO2 RAE43 SLP145 T00720072 PNO $
KMKC 251654Z 22008KT 10SM CLR 07/M05 A3008 RMK AO2 SLP192 T00671050
KMKE 251652Z 25018G32KT 10SM FEW031 02/M06 A2980 RMK AO2 PK WND 27032/1612 SLP097 T00221056
KMKG 251655Z 23015G25KT 10SM BKN028 04/M03 A2982 RMK AO2 PK WND 24028/1611 SLP103 T00391033
KMKJ 251735Z AUTO 27017G23KT 10SM SCT070 OVC095 15/09 A3009 RMK AO2 T01450092
KMKL 251653Z 05005KT 10SM CLR 11/04 A3014 RMK AO2 SLP206 T01060044
KMKN 251735Z AUTO 14003KT 10SM BKN110 14/08 A3005 RMK AO2 T01380080
KMKO 251653Z AUTO 12011KT 10SM CLR 10/02 A3011 RMK AO2 SLP196 T01000017 $
KMKS 251735Z AUTO 22014G17KT 7SM SCT041 BKN048 BKN060 28/14 A3010 RMK AO2
KMKT 251656Z AUTO 26017KT 9SM CLR M06/M11 A2979 RMK AO2 SLP106 T10611111 FZRANO
KMKY 251656Z AUTO 15010G15KT 10SM FEW034 28/19 A3018 RMK AO2 SLP219 T02780189
KMLB 251653Z 11010KT 10SM FEW040 SCT047 BKN080 28/20 A3018 RMK AO2 SLP220 T02780200
KMLC 251653Z AUTO VRB06KT 10SM FEW110 12/03 A3008 RMK AO2 SLP186 T01170028
KMLE 251735Z AUTO 22006KT 10SM CLR 02/M04 A3001 RMK AO2 T00241043
KMLF 251652Z AUTO 19004KT 10SM CLR M07/M11 A3022 RMK AO2 SLP272 T10721106
KMLI 251652Z 23014KT 10SM CLR 04/M05 A2995 RMK AO2 SLP145 T00391050 $
KMLJ 251735Z AUTO 36005KT 5SM RA SCT029 SCT039 OVC048 17/16 A3017 RMK AO2
KMLP 251653Z AUTO VRB06G17KT 1/4SM +SN VV005 M06/M09 A2962 RMK AO2 SLP086 P0004 T10611089 TSNO
KMLS 251653Z AUTO 23007KT 10SM CLR M09/M12 A2970 RMK AO2 SLP104 T10891122
KMLT 251739Z AUTO 13006KT 10SM BKN026 OVC100 M04/M11 A3027 RMK AO2 T10391111
KMLU 251653Z 12004KT 10SM -RA BKN100 OVC120 13/10 A3013 RMK AO2 RAB45 SLP202 P0000 T01280100
KMMH 251735Z AUTO 13005KT 10SM CLR 01/M10 A3018 RMK AO2 T00071105
KMMI 251735Z AUTO 20003KT 10SM CLR 13/11 A3014 RMK
KMMK 251734Z AUTO 00000KT 10SM -RA FEW009 OVC016 05/04 A3000 RMK AO2 P0005 T00500039
KMML 251656Z AUTO 26015KT 10SM CLR M04/M08 A2978 RMK AO2 SNB15E34 SLP106 P0000 T10391078 FZRANO
KMMT 251656Z 23013G22KT 10SM BKN035 26/15 A3012 RMK AO2A SLP200 T02550152 $
KMMU 251645Z 06007KT 7SM -RA OVC007 05/05 A2999
KMMV 251713Z AUTO 20009KT 10SM -RA FEW013 BKN024 OVC042 07/06 A3000 RMK AO2 P0000 T00720061 $
KMNE 251735Z AUTO 15005KT 10SM -DZ SCT012 BKN022 OVC035 13/11 A3013 RMK AO2 T01330108
KMNH 251730Z AUTO 25013G21KT 10SM CLR M02/M22 A2991 RMK AO2
KMNI 251735Z 10SM SCT039 SCT050 SCT080 26/08 A3010 RMK AO2
KMNM 251656Z AUTO 25013G27KT 220V290 9SM OVC020 M02/M06 A2960 RMK AO2 PK WND 25027/1650 SLP042 T10171061 FZRANO $
KMNN 251653Z AUTO 26017G24KT 10SM SCT022 07/01 A2997 RMK AO2 SLP155 T00670011
KMNV 251735Z AUTO VRB05G13KT 10SM CLR 14/12 A3012 RMK A01
KMNZ 251735Z AUTO 13010KT 10SM SCT100 18/08 A3007 RMK AO2 T01750075
KMOB 251704Z 04005KT 10SM FEW006 BKN048 OVC070 17/16 A3016 RMK AO2 T01670156
KMOD 251653Z 32007KT 10SM CLR 09/01 A3035 RMK AO2 SLP278 T00890011
KMOP 251735Z AUTO 24018G30KT 10SM BKN032 04/M03 A2973 RMK AO2 T00441029
KMOT 251654Z 26016KT 10SM OVC040 M04/M09 A2961 RMK AO2 SLP054 T10391089
KMOX 251735Z AUTO 26011KT 10SM CLR M03/M07 A2970 RMK AO2
KMPO 251653Z AUTO 11009KT 1/4SM FG VV001 03/03 A2990 RMK AO2 RAE01 SLP141 P0000 T00280028
KMPV 251734Z AUTO 17013G22KT 2SM -SN BR BKN029 OVC038 M01/M03 A3002 RMK AO2 SNB1654 P0000 T10111028
KMPZ 251735Z AUTO 21011KT 10SM CLR 05/M03 A3000 RMK AO2
KMQB 251735Z AUTO 22011G15KT 10SM CLR A3005 RMK AO2
KMQE 251656Z AUTO 11015G29KT A3008 RMK AO1 PK WND 11029/1650 SLPNO P0006 $
KMQI 251735Z AUTO 24015G22KT 10SM SCT037 SCT049 24/17 A3003 RMK AO2 T02420165
KMQJ 251735Z AUTO 26013G18KT 10SM SCT031 07/03 A3004 RMK AO1
KMQS 251735Z AUTO 32006G12KT 7SM -RA OVC002 07/07 A2996 RMK AO2
KMQY 251742Z 32003KT 10SM FEW018 11/08 A3013 RMK AO2
KMRB 251653Z 07004KT 8SM BKN006 OVC014 10/09 A2993 RMK AO2 CIG 004V008 SLP138 T01000089
KMRC 251735Z AUTO 32003KT 10SM FEW017 11/09 A3011 RMK A01
KMRF 251656Z AUTO 25013G16KT 10SM CLR 15/M13 A3014 RMK AO2 SLP193 T01501133
KMRH 251658Z AUTO 22014KT 10SM FEW065 23/19 A3010 RMK AO2 SLP194 T02280189
KMRJ 251735Z AUTO 24015G20KT 10SM CLR 00/M03 A2982 RMK AO2
KMRN 251735Z AUTO 19003KT 10SM OVC100 18/17 A3010 RMK AO2 T01780165
KMRT 251735Z AUTO 27016KT 10SM CLR 08/03 A3000 RMK AO2 T00750025
KMRY 251654Z 05005KT 10SM CLR 10/04 A3035 RMK AO2 SLP291 T01000039
KMSL 251653Z AUTO 29006KT 10SM FEW120 12/08 A3015 RMK AO2 SLP204 T01170078
KMSN 251653Z 23009G20KT 10SM FEW026 M01/M07 A2981 RMK AO2 SLP102 T10111067
KMSO 251653Z 05005KT 10SM BKN050 OVC065 M01/M08 A2981 RMK AO2 SLP128 T10111083
KMSP 251653Z 26011KT 10SM FEW035 M06/M11 A2973 RMK AO2 SLP080 T10611111
KMSS 251730Z AUTO 10004KT 6SM -RA BR BKN022 OVC033 01/01 A2973 RMK AO2 P0001 T00110011 $
KMSV 251656Z AUTO 11010KT 10SM -RA OVC005 03/02 A2994 RMK AO2 RAE20B44UPB27E44 SLP151 P0000 T00280022
KMSY 251653Z 05008KT 5SM -RA BR FEW028 BKN042 OVC075 18/17 A3011 RMK AO2 RAB1554 SLP198 P0005 T01830172 $
KMTC 251656Z 23017G33KT 10SM SCT038 07/00 A2979 RMK AO2A PK WND 25038/43 SLP097 T00700002 $
KMTH 251653Z AUTO 12010G15KT 10SM CLR 28/20 A3016 RMK AO2 SLP214 T02780200
KMTJ 251653Z AUTO 12003KT 10SM CLR M03/M08 A3015 RMK AO2 SLP223 T10331083
KMTN 251645Z 12006KT 6SM -RA BKN006 BKN036 OVC110 09/09 A2995
KMTO 251653Z AUTO 25011G15KT 10SM FEW028 05/M02 A3008 RMK AO2 SLP188 T00501017
KMTP 251654Z AUTO 09011G24KT 05/04 A3002 RMK AO1 SLP164 P0013 T00500044
KMTV 251735Z AUTO 21004KT 10SM OVC110 18/15 A3003 RMK AO2 T01810145
KMTW 251723Z AUTO 25018G28KT 10SM SCT026 00/M06 A2970 RMK AO2 PK WND 26031/1707 FZRANO
KMUI 251656Z AUTO 06003KT 10SM OVC009 07/07 A2996 RMK AO2 DZE1556RAB1556E15 SLP151 P0001 T00660066 $
KMUO 251743Z AUTO 09007KT 10SM FEW038 OVC050 M03/M03 A3015 RMK AO2 SLP247 $
KMUT 251735Z AUTO 23010G16KT 10SM CLR 05/M04 A2998 RMK AO2
KMVE 251735Z AUTO 28008KT 7SM CLR M01/M07 A2976 RMK AO2
KMVH 251745Z AUTO 15004KT 10SM BKN075 BKN110 M03/M14 A2961 RMK AO2
KMVL 251721Z AUTO 20015G25KT 5SM HZ BKN028 OVC047 M01/M04 A2999 RMK AO2 PK WND 20029/1700 T10061039
KMVN 251656Z AUTO 25007KT 10SM CLR 07/00 A3013 RMK AO2 SLP204 T00670000
KMVY 251653Z 09015G22KT 4SM RA BR OVC007 04/04 A3010 RMK AO2 SLPNO P0009 T00390039 $
KMWA 251745Z 27007KT 20SM BKN150 08/M01 A3013
KMWC 251745Z 26015G33KT 10SM SKC 02/M08 A2979
KMWH 251652Z 18011KT 10SM BKN070 BKN085 05/M02 A2974 RMK AO2 SLP080 T00501017
KMWK 251735Z AUTO 23005KT 10SM CLR 18/15 A3007 RMK AO2 T01820145
KMWL 251653Z AUTO 14008KT 10SM CLR 12/07 A3006 RMK AO2 SLP176 T01170072
KMWN 251653Z 15043G51KT 0SM SN FZFG BLSN VV000 M12/M12 RMK VRY LGT ICG
KMWO 251735Z AUTO 25010KT 10SM CLR 08/01 A3005 RMK AO2 T00790009
KMWT 251653Z AUTO 08005KT 10SM CLR 10/04 A3009 RMK AO2 SLP191 T01000039
KMXF 251726Z 36003KT 10SM SCT008 SCT039 BKN055 OVC070 15/14 A3017 RMK AO2A SLP219 $
KMXO 251735Z AUTO 25015KT 10SM CLR 03/M05 A2989 RMK AO2
KMYF 251653Z 32006KT 10SM CLR 13/00 A3021 RMK AO2 SLP229 T01330000
KMYJ 251755Z AUTO 22010KT 10SM CLR 05/M02 A3010 RMK AO2
KMYL 251723Z AUTO 14010KT 2SM -SN BR BKN022 OVC029 M07/M09 A2996 RMK AO2 P0000 T10671089 $
KMYP 251730Z AUTO 27043G57KT VCTS M17/M20 A2986 RMK AO2 LTG DSNT S
KMYR 251656Z COR 19012KT 10SM SCT045 24/18 A3012 RMK AO2 SLP199 T02390183
KMYV 251653Z AUTO 35006KT 10SM CLR 06/01 A3035 RMK AO2 SLP282 T00610006
KMYZ 251735Z AUTO 24009KT 10SM CLR 05/M02 A3005 RMK AO2
KMZG 251735Z AUTO 25009G16KT 6SM BR CLR 24/22 A2995 RMK A01
KMZH 251735Z AUTO 24013G20KT 10SM OVC022 M04/M08 A2957 RMK AO2
KMZZ 251735Z AUTO 24019G23KT 10SM OVC025 03/M01 A3003 RMK AO2 T00291006
KN03 251735Z AUTO 20009G15KT 158V238 10SM BKN013 BKN021 OVC027 06/05 A2983 RMK AO2
KN38 251735Z AUTO 20014KT 3SM -UP OVC004 06/06 A2983 RMK AO2
KN60 251652Z AUTO 27013KT M06/M09 A2964 RMK AO1 SLP071 T10561094
KNAK 251745Z AUTO 00000KT 5SM BR OVC006 09/09 A2992 RMK AO2 RAE28 P0000 T00940089
KNBC 251715Z AUTO 21013G21KT 10SM BKN030 OVC039 29/18 A3013 RMK AO2 T02890178 $
KNBG 251702Z 04010KT 10SM SCT013 BKN031 OVC043 18/18 A3011 RMK AO2 T01780178 $
KNCA 251656Z AUTO 25011G20KT 10SM SCT045 27/17 A3007 RMK AO2 SLP183 T02720167
KNDZ 251656Z AUTO 34014KT 10SM -RA SCT032 OVC040 17/16 A3017 RMK AO2 PK WND 35030/1625 RAB28 SLP202 P0014 T01720161 $
KNEL 251706Z AUTO VRB05KT 3/4SM OVC004 07/ A2992 RMK AO2 SFC VIS 8 RAE1626 SLP131 T0072 PNO $
KNEW 251653Z AUTO 04014KT 7SM SCT028 BKN041 OVC060 18/17 A3012 RMK AO2 RAE46 SLP194 P0009 T01830167
KNFE 251656Z AUTO 24010G21KT 10SM FEW049 BKN055 OVC085 27/14 A3000 RMK AO2 RAE05B28E37 SLP161 P0000 T02670144
KNFG 251655Z AUTO VRB03KT 10SM CLR 10/02 A3022 RMK AO2 SLP233 T01000017
KNFL 251656Z AUTO 16007KT 10SM CLR M01/M06 A3028 RMK AO2 SLP213 T10061056
KNFW 251652Z 13013KT 10SM SCT120 BKN250 15/06 A3007 RMK AO2 SLP166 T01500061 $
KNGP 251703Z AUTO 20008KT 6SM -RA BR BKN006 OVC012 22/22 A2995 RMK AO2 CIG 005V009 P0001 T02220222
KNGU 251659Z 26015G27KT 10SM BKN044 BKN100 BKN250 25/16 A3001 RMK AO2 PK WND 25033/1642 SLP162 T02500156
KNHK 251652Z 17007KT 10SM BKN065 OVC100 13/13 A2994 RMK AO2 RAE28 SLP137 P0006 T01280128
KNIP 251653Z 17009KT 10SM SCT032 BKN085 26/19 A3018 RMK AO2 SLP214 T02610194
KNJK 251656Z AUTO 33004KT 10SM CLR 14/M06 A3030 RMK AO2 SLP277 T01391061 $
KNJM 251657Z AUTO 23016G24KT 10SM CLR 22/19 A3011 RMK AO2 SLP199 T02170189
KNKT 251658Z 22014G23KT 7SM FEW070 26/19 A3009 RMK SLP186 T02560194
KNKX 251655Z 34005KT 10SM CLR 16/01 A3020 RMK AO2 SLP224 T01560011 $
KNLC 251656Z AUTO 36009KT 10SM CLR 09/02 A3037 RMK AO2 SLP285 T00890022 $
KNMM 251656Z AUTO 13006KT 10SM FEW007 FEW060 OVC100 12/11 A3013 RMK AO2 SLP211 T01220111 CHINO SOUTH VISNO SOUTH $
KNOG 251731Z AUTO 19007KT 5SM BR SCT006 SCT017 OVC050 23/22 A2995 RMK AO2 T02330222 PNO $
KNOW 251735Z AUTO 26018G22KT 10SM SCT041 SCT050 OVC060 04/00 A2983 RMK AO2 P0001 T00420002
KNOZ 251659Z AUTO 36015KT 10SM CLR 13/M14 A3027 RMK AO2 SLP200 T01281144
KNQA 251650Z 07005KT 10SM BKN150 10/03 A3013
KNQI 251715Z 16007KT 6SM HZ SCT007 BKN012 OVC030 24/22 A2994 RMK AO2 T02440217 $
KNQX 251653Z 13014KT 10SM FEW025 28/20 A3016 RMK AO2 SLP211 T02780200
KNRB 251652Z AUTO 20008KT 10SM FEW028 SCT034 BKN090 28/18 A3017 RMK AO2 SLP216 T02830183 $
KNRS 251656Z AUTO 01009KT 10SM CLR 13/M04 A3021 RMK AO2 SLP231 T01331039
KNSE 251656Z AUTO 36008G20KT 5SM -RA BR SCT031 BKN040 OVC050 17/16 A3017 RMK AO2 WSHFT 1605 RAB28 SLP203 P0000 T01720156 $
KNSI 251657Z AUTO 36011KT CLR 14/ A3022 RMK AO2 SLP228 T0139 $
KNTD 251658Z 04006KT 10SM FEW260 17/M06 A3024 RMK AO2 SLP241 T01671056 $
KNTU 251656Z 24013G30KT 10SM SCT050 BKN065 OVC100 25/14 A2999 RMK AO2 PK WND 22031/1641 SLP156 T02500139
KNUI 251653Z AUTO 13010KT 5SM BR FEW017 SCT055 BKN070 12/12 A2995 RMK AO2 PRESFR SLP140 T01220117
KNUQ 251656Z 00000KT 10SM CLR 08/04 A3038 RMK AO2 SLP288 T00830039
KNUW 251713Z 25024G34KT 10SM FEW017 SCT040 OVC065 06/02 A2983 RMK AO2 PK WND 26035/1702 RAE06 P0000 T00610022 $
KNXF 251656Z AUTO 09005KT 10SM CLR 13/00 A3022 RMK AO2 SLP322 T01330000 $
KNXP 251656Z AUTO 33007KT 9SM CLR 10/M12 A3036 RMK AO2 SLP265 T01001117 $
KNY0 251735Z AUTO 16009KT 10SM OVC012 02/01 A2994 RMK AO2
KNYC 251651Z AUTO 06009KT 7SM -RA OVC006 05/04 A3002 RMK AO2 SLP157 P0004 T00500039 $
KNYG 251735Z AUTO 34003KT 10SM -RA OVC005 11/11 A2998 RMK AO2 RAE09B30 P0000 T01110111
KNYL 251657Z AUTO 05006KT 10SM CLR 13/M11 A3027 RMK AO2 SLP251 T01281111
KNZY 251652Z 02004KT 10SM CLR 13/M01 A3021 RMK AO2 SLP230 T01281006 $
KO22 251735Z AUTO 22004KT 10SM CLR 08/M04 A3032 RMK AO1
KO54 251735Z AUTO 21003KT 10SM CLR 01/M03 A3029 RMK AO1
KO69 251735Z AUTO 31007KT 10SM CLR 09/03 A3036 RMK A01
KO86 251730Z AUTO 10003KT 10SM SCT015 02/M03 A3029 RMK AO1
KOAJ 251656Z AUTO 22014G22KT 10SM BKN043 28/17 A3007 RMK AO2 SLP187 T02780172
KOAK 251653Z 20003KT 10SM FEW250 08/04 A3037 RMK AO2 SLP283 T00780044
KOBE 251735Z AUTO 15007KT 7SM SCT033 27/18 A3017 RMK AO2
KOCF 251651Z 19008KT 10SM SCT039 BKN085 28/18 A3018 RMK AO2 SLP221 T02780178
KOCH 251656Z AUTO VRB04KT 10SM RA FEW027 OVC046 10/08 A3012 RMK AO2 SLP203 P0014 T01000083
KOCQ 251735Z AUTO 26013G29KT 10SM OVC020 M03/M07 A2964 RMK AO1 T10261067
KOCW 251735Z AUTO 25014G21KT 10SM BKN055 OVC080 29/14 A3004 RMK AO2 T02850141
KODO 251653Z AUTO 26015G25KT 10SM CLR 16/M17 A3006 RMK AO2 SLP161 T01611167
KODX 251653Z AUTO 27007KT 10SM CLR 01/M08 A2993 RMK AO2 SLP159 T00061083 $
KOEB 251735Z AUTO 25021G27KT 10SM OVC027 03/M02 A2991 RMK AO2 T00331025
KOEO 251735Z AUTO 24013KT 10SM OVC038 M05/M10 A2974 RMK AO2 T10471102
KOFF 251656Z AUTO 27006KT 10SM CLR 01/M04 A2999 RMK AO2 SLP170 T00081044 $
KOFK 251656Z AUTO VRB05KT 10SM CLR M01/M09 A2992 RMK AO2 SLP150 T10061089
KOFP 251654Z AUTO VRB04KT 10SM FEW006 OVC100 13/12 A2999 RMK AO2 SLP154 T01330122
KOGA 251735Z AUTO 29026KT 10SM CLR 03/M09 A2991 RMK AO2 T00271086
KOGB 251653Z AUTO 27014G20KT 10SM FEW029 SCT037 SCT055 25/17 A3012 RMK AO2 SLP198 T02500167
KOGD 251653Z 25009KT 10SM CLR M03/M11 A3021 RMK AO2 SLP255 T10331106
KOGS 251735Z AUTO 19014G22KT 10SM BKN018 BKN024 BKN037 06/05 A2970 RMK AO2 T00610050
KOJA 251735Z AUTO 20009G16KT 10SM CLR 10/02 A3002 RMK AO2
KOJC 251653Z 22007KT 10SM CLR 04/M02 A3008 RMK AO2 SLP195 T00441022
KOKB 251652Z AUTO 05004KT 10SM CLR 11/00 A3021 RMK AO2 SLP231 T01110000
KOKC 251652Z 16013KT 10SM CLR 09/02 A3005 RMK AO2 SLP179 T00890022
KOKK 251656Z AUTO 23023G26KT 10SM OVC025 03/M01 A3002 RMK AO2 PK WND 24027/1634 SLP171 T00331011
KOKM 251735Z AUTO 14012G16KT 10SM CLR 11/01 A3008 RMK AO2 T01060008
KOKV 251735Z AUTO 00000KT 5SM BR OVC005 09/08 A2996 RMK AO2
KOKZ 251735Z AUTO 28005KT 10SM BKN030 BKN039 OVC050 24/16 A3014 RMK AO2 T02370162
KOLE 251735Z AUTO 26006G22KT 10SM CLR 10/02 A2977 RMK AO2
KOLF 251653Z AUTO 23004KT 10SM CLR M12/M15 A2965 RMK AO2 SLP073 T11171150
KOLG 251735Z AUTO 23010G19KT 10SM OVC018 M04/M08 A2956 RMK AO1
KOLM 251654Z 22005KT 10SM -RA FEW014 SCT028 OVC034 04/03 A2987 RMK AO2 RAB1556 SLP117 P0007 T00440033
KOLS 251654Z AUTO 26003KT 10SM CLR 07/M08 A3017 RMK AO2 SLP206 T00721083
KOLU 251656Z AUTO 27009KT 10SM CLR 00/M09 A2997 RMK AO2 SLP167 T00001089 FZRANO
KOLV 251650Z 03004KT 10SM BKN150 09/05 A3012
KOLY 251735Z AUTO 25007KT 10SM CLR 07/00 A3012 RMK AO2 T00701001
KOLZ 251735Z AUTO 26017G22KT 10SM CLR M01/M03 A2986 RMK AO2
KOMA 251652Z 26008KT 10SM FEW250 01/M07 A2999 RMK AO2 SLP163 T00111067
KOMH 251735Z AUTO 27007KT 10SM OVC005 11/11 A2996 RMK AO2
KOMK 251653Z AUTO 17012KT 10SM CLR 03/M02 A2963 RMK AO2 PK WND 18026/1606 SLP046 T00281022
KOMN 251650Z 22012KT 7SM SCT043 27/17 A3018
KONA 251735Z AUTO 25005KT 10SM CLR M02/M08 A2978 RMK AO2
KONL 251735Z AUTO 27005KT 10SM CLR M01/M08 A2991 RMK AO2 T10111081
KONM 251735Z AUTO 30014G21KT 10SM CLR 07/M15 A3015 RMK AO2 T00661150
KONO 251653Z AUTO 14005KT 10SM OVC065 00/M03 A3014 RMK AO2 SLP228 T00001033 TSNO
KONP 251735Z AUTO 24013G21KT 5SM -RA SCT008 BKN031 OVC037 07/07 A3011 RMK AO2
KONT 251653Z 29008KT 10SM CLR 11/M02 A3021 RMK AO2 SLP231 T01111022
KONX 251740Z AUTO 23014G21KT 10SM SCT046 BKN055 OVC090 24/14 A3000 RMK AO2 T02390138
KONZ 251735Z AUTO 24016G24KT 10SM OVC031 06/M01 A2987 RMK AO2 T00601012
KOOA 251735Z AUTO 24017KT 10SM CLR 04/M03 A2998 RMK AO2 T00391035
KOPF 251653Z 16011KT 10SM FEW035 28/19 A3019 RMK AO2 SLP222 T02830194
KOPL 251735Z AUTO 11007KT 10SM OVC028 20/17 A3003 RMK AO2 LTG DSNT W T01980165
KOPN 251735Z AUTO 00000KT 5SM DZ SCT008 BKN014 OVC050 17/15 A3020 RMK AO2
KOQT 251653Z AUTO VRB04KT 10SM FEW041 SCT120 13/12 A3009 RMK AO2 SLP186 T01330117
KOQU 251650Z 11015KTKT 6SM -RABR SCT008 OVC010 05/03 A3009
KORB 251733Z AUTO 28009G15KT 230V300 10SM UP OVC016 M05/M08 A2942 RMK AO2
KORC 251735Z AUTO 28014KT 10SM CLR M03/M06 A2989 RMK AO2
KORD 251651Z 25017G25KT 10SM SCT029 03/M04 A2989 RMK AO2 PK WND 25028/1605 SLP126 T00331039 $
KORE 251735Z AUTO 08003KT 10SM -RA OVC015 02/02 A3006 RMK AO2 P0003 T00220017
KORF 251651Z 25019G27KT 10SM BKN049 BKN060 OVC100 26/15 A2999 RMK AO2 PK WND 22031/1607 SLP155 T02560150
KORG 251735Z AUTO 07006KT 10SM OVC006 17/17 A3005 RMK AO2 LTG DSNT N AND NW T01690169
KORH 251710Z 08008KT 1 1/2SM RA BR OVC002 01/01 A3006 RMK AO2 SFC VIS 2 1/2 VIS 1 1/2V4 P0003 T00110011 $
KORL 251653Z 18011KT 10SM SCT036 28/18 A3018 RMK AO2 SLP223 T02830183
KORS 251735Z AUTO 20008G14KT 10SM CLR 05/02 A2974 RMK AO2
KOSA 251735Z AUTO 13007KT 10SM CLR 13/10 A3011 RMK AO1 T01320101
KOSC 251735Z AUTO 23027G37KT 10SM BKN034 04/M05 A2962 RMK AO2 T00411049
KOSH 251653Z 23011G20KT 190V250 10SM CLR M01/M06 A2972 RMK AO2 SLP076 T10111061
KOSU 251653Z 24015KT 10SM CLR 08/03 A2998 RMK AO2 SLP154 T00830033
KOTG 251656Z AUTO 28015KT 10SM OVC012 M06/M09 A2982 RMK AO2 SLP126 T10561094 FZRANO
KOTH 251720Z 21012G20KT 4SM -RA BR OVC008 09/08 A3021 RMK AO2 CIG 005V010 P0002
KOTM 251653Z AUTO 24014KT 10SM CLR 04/M04 A2996 RMK AO2 SLP153 T00441039 $
KOUN 251745Z 16015KT 10SM SKC 12/04 A3003
KOVE 251653Z AUTO 27005KT 10SM CLR 05/01 A3035 RMK AO2 SLP282 T00500011 $
KOVL 251735Z AUTO 26015KT 10SM BKN019 BKN024 M03/M06 A2976 RMK AO2
KOVS 251653Z AUTO 23008G16KT 10SM CLR 01/M07 A2983 RMK AO2 SLP107 T00061072
KOWA 251734Z AUTO 25019KT 10SM CLR M06/M10 A2979 RMK AO2
KOWB 251656Z 28006KT 10SM CLR 08/01 A3013 RMK AO2 SLP217 T00780006
KOWD 251653Z 11009G18KT 6SM -RA BR BKN012 BKN020 OVC033 05/03 A3012 RMK AO2 SLP200 P0006 T00500033
KOWI 251335Z AUTO 20005KT 7SM CLR M05/M06 A3002 RMK AO2
KOWP 251735Z AUTO 13007KT 10SM CLR 11/02 A3009 RMK AO2 T01120018
KOWX 251735Z AUTO 26020G26KT 10SM BKN024 04/00 A2999 RMK AO1
KOXB 251728Z AUTO 24006KT 8SM -RA FEW012 BKN034 OVC047 17/16 A2997 RMK AO2 RAB21 P0000 T01670156
KOXC 251651Z 08007KT 10SM -RA BKN006 OVC011 04/04 A3002 RMK AO2 CIG 004V008 PRESFR SLP185 P0010 T00390039
KOXR 251651Z 00000KT 10SM CLR 14/M04 A3023 RMK AO2 SLP238 T01391044
KOXV 251735Z AUTO 23011G17KT 10SM CLR 04/M04 A2995 RMK AO2
KOZA 251735Z AUTO 30004G16KT 10SM CLR 20/M10 A3008 RMK AO2
KOZR 251730Z AUTO 33010G21KT 10SM SCT026 BKN190 18/16 A3015 RMK AO2 RAB11E30 SLP211 $
KOZS 251735Z AUTO 18003KT 10SM CLR 07/M04 A3011 RMK AO2
KOZW 251735Z AUTO 24022G30KT 10SM BKN032 05/M02 A2982 RMK AO2 T00501017
KP28 251656Z AUTO 14011G19KT 08/M02 A3000 RMK AO1 SLP168 T00781017
KP53 251656Z AUTO 23009G20KT 00/M03 A2941 RMK AO1 SLP967 T00001033
KP58 251651Z AUTO 23020G35KT 04/M03 A2964 RMK AO1 PK WND 25037/1617 SLP045 T00391028
KP59 251651Z AUTO 30011G28KT 250V340 M02/M06 A2929 RMK AO1 PK WND 28031/1614 SLP931 T10171061
KP60 251656Z AUTO VRB03KT M13/M16 A2985 RMK AO1 SLP206 T11281161 $
KP68 251653Z AUTO 20003KT M07/M12 A3020 RMK AO1 SLP266 T10721117
KP69 251652Z AUTO 00000KT M01/M02 A2999 RMK AO1 SLP181 P0005 T10111017 $
KP92 251653Z AUTO VRB05KT 21/17 A3005 RMK AO1 SLP176 T02060167 $
KPAE 251653Z 33005KT 7SM -RA FEW005 OVC013 03/02 A2978 RMK AO2 RAB42 SLP090 P0001 T00330022
KPAH 251653Z COR 29004KT 10SM CLR 09/M01 A3013 RMK AO2 SLP202 T00891006
KPAM 251656Z AUTO 18007KT 10SM FEW014 24/20 A3014 RMK AO2 SLP209 T02440201 $
KPAN 251735Z AUTO VRB06KT 10SM CLR 04/M15 A3018 RMK AO2
KPAO 251547Z 00000KT 10SM SKC A3036
KPBF 251653Z AUTO 08005KT 10SM CLR 12/04 A3013 RMK AO2 SLP203 T01170039
KPBG 251705Z AUTO 17012G24KT 10SM -RA SCT018 BKN024 OVC050 01/M01 A2991 RMK AO2 RAB03 P0000 T00111011
KPBH 251735Z AUTO 24012G17KT 10SM OVC010 M06/M08 A2956 RMK AO2 T10621080
KPBI 251653Z 12011KT 10SM SCT030 28/19 A3020 RMK AO2 SLP224 T02780189
KPBX 251735Z AUTO 20004KT 10SM OVC025 14/11 A3005 RMK AO2 T01360106
KPCD 251735Z AUTO 23003KT 10SM CLR 08/M04 A3014 RMK AO2 T00831036 PWINO
KPCM 251735Z AUTO 13003KT 10SM CLR 29/17 A3017 RMK AO2
KPCW 251735Z AUTO 25023G30KT 10SM OVC027 06/01 A2991 RMK AO2
KPCZ 251735Z AUTO 24018G23KT 10SM SCT024 SCT029 00/M05 A2971 RMK AO2 T10011050
KPDC 251735Z AUTO 24010KT 10SM CLR 01/M07 A2986 RMK AO2 T00051073
KPDK 251653Z 23005KT 10SM -RA OVC090 17/15 A3016 RMK AO2 RAE1555B20 SLP205 P0001 T01670150
KPDT 251653Z 17012KT 10SM OVC055 06/M04 A2990 RMK AO2 SLP126 T00561044
KPDX 251653Z 21014KT 10SM -RA BKN013 BKN025 OVC036 06/04 A2998 RMK AO2 SLP153 P0000 T00610044
KPEA 251735Z AUTO 25013G16KT 10SM CLR 04/M05 A2997 RMK AO2 T00411050
KPEO 251724Z AUTO 21008KT 9SM FEW018 BKN033 OVC044 08/05 A2979 RMK AO2 RAB12E24 P0000 T00830050
KPEQ 251735Z AUTO 24012G18KT 10SM CLR 19/M15 A3006 RMK AO2 T01911148
KPEX 251735Z AUTO 25013KT 10SM OVC022 M05/M08 A2971 RMK AO2 T10541079
KPEZ 251735Z AUTO 04003KT 10SM -RA OVC017 15/12 A3000 RMK AO2 LTG DSNT S P0001 T01540119
KPGA 251653Z AUTO 32008KT 10SM CLR 02/M11 A3020 RMK AO2 SLP232 T00221111 TSNO
KPGD 251653Z 18010KT 10SM FEW035 29/18 A3019 RMK AO2 SLP224 T02940183
KPGV 251735Z AUTO 26016G23KT 10SM SCT050 SCT060 27/15 A3006 RMK AO2
KPHD 251653Z AUTO 27005KT 10SM CLR 11/02 A2993 RMK AO2 SLP138 T01110022
KPHF 251654Z 25021G27KT 10SM BKN040 OVC055 23/15 A2999 RMK AO2 PK WND 27028/1643 SLP155 T02330150
KPHL 251744Z 06004KT 10SM -RA OVC006 08/07 A2993 RMK AO2 CIG 005V007 P0000 T00780067 $
KPHN 251735Z AUTO 23015G27KT 190V250 10SM BKN035 07/M02 A2979 RMK AO2
KPHP 251655Z AUTO 25010KT 10SM CLR M06/M11 A2983 RMK AO2 SLP135 T10561111
KPHT 251735Z AUTO VRB04KT 10SM CLR 10/03 A3012 RMK A01
KPHX 251651Z 00000KT 10SM CLR 09/M08 A3023 RMK AO2 SLP233 T00941078 $
KPIA 251654Z 24012G18KT 10SM CLR 04/M04 A3002 RMK AO2 SLP168 T00441044 $
KPIB 251656Z AUTO 14005KT 10SM FEW060 13/12 A3016 RMK AO2 SLP211 T01330122
KPIE 251653Z 17009KT 10SM SCT032 SCT040 27/18 A3017 RMK AO2 SLP216 T02720183 $
KPIH 251653Z 23024G31KT 10SM BKN044 M04/M09 A3011 RMK AO2 PK WND 23031/1644 SLP230 T10391089
KPIL 251714Z AUTO 16015G22KT 6SM HZ SCT016 BKN024 OVC060 27/22 A2992 RMK AO2 T02670217
KPIM 251735Z AUTO 33004KT 7SM SCT009 BKN016 OVC060 17/16 A3020 RMK AO2 T01700163 PWINO
KPIR 251653Z AUTO 26012KT 10SM CLR M06/M11 A2982 RMK AO2 SLP123 T10561106
KPIT 251651Z 23008KT 10SM FEW026 BKN060 OVC150 13/03 A2988 RMK AO2 SLP126 T01330033 $
KPKB 251653Z 24009KT 10SM BKN046 BKN060 12/07 A3000 RMK AO2 SLP158 T01220072
KPKD 251714Z AUTO 26015G23KT 3SM -SN OVC016 M07/M09 A2958 RMK AO2 P0000 T10671094
KPKV 251735Z AUTO 36009KT 10SM OVC007 17/16 A2996 RMK AO2 P0001 T01710160
KPLN 251654Z AUTO 24018G31KT 10SM OVC025 M01/M06 A2954 RMK AO2 PK WND 22046/1620 SLP011 T10061056
KPLR 251735Z AUTO 00000KT 10SM CLR 12/12 A3013 RMK A01
KPLU 251735Z AUTO 22009KT 5SM -DZ SCT008 BKN012 BKN024 04/04 A2986 RMK AO2
KPMD 251653Z AUTO 01003KT 10SM CLR 04/M08 A3030 RMK AO2 SLP261 T00441078
KPMP 251653Z 11011KT 10SM SCT024 27/21 A3019 RMK AO2 SLP224 T02670206
KPMV 251735Z AUTO 28005KT 10SM CLR 02/M03 A3001 RMK AO2 T00181033
KPNA 251735Z AUTO 04003KT 10SM SCT031 SCT039 M11/M14 A2995 RMK AO2
KPNC 251653Z AUTO 15010KT 10SM CLR 09/00 A3007 RMK AO2 SLP185 T00940000
KPNE 251654Z 08009KT 10SM OVC008 08/06 A2995 RMK AO2 RAE15 PRESFR SLP143 P0000 T00830061
KPNM 251735Z AUTO 23009G15KT 10SM BKN031 M05/M10 A2969 RMK AO2 TSNO
KPNS 251653Z 35012G21KT 3SM R17/3500VP6000FT +RA BR OVC013 18/16 A3018 RMK AO2 PK WND 34027/1626 WSHFT 1626 RAB33 SLP220 P0007 T01780156 $
KPNT 251735Z AUTO 26016G20KT 10SM CLR 05/M02 A3002 RMK AO2 T00521024
KPOB 251714Z AUTO 26016G21KT 10SM BKN049 BKN060 27/15 A3005 RMK AO2 PRESFR SLP177 $
KPOE 251743Z AUTO 36003KT 3/4SM RA BR BKN003 OVC017 12/11 A3007 RMK AO2 LTG DSNT SW PRESRR SLP183 RVRNO
KPOF 251653Z AUTO 00000KT 10SM CLR 08/00 A3016 RMK AO2 SLP213 T00830000
KPOU 251653Z 00000KT 5SM BR OVC016 06/04 A2997 RMK AO2 RAE47 SLP146 P0002 T00560039
KPOV 251735Z AUTO 25012G16KT 10SM CLR 09/00 A2989 RMK AO2 T00901002
KPOY 251735Z AUTO 09006KT 10SM CLR M02/M15 A2971 RMK AO2
KPPA 251735Z AUTO 29010KT 10SM CLR 11/M13 A2999 RMK AO2 T01131131
KPPF 251652Z AUTO 18005KT 10SM CLR 07/M01 A3012 RMK AO2 SLP205 T00721011
KPPO 251735Z AUTO 23020G23KT 10SM SCT030 05/M02 A2995 RMK AO2 T00491017
KPPQ 251735Z AUTO 21008KT 10SM CLR 06/M03 A3009 RMK AO2 T00561031
KPQI 251656Z AUTO 14011KT 10SM CLR M07/M13 A3029 RMK AO2 PRESFR SLP303 T10721133 FZRANO
KPQL 251653Z 02007KT 10SM SCT045 OVC060 17/15 A3016 RMK AO2 RAE53 SLP213 P0000 T01720150
KPQN 251735Z AUTO 28015KT 10SM OVC009 M05/M07 A2981 RMK AO2
KPRB 251653Z AUTO 00000KT 10SM CLR 06/01 A3032 RMK AO2 SLP271 T00560011 $
KPRC 251653Z 35007KT 10SM CLR 01/M13 A3020 RMK AO2 SLP223 T00111128
KPRG 251735Z AUTO 24018G23KT 10SM SCT031 06/01 A3009 RMK AO2 T00640009
KPRN 251656Z AUTO 33008KT 10SM FEW006 OVC047 16/13 A3018 RMK AO2 SLP217 T01610133
KPRO 251735Z AUTO 25010KT 10SM CLR 01/M03 A2996 RMK AO2 T00071028
KPRS 251735Z AUTO 26004KT 10SM CLR 16/M12 A3013 RMK AO2 T01561124
KPRX 251656Z AUTO 09007KT 10SM CLR 11/08 A3010 RMK AO2 SLP213 T01110078
KPSC 251653Z 21024G33KT 10SM CLR 08/M03 A2984 RMK AO2 PK WND 22033/1649 SLP107 T00781028
KPSF 251701Z AUTO 09009G17KT 10SM -RA OVC013 02/M01 A2996 RMK AO2 P0000 T00171006
KPSK 251735Z AUTO 22014G18KT 10SM SCT039 BKN100 OVC120 17/11 A3003 RMK AO2 T01660105
KPSM 251708Z 11010KT 2SM -RA BR SCT011 OVC017 03/02 A3017 RMK AO2A
KPSN 251735Z AUTO 09011G14KT 10SM SCT012 BKN110 12/10 A3005 RMK AO2 T01210102
KPSO 251735Z AUTO 20006KT 10SM SCT050 SCT060 M03/M15 A3003 RMK AO2 T10321153
KPSP 251653Z 02012KT 10SM CLR 16/M11 A3030 RMK AO2 SLP262 T01611106
KPSX 251702Z AUTO 16011KT 6SM BR FEW010 BKN026 OVC050 23/22 A2996 RMK AO2 T02330222
KPTB 251735Z AUTO 21009KT 10SM OVC095 21/14 A3000 RMK AO2 T02100135
KPTD 251735Z AUTO 18021G31KT 6SM -UP FEW025 BKN033 OVC060 06/04 A2970 RMK AO2
KPTK 251653Z 24017G28KT 10SM BKN030 04/M03 A2979 RMK AO2 PK WND 22028/1622 SLP096 T00441028
KPTN 251656Z AUTO 07008KT 10SM OVC022 19/17 A3008 RMK AO2 SLP188 T01940172
KPTS 251735Z AUTO 20010KT 10SM CLR 06/M01 A3011 RMK AO2 T00591012
KPTT 251735Z AUTO 15012G20KT 10SM CLR 07/M04 A3001 RMK AO2 T00721043
KPTV 251656Z AUTO VRB03KT 10SM CLR 07/M01 A3037 RMK AO2 SLP297 T00721006
KPTW 251654Z AUTO 09007KT 10SM -RA OVC006 06/06 A2993 RMK AO2 SLP135 P0001 T00610061
KPUB 251653Z 29017KT 10SM CLR 04/M14 A2996 RMK AO2 SLP161 T00441139
KPUC 251653Z AUTO 30006KT 10SM CLR M04/M14 A3011 RMK AO2 SLP257 T10391144
KPUJ 251735Z AUTO 00000KT 10SM -RA SCT007 SCT047 OVC090 16/16 A3016 RMK AO2
KPUW 251653Z AUTO 16008KT 10SM OVC036 01/M02 A2983 RMK AO2 SLP131 T00061017
KPVB 251735Z AUTO 24014G22KT 10SM CLR 01/M04 A2986 RMK AO1 T00061039
KPVC 251720Z AUTO 11015KT 6SM -RA BR BKN010 OVC028 04/03 A3013 RMK AO2 CIG 008V012 P0003
KPVD 251651Z 11013G21KT 5SM -RA BR BKN009 OVC012 05/04 A3010 RMK AO2 SLP192 P0005 T00500044
KPVE 251735Z AUTO 02004KT 10SM CLR 11/04 A3012 RMK A01
KPVF 251735Z AUTO 17003KT 10SM CLR 08/M08 A3029 RMK AO1
KPVG 251656Z AUTO 25016G24KT 10SM BKN044 OVC080 24/16 A3001 RMK AO2 PK WND 24027/1641 SLP165 T02440161 PNO $
KPVJ 251735Z AUTO 16006KT 10SM CLR 11/05 A3006 RMK AO2 P0001 T01140050
KPVU 251658Z COR 00000KT 10SM FEW055 00/M08 A3025 RMK AO2 SLP273 T00001083
KPVW 251735Z AUTO 25013G22KT 10SM CLR 13/M14 A2999 RMK AO2 T01251136
KPWA 251653Z 16015KT 10SM CLR 10/01 A3005 RMK AO2 SLP179 T01000006
KPWC 251735Z AUTO 27010G20KT 5SM -SN OVC018 M07/M11 A2964 RMK AO2
KPWG 251656Z AUTO 12008KT 10SM SCT017 SCT110 14/11 A3007 RMK AO2 SLP198 T01390106
KPWK 251652Z 25016G25KT 10SM CLR 04/M04 A2990 RMK AO2 PK WND 27027/1625 SLP127 T00391044
KPWM 251738Z 11010G15KT 1SM -SN BR OVC005 01/01 A3020 RMK AO2 P0005 T00060006 $
KPWT 251744Z AUTO 21014KT 10SM SCT012 04/03 A2979 RMK AO2
KPXE 251735Z AUTO 34015G27KT 4SM +RA BR BKN030 BKN043 BKN095 18/16 A3017 RMK AO2 P0011 T01780164
KPYM 251652Z AUTO 09013KT 7SM -RA BKN008 OVC025 06/03 A3013 RMK AO2 CIG 006V011 SLP202 P0005 T00560028
KPYX 251735Z AUTO 32008KT 10SM CLR 08/M05 A2997 RMK AO2 T00761048
KPZQ 251735Z AUTO 24022G36KT 10SM OVC030 01/M04 A2954 RMK AO2 T00091045
KRAC 251653Z AUTO 26014G29KT 10SM CLR 02/M05 A2982 RMK AO2 PK WND 27035/1606 SLP104 T00221050
KRAL 251653Z 12006KT 10SM CLR 13/M06 A3022 RMK AO2 SLP225 T01281056 $
KRAP 251652Z 32007KT 10SM CLR M01/M09 A2978 RMK AO2 SLP127 T10111089 $
KRAW 251735Z AUTO 00000KT 10SM CLR A3012 RMK AO2
KRBD 251653Z 13008KT 10SM CLR 13/08 A3007 RMK AO2 SLP181 T01330083
KRBG 251653Z AUTO 16004KT 10SM OVC035 06/03 A3021 RMK AO2 RAE43 SLP233 P0001 T00610033
KRBL 251654Z AUTO 34006KT 10SM CLR 05/M02 A3034 RMK AO2 SLP274 T00501017
KRBO 251735Z AUTO 17009KT 10SM SCT010 BKN041 OVC050 24/22 A2994 RMK AO2 T02430215
KRBW 251735Z AUTO 24015G20KT 10SM SCT075 SCT090 27/17 A3012 RMK AO2
KRCA 251656Z AUTO 32008KT 10SM CLR M02/M09 A2976 RMK AO2 SLP123 T10221094 $
KRCM 251815Z AUTO 19005KT 10SM CLR 06/M01 A3010 RMK AO2
KRCR 251735Z AUTO 24017G24KT 10SM OVC027 05/M01 A3000 RMK AO2
KRCV 251730Z AUTO 27013G21KT 10SM SCT060 SCT070 SCT080 M03/M20 A2998 RMK AO2 T10321196
KRCX 251735Z AUTO 24016G21KT 10SM OVC016 M04/M07 A2965 RMK AO2 T10431073
KRCZ 251735Z AUTO 23012KT 10SM BKN043 BKN060 BKN080 24/16 A3007 RMK AO2 T02430159
KRDD 251653Z 00000KT 10SM CLR 03/M01 A3032 RMK AO2 SLP270 T00331011
KRDG 251725Z 34006KT 10SM OVC009 08/07 A2996 RMK AO2 T00780072
KRDK 251735Z AUTO 26009G14KT 10SM CLR 03/M02 A3001 RMK AO2
KRDM 251656Z 18014G20KT 10SM BKN047 BKN060 04/M03 A2995 RMK AO2 SLP157 T00391033
KRDR 251656Z AUTO 28014KT 10SM OVC050 M03/M07 A2956 RMK AO2 SLP030 T10331073 $
KRDU 251651Z 29013G17KT 10SM SCT037 BKN060 BKN075 22/12 A3008 RMK AO2 SLP183 T02170122
KREG 251735Z AUTO 11008KT 10SM SCT055 SCT065 OVC110 20/16 A3005 RMK AO2 T01970161 TSNO
KREO 251652Z AUTO 17010KT M01/M09 A3011 RMK AO1 SLP224 T10111089
KRFD 251654Z 26010G22KT 10SM CLR 02/M06 A2990 RMK AO2 SLP130 T00171056 $
KRFI 251735Z AUTO 12011G22KT 10SM -RA SCT019 SCT043 OVC100 11/08 A3009 RMK AO2 LTG DSNT SE T01100078
KRGA 251735Z AUTO 00000KT 7SM CLR 10/05 A3008 RMK AO2
KRGK 251735Z AUTO 26010KT 10SM CLR M04/M12 A2976 RMK AO2
KRHI 251727Z AUTO 25019G29KT 2SM -SN BR OVC011 M07/M08 A2955 RMK AO2 PK WND 26031/1713 VIS 1V4 UPE05SNB05 P0000 T10671083
KRHP 251735Z AUTO 23004G09KT 10SM SCT065 SCT075 OVC100 15/13 A3015 RMK AO2 T01480129
KRHV 251747Z 00000KT 10SM SKC 10/04 A3035
KRIC 251654Z 24006KT 10SM FEW028 BKN100 OVC180 16/13 A2999 RMK AO2 RAE1557 SLP160 P0000 T01610128
KRID 251735Z AUTO 25013KT 10SM CLR 05/02 A3003 RMK AO2
KRIL 251653Z AUTO 00000KT 10SM CLR M06/M11 A3012 RMK AO2 SLP236 T10561111
KRIV 251658Z AUTO 07010G16KT 10SM CLR 12/M09 A3021 RMK AO2 SLP233 T01241093
KRIW 251653Z AUTO 26011KT 10SM CLR M05/M18 A2980 RMK AO2 SLP140 T10501178
KRKD 251743Z AUTO 13009KT 1 1/2SM -SN BR SCT009 BKN013 OVC020 01/M01 A3025 RMK AO2 RAB13E25UPB25E31SNB31 P0000 FZRANO
KRKP 251735Z AUTO 17010G17KT 5SM HZ SCT007 OVC016 24/21 A2994 RMK AO2 T02440211
KRKR 251735Z AUTO 36003KT 10SM CLR 11/01 A3010 RMK AO2
KRKS 251654Z AUTO 26023G29KT 10SM CLR M08/M13 A2998 RMK AO2 PK WND 25030/1559 SLP216 T10831133
KRKW 251735Z AUTO 17007KT 140V200 10SM FEW037 12/10 A3008 RMK A01
KRLD 251735Z AUTO 19014G23KT 10SM BKN050 OVC055 09/M01 A2985 RMK AO2 T00861011
KRME 251653Z 12013KT 10SM FEW016 OVC023 03/02 A2989 RMK AO2 RAB12E53 SLP123 P0000 T00330022
KRMG 251653Z AUTO 16008KT 10SM OVC090 14/13 A3014 RMK AO2 RAB26E53 PRESFR SLP199 P0000 T01390128
KRMN 251735Z AUTO 33003KT 10SM OVC006 12/12 A2998 RMK AO2 T01200120
KRMY 251735Z AUTO 23015G23KT 200V260 10SM BKN033 BKN039 04/M03 A2987 RMK AO2 T00421033
KRNC 251735Z AUTO 25008KT 10SM BKN013 13/11 A3012 RMK A01
KRND 251656Z AUTO 02012KT 10SM OVC025 17/09 A3000 RMK AO2 SLP155 T01670094 $
KRNH 251735Z AUTO 23013G17KT 10SM BKN037 M05/M10 A2971 RMK AO2 T10481104
KRNM 251653Z 00000KT 10SM CLR 11/M02 A3019 RMK AO2 SLP223 T01111017 $
KRNO 251655Z 00000KT 10SM FEW075 FEW100 FEW200 M02/M09 A3028 RMK AO2 SLP270 T10221089 $
KRNP 251735Z AUTO 23019G28KT 10SM SCT035 SCT044 05/M04 A2980 RMK AO2 T00521036
KRNT 251711Z 17009G17KT 10SM FEW019 BKN024 OVC110 06/03 A2982 RMK AO2 T00610033
KRNV 251735Z AUTO 10004KT 10SM CLR 12/05 A3012 RMK AO2 T01210053
KROA 251654Z 24009KT 10SM OVC150 18/10 A3000 RMK AO2 SLP150 T01830100
KROC 251654Z 25018G39KT 10SM SCT060 BKN085 11/05 A2975 RMK AO2 PK WND 26041/1643 RAE04 SLP079 P0000 T01110050
KROG 251658Z 15005KT 10SM CLR 08/00 A3012 RMK AO2 SLP204 T00780000
KROS 251735Z AUTO 23010G15KT 10SM OVC029 M05/M10 A2968 RMK AO2 T10521100
KROW 251651Z 02011KT 10SM CLR 08/M11 A3004 RMK AO2 SLP158 T00781106 $
KROX 251735Z AUTO 25011KT 10SM SCT012 SCT090 M06/M09 A2951 RMK AO2
KRPD 251735Z AUTO 23011G14KT 10SM SCT017 SCT022 OVC032 M05/M08 A2968 RMK AO2 T10501085
KRPH 251735Z AUTO 14009G14KT 15/06 A3004 RMK AO2 T01470061 PWINO
KRPJ 251735Z AUTO 23014KT 10SM CLR 02/M03 A2993 RMK AO2 T00231028
KRQB 251735Z AUTO 26021G29KT 10SM SCT029 SCT035 03/M05 A2972 RMK AO2 T00251047
KRQE 251653Z AUTO 30007KT 280V340 10SM SCT039 M01/M10 A3013 RMK AO2 SLP201 T10111100 TSNO
KRQO 251735Z AUTO 18014KT 10SM CLR 10/04 A3005 RMK AO2 T01000044
KRRL 251735Z AUTO 26018G24KT 7SM OVC014 M05/M08 A2962 RMK AO2 T10481077
KRRT 251735Z AUTO 24010KT 1/2SM -SN VV005 M06/M08 A2949 RMK AO2
KRSL 251653Z AUTO 19007KT 10SM CLR 07/M08 A3002 RMK AO2 SLP182 T00671083
KRSN 251735Z AUTO 00000KT 7SM RA SCT021 SCT055 OVC090 12/10 A3016 RMK AO2 P0001 T01150098
KRSP 251654Z AUTO 32005KT OVC002 07/07 A2997 RMK AO2 SLP161 T00670067 PWINO $
KRST 251654Z 25016KT 10SM CLR M06/M09 A2976 RMK AO2 SLP097 T10611094
KRSV 251735Z AUTO 24011KT 10SM CLR 06/01 A3011 RMK AO2 P0001 T00620013
KRSW 251653Z 17008KT 10SM FEW035 27/19 A3017 RMK AO2 SLP214 T02720194
KRTN 251653Z AUTO 28009G22KT 10SM CLR 03/M17 A2992 RMK AO2 WSHFT 1541 SLP134 T00331167
KRTS 251735Z AUTO 00000KT 10SM CLR M03/M08 A3027 RMK AO2
KRUE 251653Z AUTO 09004KT 10SM CLR 09/01 A3013 RMK AO2 SLP201 T00940006 $
KRUQ 251735Z AUTO 20008KT 10SM 17/17 A3005 RMK AO2 T01740174
KRUT 251656Z AUTO 12018G38KT 10SM OVC043 02/M02 A2997 RMK AO2 PK WND 12038/1647 RAB38E51SNE38 SLP170 P0000 T00171022 FZRANO $
KRVS 251653Z VRB05KT 10SM CLR 09/02 A3010 RMK AO2 SLP201 T00940017
KRWF 251739Z AUTO 26013KT 10SM SCT027 M04/M08 A2979 RMK AO2 T10441083
KRWI 251653Z AUTO 26012G21KT 10SM SCT045 BKN065 24/14 A3006 RMK AO2 SLP178 T02440144
KRWL 251735Z AUTO 25034G42KT 1 1/4SM HZ OVC016 M08/M13 A2989 RMK AO2 PK WND 25042/1732 T10831128 PWINO FZRANO $
KRWV 251735Z AUTO 07008G16KT 10SM OVC042 15/10 A3003 RMK AO2 LTG DSNT E T01550098
KRXE 251653Z AUTO 21016G27KT 5SM -SN BKN016 OVC024 M08/M11 A3003 RMK AO2 PK WND 20027/1647 SNE26B41 SLP220 P0000 T10781106
KRYN 251645Z 00000KT 10SM CLR 09/M07 A3022
KRYV 251735Z AUTO 24012G23KT 10SM CLR 00/M06 A2980 RMK AO2 T00021061
KRYW 251735Z AUTO 05010G15KT 10SM OVC065 11/11 A3004 RMK AO2 T01130110
KRYY 251648Z 27008KT 10SM -RA SCT028 OVC100 16/14 A3019 RMK AO2 PRESRR SLP942 P0001 T01560144
KRZL 251735Z AUTO 23017KT 10SM OVC026 05/M01 A3000 RMK AO2
KRZN 251735Z AUTO 25013G18KT 10SM OVC030 M05/M08 A2965 RMK AO2 T10481085
KRZR 251735Z AUTO VRB04G10KT 10SM CLR 14/11 A3011 RMK A01
KRZT 251735Z AUTO 26012KT 10SM SCT029 10/03 A3003 RMK AO2
KS32 251735Z AUTO 28020KT 9SM FEW050 M05/M08 A2960 RMK AO2
KS39 251735Z AUTO 18016G24KT 10SM BKN044 OVC050 03/M03 A2996 RMK AO2
KS52 251735Z AUTO 00000KT 1SM -SN BR SCT008 OVC014 M05/M06 A2965 RMK AO2 T10471058
KSAA 251730Z AUTO 24025G34KT 10SM CLR M08/M13 A2992 RMK AO2
KSAC 251653Z 36007KT 10SM CLR 08/01 A3034 RMK AO2 SLP280 T00830006 $
KSAD 251651Z AUTO 31010KT 10SM CLR 09/M09 A3017 RMK AO2 SLP209 T00891094
KSAF 251653Z 26015G21KT 10SM SCT050 01/M09 A3002 RMK AO2 SLP170 T00111094
KSAN 251651Z 36005KT 10SM CLR 13/M02 A3023 RMK AO2 SLP236 T01331022
KSAR 251735Z AUTO 26003KT 10SM CLR 07/00 A3013 RMK AO2 T00731005
KSAT 251651Z 06010KT 10SM BKN030 OVC100 19/07 A3000 RMK AO2 SLP147 T01890072
KSAV 251653Z 26012G22KT 10SM SCT037 SCT200 28/17 A3015 RMK AO2 SLP207 T02830172
KSAW 251745Z 25021G32KT 7SM BKN M03/M07 A2941
KSAZ 251735Z AUTO 27013G20KT 10SM OVC018 M06/M09 A2963 RMK AO2
KSBA 251653Z AUTO 00000KT 10SM CLR 13/03 A3024 RMK AO2 SLP240 T01330028
KSBD 251650Z 00000KTKT 10SMSM SKC 12/M05 A3023
KSBM 251653Z AUTO 25020G28KT 10SM CLR 01/M05 A2972 RMK AO2 PK WND 24034/1637 SLP071 T00061050 TSNO
KSBN 251702Z 25023G30KT 10SM BKN028 04/M03 A2993 RMK AO2 PK WND 25030/1702 T00391028
KSBO 251735Z AUTO 28009KT 10SM OVC027 25/18 A3015 RMK AO2
KSBP 251656Z 01009KT 10SM CLR 14/01 A3030 RMK AO2 SLP260 T01390006
KSBS 251730Z AUTO 00000KT 10SM SCT032 BKN039 M08/M13 A3002 RMK AO1 T10761135
KSBY 251701Z 22008KT 10SM FEW006 SCT029 OVC048 14/14 A2997 RMK AO2 RAE1659 P0000 T01440139
KSCD 251735Z AUTO 14004KT 10SM SCT060 SCT075 OVC085 14/14 A3014 RMK AO2 T01400140
KSCF 251735Z AUTO 13010KT 6SM BR 23/22 A3005 RMK A01
KSCH 251655Z 16006KT 10SM BKN011 OVC014 04/03 A2999
KSCK 251655Z 33003KT 10SM CLR 08/02 A3036 RMK AO2 SLP279 T00830017
KSCR 251735Z AUTO 16003KT 10SM -RA SCT060 OVC075 17/16 A3008 RMK AO2 T01710158
KSCX 251735Z AUTO 27004KT 10SM BKN013 BKN018 OVC029 11/09 A3008 RMK A01
KSDA 251735Z AUTO 22011KT CLR 03/M01 A3002 RMK AO2
KSDB 251653Z AUTO 07018G24KT 10SM CLR 04/M10 A3025 RMK AO2 SLP241 T00391100
KSDC 251735Z AUTO 17005KT 10SM SCT065 BKN080 08/07 A2977 RMK AO2
KSDF 251656Z 24007KT 10SM OVC200 08/01 A3011 RMK AO2 SLP195 T00830011 $
KSDL 251653Z 00000KT 10SM CLR 11/M09 A3023 RMK AO2 SLP233 T01061089
KSDM 251653Z 33004KT 10SM CLR 12/M03 A3019 RMK AO2 SLP224 T01221028
KSDY 251656Z AUTO 21009KT 10SM CLR M09/M14 RMK AO2 SLPNO T10891139 FZRANO $
KSEA 251653Z 21021G28KT 10SM BKN014 OVC020 05/05 A2980 RMK AO2 PK WND 20030/1602 SLP098 T00500050
KSEE 251647Z 00000KT 10SM SKC 07/M01 A3022
KSEF 251735Z AUTO 17006KT 10SM CLR 29/16 A3016 RMK AO2 T02890164
KSEG 251653Z AUTO 17007KT 10SM FEW014 OVC019 08/06 A2994 RMK AO2 SLP140 T00780056
KSEM 251735Z AUTO 15010KT 10SM SCT005 SCT055 BKN070 14/13 A3013 RMK AO2
KSEP 251735Z AUTO 16006KT 10SM SCT110 16/07 A3007 RMK AO2 T01640070
KSET 251654Z AUTO 23006KT 10SM 06/M03 A3011 RMK AO2 SLP198 T00561033 $
KSEZ 251735Z AUTO 16005KT 10SM CLR 06/M10 A3020 RMK AO2
KSFB 251653Z 21009KT 10SM SCT037 28/17 A3017 RMK AO2 SLP217 T02780172
KSFF 251742Z 22018G25KT 10SM BKN030 OVC060 03/M03 A2970 RMK AO2 PK WND 21030/1655 T00281028
KSFM 251739Z AUTO 11005KT 1 1/4SM -SN BR OVC003 01/00 A3018 RMK AO2 P0003 FZRANO
KSFO 251656Z 00000KT 10SM CLR 10/05 A3036 RMK AO2 SLP282 T01000050 $
KSFQ 251735Z AUTO 26016G20KT 10SM BKN039 BKN049 OVC070 25/16 A3002 RMK AO2 T02450155
KSFY 251735Z AUTO 24012G17KT 10SM CLR 03/M05 A2992 RMK AO2 T00271051
KSFZ 251656Z AUTO 5SM RA BR OVC005 03/03 A3010 RMK AO2 SLP140 P0007 T00330028 $
KSGF 251652Z 17003KT 10SM CLR 07/M03 A3010 RMK AO2 SLP199 T00671033
KSGH 251656Z AUTO 26022G26KT 10SM CLR 07/02 A3000 RMK AO2 PK WND 26026/1655 SLP164 T00720022
KSGJ 251656Z 27007KT 10SM SCT020 BKN070 OVC090 27/19 A3018 RMK AO2 SLP220 T02720194
KSGR 251653Z 03013KT 10SM -RA OVC006 16/14 A3000 RMK AO2 RAE14B30 SLP160 P0000 T01560139
KSGS 251735Z AUTO 25011G17KT 10SM CLR M05/M11 A2976 RMK AO2 T10491106
KSGT 251656Z AUTO 08004KT 10SM CLR 11/03 A3015 RMK AO2 SLP212 T01110033
KSGU 251656Z AUTO 26005KT 10SM CLR 03/M10 A3028 RMK AO2 SLP262 T00331100
KSHD 251735Z AUTO 22007G14KT 10SM SCT120 15/12 A2994 RMK AO2 T01510121
KSHL 251735Z AUTO 27016KT 10SM CLR M05/M08 A2986 RMK AO2
KSHN 251712Z AUTO 23016KT 10SM FEW014 BKN042 OVC055 04/03 A2983 RMK AO2 RAE10 P0001 T00440028
KSHR 251653Z AUTO 31008KT 8SM CLR M01/M13 A2972 RMK AO2 SLP112 T10111128 $
KSHV 251656Z 17009KT 10SM -RA SCT013 OVC100 13/12 A3012 RMK AO2 RAB15 SLP199 P0000 T01280117
KSIF 251735Z AUTO 21008KT 10SM OVC100 19/14 A3002 RMK AO2 T01940143
KSIK 251755Z AUTO 00000KT 10SM CLR 09/01 A3014 RMK AO2
KSIY 251653Z AUTO 21005KT 10SM FEW055 OVC095 M01/M03 A3026 RMK AO2 SLP276 T10111033
KSJC 251653Z 08003KT 10SM FEW018 FEW140 08/04 A3037 RMK AO2 SLP283 T00830044 $
KSJN 251654Z AUTO 31007KT 10SM CLR 01/M11 A3017 RMK AO2 SLP213 T00111111 TSNO
KSJS 251735Z AUTO 29006KT 10SM SCT026 OVC048 13/07 A3005 RMK AO2 T01320073
KSJT 251651Z 00000KT 10SM SCT100 15/M01 A3005 RMK AO2 SLP174 T01501006
KSJX 251735Z AUTO 24019G31KT 10SM OVC024 M01/M05 A2955 RMK AO2 T10081047
KSKA 251658Z COR 20018G30KT 9SM BKN018 OVC055 00/00 A2966 RMK AO2A PK WND 22035/55 BKN V OVC SLP072 T00011005 $ COR 1705
KSKF 251726Z AUTO 05011KT 10SM BKN025 20/09 A2998 RMK AO2 SLP148 $
KSKX 251656Z AUTO 30016G24KT 10SM FEW042 M01/M13 A3001 RMK AO2 SLP194 T10111128 FZRANO $
KSLB 251735Z AUTO 27020KT 10SM CLR M03/M07 A2988 RMK AO2
KSLC 251654Z 27005KT 10SM FEW035 SCT055 SCT200 M01/M11 A3024 RMK AO2 SLP256 T10061106
KSLE 251723Z 19018G25KT 7SM -RA SCT008 BKN023 OVC055 06/03 A3002 RMK AO2 P0001 T00560033
KSLG 251656Z AUTO 14003KT 10SM CLR 08/01 A3011 RMK AO2 SLP201 T00830011
KSLH 251735Z AUTO 24024G37KT 10SM OVC027 00/M05 A2952 RMK AO2 T10051050
KSLI 251658Z 36005KT 10SM CLR 12/M01 A3023 RMK AO2A SLP240 T01211014
KSLK 251651Z AUTO 17018G23KT 10SM OVC027 03/00 A2974 RMK AO2 PK WND 18033/1557 SNB1559E42 SLP090 P0000 T00280000 $
KSLN 251653Z 21008KT 10SM BKN100 07/M05 A3006 RMK AO2 SLP187 T00721050
KSLO 251735Z AUTO 25008KT 10SM CLR 07/00 A3012 RMK AO2 T00711004
KSLR 251735Z AUTO 13005KT 10SM CLR 14/11 A3011 RMK AO2 T01390107
KSME 251735Z AUTO 27006KT 10SM CLR 10/04 A3012 RMK AO2
KSMF 251653Z 36008KT 10SM FEW250 07/02 A3034 RMK AO2 SLP275 T00720017
KSMN 251656Z AUTO 19013KT 10SM OVC065 01/M12 A2993 RMK AO2 SLP173 T00061122 FZRANO
KSMO 251651Z 00000KT 10SM CLR 14/03 A3024 RMK AO2 SLP238 T01390028
KSMP 251656Z AUTO 21011G20KT 190V250 1/4SM -SN FZFG VV002 M02/M03 A2964 RMK AO2 SLP063 P0011 T10171028 $
KSMQ 251653Z AUTO 10005KT 10SM -RA OVC009 06/06 A2993 RMK AO2 PRESFR SLP135 P0000 T00610056
KSMS 251735Z AUTO 23011G19KT 10SM FEW041 SCT049 27/16 A3010 RMK AO2
KSMX 251651Z 05005KT 10SM CLR 13/01 A3028 RMK AO2 SLP256 T01330011 $
KSNA 251653Z 00000KT 10SM CLR 13/01 A3023 RMK AO2 SLP235 T01280011
KSNC 251735Z AUTO VRB05KT 2 1/2SM RA OVC005 05/05 A3002 RMK AO2
KSNH 251735Z AUTO 00000KT 10SM CLR 11/07 A3012 RMK A01
KSNK 251735Z AUTO 20013G16KT 10SM CLR 14/M07 A3003 RMK AO2 T01441068
KSNL 251735Z AUTO 21011KT 10SM CLR 12/02 A3005 RMK AO2 T01150021
KSNS 251653Z 00000KT 10SM CLR 08/04 A3036 RMK AO2 SLP289 T00830039
KSNT 251651Z AUTO 10005KT M09/M14 A2995 RMK AO1 SLP173 T10941144
KSNY 251653Z AUTO 29019G29KT 10SM CLR 01/M13 A2990 RMK AO2 PK WND 28029/1650 SLP161 T00111128
KSOA 251735Z AUTO 00000KT 10SM CLR 19/M02 A3008 RMK AO2
KSOP 251656Z AUTO 26009G15KT 230V300 10SM BKN042 BKN055 25/16 A3008 RMK AO2 SLP199 T02500161
KSOW 251735Z AUTO 01010KT 10SM CLR 00/M14 A3019 RMK AO2
KSPA 251735Z AUTO 18003KT 10SM OVC080 18/15 A3009 RMK AO2
KSPB 251725Z AUTO 00000KT 4SM -RA BR FEW018 BKN033 OVC042 06/05 A2996 RMK AO2 RAB05 P0004 T00610050
KSPD 251656Z AUTO VRB03KT 01/M12 A2997 RMK AO1 SLP163 T00111122 $
KSPF 251755Z AUTO 28013G18KT 10SM M01/M12 A2974 RMK AO2
KSPG 251653Z 18007KT 10SM CLR 26/19 A3016 RMK AO2 SLP211 T02610194
KSPI 251652Z 25014KT 10SM CLR 05/M03 A3008 RMK AO2 SLP188 T00501028
KSPR 251735Z AUTO 18017KT 6SM HZ FEW090 24/22 A3003 RMK A01
KSPS 251652Z AUTO 17012KT 10SM CLR 12/05 A3006 RMK AO2 SLP177 T01220050
KSPW 251653Z AUTO 28010KT 10SM CLR M04/M09 A2986 RMK AO2 SLP130 T10391089
KSQI 251656Z AUTO 25014KT 10SM CLR 03/M03 A2992 RMK AO2 SLP156 T00281033
KSQL 251747Z 00000KT 10SM SKC 09/05 A3037
KSRB 251735Z AUTO 31004KT 10SM SCT021 BKN031 12/10 A3011 RMK A01
KSRC 251656Z AUTO 05007KT 10SM CLR 09/02 A3016 RMK AO2 SLP225 T00940017
KSRQ 251653Z 20013KT 10SM CLR 27/19 A3016 RMK AO2 SLP211 T02720194
KSRR 251735Z AUTO 32013G20KT 10SM CLR 04/M18 A3007 RMK AO2 P0001
KSSC 251656Z AUTO 24013KT 10SM SCT037 26/16 A3008 RMK AO2 SLP186 T02570157
KSSF 251653Z 05009KT 10SM OVC026 19/09 A2998 RMK AO2 LTG DSNT S SLP147 T01890094 $
KSSI 251653Z AUTO 14007KT 10SM FEW085 25/19 A3016 RMK AO2 SLP215 T02500194
KSTC 251702Z 26013KT 10SM OVC028 M07/M11 A2968 RMK AO2 T10671106
KSTE 251735Z AUTO 24007G15KT 10SM OVC014 M05/M07 A2969 RMK AO2 T10491066
KSTF 251735Z AUTO 15004KT 10SM SCT006 BKN110 12/10 A3012 RMK AO2
KSTJ 251653Z 21011KT 10SM CLR 04/M01 A3007 RMK AO2 SLP188 T00441011 $
KSTK 251730Z AUTO 30016G26KT 10SM CLR 04/M13 A2993 RMK AO2
KSTL 251651Z VRB06KT 10SM FEW250 07/M03 A3012 RMK AO2 SLP202 T00671028
KSTP 251653Z 24011G17KT 10SM CLR M07/M12 A2974 RMK AO2 SLP080 T10671117
KSTS 251653Z VRB05KT 10SM CLR 08/02 A3035 RMK AO2 SLP272 T00780022
KSUA 251750Z 11012G20KT 7SM SCT035 29/19 A3018
KSUE 251656Z AUTO 24024G36KT 10SM BKN021 M02/M06 A2961 RMK AO2 PK WND 24036/1649 SLP048 T10171061 FZRANO
KSUN 251647Z 31006KT 10SM SCT080 STC120 M11/M16 A3004
KSUS 251654Z 23005KT 10SM CLR 06/M03 A3012 RMK AO2 SLP201 T00611028
KSUT 251740Z AUTO 22008G14KT 190V260 10SM CLR 21/19 A3011 RMK AO2 T02140185
KSUU 251658Z AUTO 20006KT 10SM CLR 08/04 A3033 RMK AO2 SLP278 T00840044 $
KSUW 251735Z AUTO 26016G23KT 10SM BKN025 OVC037 M03/M07 A2954 RMK AO2 T10261073
KSUX 251652Z 27007KT 10SM CLR M01/M09 A2993 RMK AO2 SLP152 T10111089
KSVC 251735Z AUTO 30015G22KT 10SM CLR 07/M16 A3013 RMK AO2 T00671156
KSVE 251735Z AUTO 00000KT 10SM CLR 00/M07 A3026 RMK AO2
KSVH 251735Z AUTO 21006KT 10SM OVC100 18/17 A3006 RMK AO2 T01820166
KSVN 251656Z AUTO 25014G19KT 10SM FEW042 28/18 A3012 RMK AO2 SLP202 T02800178 $
KSWF 251745Z 12010KT 7SM -RA OVC010 06/05 A2996
KSWO 251653Z 14010KT 10SM CLR 09/02 A3007 RMK AO2 SLP184 T00940017
KSWW 251735Z AUTO 22014G23KT 10SM CLR 18/M10 A3006 RMK AO2 T01801099
KSXS 251658Z AUTO M M M M M M RMK AO2 SLPNO PWINO PNO FZRANO TSNO $
KSXT 251656Z AUTO 20011G22KT M1/4SM -SN FZFG VV001 M01/M01 A3014 RMK AO2 SLP240 P0001 T10111011
KSXU 251735Z AUTO 29023G30KT 10SM CLR 07/M12 A3002 RMK AO2 T00661119
KSYF 251735Z AUTO 26011KT 10SM CLR 05/M12 A2997 RMK AO2 T00501118
KSYI 251735Z AUTO 30005KT 10SM OVC012 11/09 A3013 RMK A01
KSYM 251735Z AUTO 29007KT 260V320 10SM CLR 10/02 A3009 RMK AO2
KSYN 251735Z AUTO 25012KT 7SM CLR M04/M10 A2977 RMK AO2 T10431100
KSYR 251738Z 17004KT 6SM -RA BR BKN019 BKN024 OVC040 07/06 A2983 RMK AO2 RAB17 P0000 T00720061 $
KSZL 251655Z 22007KT 10SM CLR 06/M04 A3008 RMK AO2A SLPNO ALSTG ESTMD $
KSZT 251735Z AUTO 23005KT 3SM -SN OVC020 00/M02 A2970 RMK AO2
KT20 251735Z AUTO 02010KT 10SM OVC011 15/13 A3000 RMK AO2 T01530133
KT35 251735Z AUTO 08008KT 5SM RA SCT015 BKN050 OVC065 13/12 A3004 RMK AO2 LTG DSNT NE P0029 T01300115
KT65 251735Z AUTO 22008KT 10SM SCT018 OVC048 26/21 A2993 RMK AO2 T02580207
KT82 251735Z AUTO 08008KT 10SM CLR 16/06 A3005 RMK AO2 T01600063
KTAD 251654Z AUTO 29018G23KT 10SM CLR 03/M17 A2995 RMK AO2 PK WND 31027/1627 SLP143 T00331167
KTAN 251707Z AUTO 09008KT 6SM -RA BR BKN011 OVC017 04/03 A3010 RMK AO2 P0001 T00440033
KTAZ 251735Z AUTO 26009KT 10SM CLR 06/M01 A3009 RMK AO2 T00561012
KTBN 251656Z AUTO 12004KT 10SM CLR 07/M04 A3011 RMK AO2 SLP205 T00661039
KTBR 251735Z AUTO 23012G17KT 10SM BKN022 BKN028 BKN034 25/17 A3014 RMK AO2 T02510165
KTCC 251653Z AUTO 27018G27KT 10SM CLR 10/M13 A2997 RMK AO2 PK WND 25027/1611 SLP136 T01001128
KTCL 251653Z AUTO 28007KT 10SM -RA FEW085 OVC110 12/11 A3017 RMK AO2 RAE1555B15E29B50 SLP216 P0000 T01220111
KTCM 251734Z AUTO 23012KT 10SM -RA SCT019 BKN025 BKN070 05/05 A2986 RMK AO2 RAE00RAB34 CIG 023V070 CIG 023 RWY34 SLP117 $
KTCS 251653Z AUTO 34014G21KT 10SM CLR 08/M17 A3013 RMK AO2 SLP179 T00831172
KTDF 251735Z AUTO 20009KT 10SM OVC095 20/13 A3005 RMK AO2
KTDR 251656Z AUTO 20005KT 10SM OVC080 24/21 A3014 RMK AO2 RAB1559E09SHRAB09E30 SLP210 P0001 T02370206 $
KTDZ 251653Z AUTO 25019G30KT 10SM SCT027 06/M01 A2992 RMK AO2 PK WND 24033/1605 SLP136 T00561011 $
KTEB 251651Z 06014KT 5SM -RA BR OVC008 06/04 A2998 RMK AO2 PRESFR SLP152 P0004 T00560039 $
KTEW 251735Z AUTO 24017G26KT 10SM BKN033 06/M04 A2984 RMK AO2 T00561045
KTEX 251735Z AUTO 28008KT 1/2SM -SN BKN006 OVC014 M09/M12 A3006 RMK AO2 T10931122
KTFP 251735Z AUTO 7SM DZ OVC008 23/21 A2995 RMK AO2 T02340214 PNO
KTGI 251738Z AUTO 07005KT 5SM SCT005 SCT026 OVC070 11/11 A2995 RMK AO1
KTHA 251735Z AUTO 00000KT 10SM SCT010 BKN014 BKN033 12/10 A3009 RMK A01
KTHV 251714Z AUTO 00000KT 10SM BKN006 OVC011 09/08 A2994 RMK AO2 PRESFR T00890083
KTIF 251735Z AUTO 26009G14KT CLR 02/M07 A2989 RMK AO2 T00191069
KTIK 251656Z AUTO 17012KT 10SM CLR 10/00 A3005 RMK AO2 SLP188 T00971002 $
KTIP 251735Z AUTO 24014G20KT 10SM SCT026 06/01 A3005 RMK AO2 T00600009
KTIW 251653Z 21012G20KT 10SM BKN012 BKN018 OVC023 04/03 A2983 RMK AO2 PK WND 21026/1602 RAE15 SLP104 P0001 T00440033
KTIX 251650Z 200014KT 7SM SCT040 29/17 A3019
KTKC 251735Z AUTO 25015G21KT 7SM CLR M03/M06 A2978 RMK AO2 T10351059
KTKI 251653Z 15008KT 10SM CLR 13/08 A3009 RMK AO2 SLP196 T01280083 $
KTKV 251735Z AUTO 25007G15KT 5SM BR OVC011 M06/M09 A2959 RMK AO2 T10651087
KTKX 251735Z AUTO 36005KT 7SM CLR 10/01 A3014 RMK AO2
KTLH 251722Z 15003KT 10SM FEW007 BKN070 OVC090 22/21 A3016 RMK AO2 T02170206
KTMA 251730Z AUTO 24008KT 10SM SCT018 SCT025 SCT090 25/20 A3014 RMK AO2 T02460196
KTMB 251653Z 14010G18KT 10SM CLR 28/19 A3018 RMK AO2 SLP218 T02780189
KTME 251735Z AUTO 08011KT 10SM OVC012 14/14 A3001 RMK AO2
KTMK 251735Z AUTO 20010KT 10SM SCT024 BKN033 OVC041 07/05 A3001 RMK AO2
KTMT 251735Z AUTO 00000KT 10SM CLR A3024 RMK AO2
KTNB 251735Z AUTO 27007KT 10SM -RA SCT090 14/04 A3008 RMK AO2 T01410042
KTNU 251735Z AUTO 26016G21KT 10SM -UP CLR 03/M04 A2995 RMK AO2
KTOA 251647Z 00000KT 10SM SKC 11/02 A3024
KTOB 251735Z AUTO 25016G22KT 7SM CLR M06/M10 A2977 RMK AO2
KTOC 251735Z AUTO 19003KT 10SM -DZ SCT032 BKN060 OVC080 20/18 A3011 RMK AO2 T02040182
KTOI 251653Z AUTO 34009KT 10SM OVC039 17/16 A3020 RMK AO2 RAE31 SLP222 P0002 T01720156
KTOL 251728Z 23023G31KT 10SM OVC030 06/M02 A2992 RMK AO2 PK WND 24033/1703 T00611017
KTOP 251653Z 22007KT 10SM CLR 07/M04 A3007 RMK AO2 SLP189 T00671039
KTOR 251653Z AUTO 27024G32KT 10SM CLR M01/M12 A2986 RMK AO2 PK WND 27032/1653 SLP139 T10061117
KTPA 251653Z 21008KT 10SM SCT024TCU 26/21 A3018 RMK AO2 SLP218 TCU W CU BLDG AND DSIPTG RPDLY T02610206
KTPF 251735Z AUTO 21007KT 10SM SCT100 SCT120 27/20 A3016 RMK AO2
KTPH 251656Z AUTO 04003KT 10SM CLR M02/M12 A3025 RMK AO2 SLP263 T10221117
KTPL 251651Z AUTO 09006KT 10SM OVC090 13/09 A3008 RMK AO2 LTG DSNT E-S SLP201 T01330094
KTQE 251654Z AUTO 24006KT 10SM CLR M01/M07 A2996 RMK AO2 SLP155 T10111072
KTQH 251735Z AUTO 12007KT 100V160 10SM CLR 11/08 A3010 RMK AO2
KTRI 251653Z 28014KT 10SM FEW055 OVC110 15/13 A3011 RMK AO2 SLP177 T01500128 $
KTRK 251745Z 00000KT 10SM SCT060 SCT190 M06/M11 A3026
KTRL 251653Z AUTO 15007KT 10SM FEW120 14/09 A3009 RMK AO2 SLP188 T01440094
KTRM 251652Z AUTO 32010KT 10SM CLR 18/M10 A3027 RMK AO2 SLP251 T01831100
KTSP 251735Z AUTO 11010G15KT 10SM CLR 05/M12 A3028 RMK AO2
KTTA 251735Z AUTO 31007KT 10SM SCT002 SCT007 SCT049 20/14 A3009 RMK AO2 T02000136
KTTD 251743Z 22016G22KT 10SM SCT021 BKN050 OVC100 07/05 A2997 RMK AO2 PK WND 22026/1725 RAE1654 P0000 T00720050
KTTF 251735Z AUTO 25024G33KT 10SM OVC030 05/M01 A2989 RMK AO2 T00531014
KTTN 251653Z 07010KT 10SM -RA OVC007 07/06 A2994 RMK AO2 PRESFR SLP134 P0001 T00670056
KTTS 251656Z AUTO 21007KT 10SM FEW038 27/20 A3018 RMK AO2 SLP224 T02700203 $
KTUL 251653Z 13006KT 10SM FEW025 09/02 A3010 RMK AO2 SLP193 T00940022 $
KTUP 251653Z 35005KT 10SM CLR 11/07 A3013 RMK AO2 SLP201 T01110072
KTUS 251653Z 00000KT 10SM CLR 08/M05 A3022 RMK AO2 SLP223 T00831050
KTVC 251653Z 23016G29KT 10SM BKN032 OVC036 01/M05 A2961 RMK AO2 PK WND 21037/1623 SLP034 T00111050
KTVF 251657Z AUTO 25010KT 10SM SCT039 OVC085 M09/M13 A2956 RMK AO2 SNB19E42 SLP033 P0000 T10941128 FZRANO
KTVI 251735Z AUTO 29004KT 5SM -DZ SCT034 BKN050 OVC060 A3017 RMK AO2
KTVK 251735Z AUTO 22013G19KT 10SM 06/M03 A3002 RMK AO2
KTVL 251653Z AUTO 19003KT 10SM CLR M08/M11 A3023 RMK AO2 SLP286 T10831111
KTVR 251653Z AUTO 07006KT 10SM -RA FEW048 FEW070 OVC110 12/11 A3011 RMK AO2 RAB02E13B44 SLP203 P0000 T01220106
KTWF 251653Z 19014KT 10SM CLR M04/M10 A3012 RMK AO2 SLP221 T10391100 $
KTWM 251735Z AUTO 26016G23KT 10SM OVC026 M01/M06 A2945 RMK AO2
KTXK 251653Z 10004KT 10SM CLR 12/07 A3011 RMK AO2 SLP194 T01170072
KTYQ 251735Z AUTO 25015G21KT 10SM OVC024 05/00 A3005 RMK AO2 T00460003
KTYR 251653Z 12011KT 10SM FEW065 SCT120 15/10 A3007 RMK AO2 SLP180 T01500100
KTYS 251653Z 27010KT 10SM SCT120 OVC250 13/10 A3013 RMK AO2 SLP197 T01330106 $
KTZR 251645Z 24013KT 10SM SKC 08/04 A2999
KU42 251735Z AUTO 00000KT 10SM CLR M03/M12 A3024 RMK AO1 P0002 T10301117
KU68 251735Z AUTO 07004KT 10SM CLR M07/M13 A2979 RMK AO2
KUAO 251653Z 20012G22KT 4SM -RA BR BKN008 OVC021 06/04 A3001 RMK AO2 SLP161 P0005 T00560044
KUBE 251735Z AUTO 25015G19KT 10SM OVC029 M06/M10 A2965 RMK AO2
KUCP 251656Z AUTO 27012G21KT 10SM CLR 11/M01 A2988 RMK AO2 SLP137 T01111006
KUCY 251735Z AUTO 00000KT 10SM CLR 09/01 A3013 RMK A01
KUDG 251656Z AUTO 24014KT 10SM FEW042 26/16 A3009 RMK AO2 SLP192 T02560161
KUES 251745Z 24019G24KT 10SM SKC 01/M07 A2981
KUGN 251655Z 25010G21KT 230V290 10SM CLR 04/M04 A2984 RMK AO2 PK WND 24027/1634 SLP113 T00391039
KUIL 251653Z AUTO 27004KT 10SM FEW044 SCT090 OVC110 03/02 A2985 RMK AO2 RAE29 SLP110 P0000 T00330017
KUIN 251654Z AUTO 22009KT 10SM CLR 04/M04 A3005 RMK AO2 SLP180 T00441039 $
KUKF 251730Z AUTO 22007KT 10SM OVC110 17/13 A3010 RMK AO2
KUKI 251656Z AUTO 00000KT 10SM CLR 03/M01 A3039 RMK AO2 SLP292 T00281006
KUKT 251735Z AUTO 10005KT 10SM OVC005 06/06 A2993 RMK A01
KULM 251735Z AUTO 26013KT 10SM CLR M06/M09 A2979 RMK AO2
KUNI 251735Z AUTO 27013KT 10SM CLR 12/03 A3001 RMK AO2 T01180032
KUNO 251653Z AUTO 00000KT 10SM CLR 07/M01 A3013 RMK AO2 SLP206 T00721006
KUNU 251735Z AUTO 24018G24KT 10SM CLR 00/M06 A2978 RMK AO2 T10051061
KUNV 251653Z 20008KT 10SM OVC012 08/07 A2988
KUSE 251740Z AUTO 24019G29KT 10SM BKN028 OVC033 05/02 A2993 RMK AO2
KUTA 251735Z AUTO 00000KT 10SM 10/05 A3015 RMK AO2 TSNO
KUTS 251653Z AUTO 36008KT 10SM -RA FEW031 OVC060 12/11 A3008 RMK AO2 LTG DSNT NE-SE SLP184 P0010 T01170106
KUUU 251653Z AUTO 10014G25KT 5SM -RA BR BKN008 OVC015 04/03 A3007 RMK AO2 SLP184 P0008 T00390033
KUVA 251735Z AUTO 05010KT 10SM SCT031 21/07 A3001 RMK AO2 T02100074
KUXL 251735Z AUTO 06007KT 10SM BKN007 OVC015 18/17 A3004 RMK AO2 LTG DSNT N T01800167
KUYF 251735Z AUTO 25016G19KT 10SM CLR 08/02 A3000 RMK AO2
KUZA 251724Z AUTO 25003KT 6SM -RA SCT017 BKN047 OVC060 18/14 A3010 RMK AO2 P0003 T01780144
KVAD 251656Z AUTO 22009KT 10SM FEW024 FEW180 SCT200 27/19 A3015 RMK AO2 SLP211 T02650191 $
KVAF 251735Z AUTO 18015KT 4SM HZ FEW015 24/22 A2999 RMK A01
KVAY 251654Z AUTO 04005KT 10SM -RA OVC007 07/07 A2995 RMK AO2 RAE13B51 SLP140 P0001 T00720067
KVBG 251658Z AUTO 09005KT 9SM CLR 12/01 A3027 RMK AO2 SLP254 T01220005 CHINO RWY12 $
KVBS 251730Z AUTO VRB06KT 10SM BKN015 BKN023 OVC028 22/21 A3001 RMK A01
KVBT 251656Z AUTO 19006KT 10SM CLR 08/M01 A3013 RMK AO2 SLP211 T00781006
KVBW 251735Z AUTO 10SM SCT120 12/12 A2992 RMK AO2 T01200116
KVCB 251653Z AUTO 17005KT 10SM CLR 09/02 A3035 RMK AO2 SLP278 T00940022
KVCT 251651Z 04008KT 8SM OVC007 16/15 A2997 RMK AO2 CIG 004V009 SLP148 T01610150
KVCV 251747Z 00000KT 10SM SKC 08/M10 A3029
KVDF 251735Z AUTO 24005KT 10SM BKN044 BKN060 27/18 A3016 RMK AO2
KVDI 251735Z AUTO 25008KT 10SM BKN023 OVC034 26/19 A3015 RMK AO2
KVEL 251653Z AUTO 00000KT 10SM CLR M08/M13 A3012 RMK AO2 SLP262 T10831133
KVER 251735Z AUTO 22007KT 10SM CLR 07/M02 A3012 RMK AO2 T00671023
KVES 251730Z AUTO 25012G18KT 10SM SCT022 05/02 A3001 RMK AO2
KVGT 251653Z 35008KT 10SM CLR 08/M13 A3029 RMK AO2 SLP282 T00781128
KVIH 251653Z AUTO 23006KT 10SM CLR 05/M02 A3012 RMK AO2 SLP205 T00501017 $
KVIS 251656Z AUTO 18004KT 10SM CLR 06/01 A3037 RMK AO2 SLP293 T00610011
KVJI 251735Z AUTO 27004KT 10SM SCT018 SCT070 OVC100 15/12 A3006 RMK AO2 T01460117
KVKY 251735Z AUTO 21008KT 10SM FEW026 24/20 A3011 RMK A01
KVLD 251653Z VRB04KT 10SM FEW027 SCT070 OVC090 26/18 A3016 RMK AO2 SLP220 T02560183
KVLL 251735Z AUTO 22019G28KT 10SM SCT033 BKN039 06/M02 A2985 RMK AO2 T00581016
KVNC 251735Z AUTO 19011G17KT 10SM CLR 28/21 A3016 RMK AO2
KVNY 251651Z 07005KT 10SM CLR 13/M06 A3021 RMK AO2 SLP229 T01331056
KVOA 251735Z AUTO 18011KT 9SM CLR 25/21 A3009 RMK A01
KVOK 251656Z 25014G18KT 10SM FEW020 M02/M06 A2974 RMK AO2A SLP085
KVPC 251653Z AUTO 23003KT 10SM SCT017 BKN041 OVC100 14/14 A3020 RMK AO2 RAE08 SLP216 P0000 T01440139
KVPS 251734Z 33015G26KT 10SM SCT020 BKN025 BKN100 BKN200 26/21 A3013 RMK AO2A VIS LWR W-NW VCSH 2W-NW $
KVPZ 251704Z AUTO 25022G29KT 10SM SCT029 04/M03 A2995 RMK AO2 PK WND 25028/1657 T00441028 $
KVQQ 251750Z 23008KT 10SM BKN040 BKN070 28/20 A3015
KVQT 251735Z AUTO 00000KT 6SM HZ FEW090 25/22 A3004 RMK A01
KVRB 251653Z 11013KT 10SM BKN075 28/19 A3019 RMK AO2 SLP221 T02780194
KVSF 251703Z AUTO 00000KT 1SM UP BR FEW004 OVC018 M01/M01 A3009 RMK AO2 UPB1655SNE1655 P0001 T10061006
KVTA 251654Z AUTO 23009KT 10SM CLR 10/04 A2997 RMK AO2 SLP149 T01000039
KVTI 251755Z AUTO 25013G18KT 10SM CLR 03/M04 A2990 RMK AO2 T00331039 10033 21050
KVTN 251652Z AUTO 25011KT 10SM CLR M02/M11 A2986 RMK AO2 SLP147 T10221106
KVTP 251742Z AUTO 26009G22KT 190V040 10SM SCT050 BKN055 BKN070 M07/M20 A2998 RMK AO2
KVUJ 251735Z AUTO 19005KT 10SM RA SCT042 SCT050 OVC065 18/17 A3012 RMK AO2 P0003 T01750166
KVUO 251729Z AUTO VRB04KT 10SM -RA SCT017 BKN043 OVC080 07/06 A2997 RMK AO2 RAE05B18 P0000 T00670056
KVVV 251727Z AUTO 29011G19KT 10SM CLR M02/M07 A2973 RMK AO2
KVWU 251735Z AUTO 25015G19KT 7SM SCT016 BKN034 OVC060 M06/M08 A2951 RMK AO2 P0001
KVYS 251735Z AUTO 23015G21KT 10SM CLR 04/M04 A2998 RMK AO2 T00391040
KW13 251730Z AUTO 23010G14KT 10SM CLR 17/11 A2994 RMK AO1 T01650112
KW22 251735Z AUTO 24011G17KT 10SM BKN024 OVC028 14/10 A2995 RMK AO2
KW29 251735Z AUTO 15006KT 7SM -RA BR SCT005 SCT043 OVC110 09/09 A2991 RMK AO2 P0001
KW31 251735Z AUTO 20005KT 10SM OVC085 18/15 A2999 RMK AO1 T01780150
KW43 251735Z AUTO 25009G15KT 10SM SCT065 BKN085 M03/M12 A2975 RMK AO2
KW63 251735Z AUTO 20005KT 10SM OVC100 20/16 A3000 RMK AO1
KW75 251735Z AUTO 27003KT 5SM SCT004 SCT060 OVC080 13/13 A2998 RMK AO1 P0001 T01280128
KW78 251730Z AUTO 20007KT 10SM OVC095 19/16 A3001 RMK AO1 T01910156
KW81 251735Z AUTO 20005KT 10SM OVC100 20/16 A2997 RMK AO1 T01970164
KW96 251735Z AUTO 19007KT 120V240 10SM OVC095 18/14 A2996 RMK AO1 T01800140
KW99 251735Z AUTO 25015G22KT 10SM SCT050 18/09 A2990 RMK AO2 T01750094
KWAL 251744Z AUTO 32012KT 5SM -RA BR FEW009 BKN043 OVC060 16/14 A2998 RMK AO2 RAB36 P0000 T01560139 $
KWDG 251650Z 15008KT 10SM FEW200 09/03 A3004
KWDR 251735Z AUTO 24003KT 10SM SCT070 OVC085 18/16 A3017 RMK AO1
KWHP 251555Z 00000KT 10SM SKC 10/M03 A3025
KWJF 251656Z 00000KT 10SM CLR 03/M08 A3031 RMK AO2 SLP275 T00331078
KWLD 251654Z AUTO 18009KT 10SM CLR 08/02 A3008 RMK AO2 SLP191 T00830017 $
KWMC 251656Z AUTO 18011KT 10SM FEW070 M02/M09 A3023 RMK AO2 SLP265 T10221089
KWRB 251738Z 33010KT 9SM -RA FEW002 FEW026 SCT032 BKN047 20/16 A3015 RMK AO2A DZB35E38RAB38 SLP211
KWRI 251736Z AUTO 11007KT 10SM OVC005 07/07 A2987 RMK AO2 RAB1657E20RAB23E36 PRESFR SLP115
KWRL 251653Z AUTO 00000KT 10SM CLR M13/M17 A2981 RMK AO2 SLP172 T11331172 $
KWST 251742Z AUTO 06017KT 2 1/2SM -RA BR OVC007 05/04 A3001 RMK AO2 P0008 T00500044
KWVI 251653Z AUTO 00000KT 10SM CLR 07/04 A3036 RMK AO2 SLP282 T00720039
KWVL 251733Z AUTO 00000KT 1/2SM SN FZFG OVC008 M03/M04 A3020 RMK AO2 UPE1657SNB1657 CIG 005V012 P0002 FZRANO
KWWD 251730Z AUTO 25006KT 10SM SCT003 OVC090 09/09 A2995 RMK AO2
KWWR 251735Z AUTO 25008KT 10SM CLR 07/M07 A3001 RMK AO2
KWYS 251735Z AUTO 24016G24KT 3/4SM -SN VV005 M11/M14 A2987 RMK AO2
KX60 251735Z AUTO 21008G15KT 9SM CLR 30/18 A3016 RMK A01
KXBP 251735Z AUTO 15010G15KT 10SM CLR 15/07 A3009 RMK AO2 T01450072
KXIH 251735Z AUTO 5SM BR FEW030 23/21 A2997 RMK A01
KXLL 251735Z AUTO 34004KT 10SM OVC007 07/06 A2998 RMK AO2
KXMR 251656Z AUTO 15009KT 10SM CLR 27/20 A3018 RMK AO2 SLP223 T02650196 $
KXNA 251700Z 14004KT 10SM SKC 08/00 A3011
KXNO 251739Z AUTO 23016G21KT 10SM BKN030 24/12 A3012 RMK AO2 SLP200 $
KXPY 251735Z AUTO 17009KT 8SM CLR 26/22 A3007 RMK A01
KXSA 251735Z AUTO 16006KT 10SM BKN095 14/13 A2995 RMK AO2 T01400127
KXVG 251736Z AUTO 24013G20KT 7SM SCT020 OVC031 M06/M10 A2957 RMK AO2
KY23 251735Z AUTO 23011G18KT 210V280 10SM SCT016 OVC035 M05/M09 A2968 RMK AO2 T10481092
KY31 251735Z AUTO 24019G31KT 10SM BKN035 BKN040 03/M05 A2965 RMK AO2 T00301046
KY49 251735Z AUTO 26016G20KT 10SM BKN019 BKN028 M06/M10 A2956 RMK AO2 T10591103
KY50 251656Z AUTO 25021G28KT 10SM FEW027 M01/M07 A2972 RMK AO2 PK WND 26028/1656 SLP090 T10061067
KY51 251735Z AUTO 25014G21KT 10SM CLR M02/M06 A2977 RMK AO1 T10201056
KY63 251735Z AUTO 28020G25KT 210V330 10SM OVC018 M05/M07 A2969 RMK AO2 T10461072
KY70 251735Z AUTO 23024G34KT 10SM OVC033 04/M03 A2981 RMK AO2 T00441032
KYIP 251653Z 25027G33KT 10SM SCT033 06/M02 A2984 RMK AO2 PK WND 24038/1554 SLP109 T00611022
KYKM 251653Z 26017G30KT 10SM CLR 09/M01 A2976 RMK AO2 PK WND 26030/1645 SLP083 T00891006
KYKN 251656Z AUTO 25012KT 10SM CLR M01/M09 A2991 RMK AO2 SLP159 T10061089 FZRANO
KYNG 251651Z 24013G20KT 10SM OVC230 10/03 A2986 RMK AO2 SLP114 T01000028
KZPH 251735Z AUTO 18004KT 10SM SCT044 SCT055 SCT075 27/17 A3017 RMK AO2 T02730173
KZZV 251653Z AUTO 26009KT 10SM CLR 11/03 A2996 RMK AO2 SLP145 T01060033